<?xml version="1.0" encoding="UTF-8"?>
<gpx creator="Garmin Connect" version="1.1"
  xsi:schemaLocation="http://www.topografix.com/GPX/1/1 http://www.topografix.com/GPX/11.xsd"
  xmlns:ns3="http://www.garmin.com/xmlschemas/TrackPointExtension/v1"
  xmlns="http://www.topografix.com/GPX/1/1"
  xmlns:xsi="http://www.w3.org/2001/XMLSchema-instance" xmlns:ns2="http://www.garmin.com/xmlschemas/GpxExtensions/v3">
  <metadata>
    <name>LU - Dag 5</name>
    <link href="connect.garmin.com">
      <text>Garmin Connect</text>
    </link>
    <time>2024-12-29T15:16:25.000Z</time>
  </metadata>
  <wpt lat="49.96595664320257" lon="6.02615291926276">
    <ele>0.0</ele>
    <name>Waterpunt 1</name>
    <type>GENERIC</type>
  </wpt>
  <wpt lat="49.9662365020091" lon="6.02587281131558">
    <ele>0.0</ele>
    <name>Hoogste punt 1</name>
    <type>GENERIC</type>
  </wpt>
  <wpt lat="49.97227266881458" lon="6.02408834226678">
    <ele>0.0</ele>
    <name>Waterpunt 2</name>
    <type>GENERIC</type>
  </wpt>
  <wpt lat="49.97791795939062" lon="6.0223339709394">
    <ele>0.0</ele>
    <name>Waterpunt 3</name>
    <type>GENERIC</type>
  </wpt>
  <wpt lat="49.97851908196663" lon="6.02231764736828">
    <ele>0.0</ele>
    <name>Waterpunt 4</name>
    <type>GENERIC</type>
  </wpt>
  <wpt lat="49.97881252943333" lon="6.02201478565388">
    <ele>0.0</ele>
    <name>Waterpunt 5</name>
    <type>GENERIC</type>
  </wpt>
  <wpt lat="49.98056340300562" lon="6.01739583455689">
    <ele>0.0</ele>
    <name>Hoogste punt 2</name>
    <type>GENERIC</type>
  </wpt>
  <wpt lat="49.98062894715353" lon="6.00024274716504">
    <ele>0.0</ele>
    <name>Hoogste punt 3</name>
    <type>GENERIC</type>
  </wpt>
  <wpt lat="49.99355800757576" lon="5.98908494758731">
    <ele>0.0</ele>
    <name>Waterpunt 6</name>
    <type>GENERIC</type>
  </wpt>
  <wpt lat="50.00002259136411" lon="5.99996891723908">
    <ele>0.0</ele>
    <name>Fotopunt</name>
    <type>GENERIC</type>
  </wpt>
  <wpt lat="50.00277716571678" lon="6.0046615437336">
    <ele>0.0</ele>
    <name>Hoogste punt 4</name>
    <type>GENERIC</type>
  </wpt>
  <wpt lat="50.03066856293729" lon="6.01685046345836">
    <ele>0.0</ele>
    <name>Hoogste punt 5</name>
    <type>GENERIC</type>
  </wpt>
  <wpt lat="50.0422552999224" lon="6.02749102231585">
    <ele>0.0</ele>
    <name>Hoogste punt 6</name>
    <type>GENERIC</type>
  </wpt>
  <trk>
    <name>LU - Dag 5</name>
    <trkseg>
      <trkpt lat="49.95637399144471" lon="6.030421843752265">
        <ele>267.2</ele>
        <time>2024-12-29T15:16:25.000Z</time>
      </trkpt>
      <trkpt lat="49.95646099559963" lon="6.03032092563808">
        <ele>266.45</ele>
        <time>2024-12-29T15:16:25.015Z</time>
      </trkpt>
      <trkpt lat="49.95650298893452" lon="6.030225958675146">
        <ele>265.6</ele>
        <time>2024-12-29T15:16:25.039Z</time>
      </trkpt>
      <trkpt lat="49.95653693564236" lon="6.030018925666809">
        <ele>264.57</ele>
        <time>2024-12-29T15:16:25.082Z</time>
      </trkpt>
      <trkpt lat="49.95655596256256" lon="6.029753973707557">
        <ele>263.52</ele>
        <time>2024-12-29T15:16:25.148Z</time>
      </trkpt>
      <trkpt lat="49.95652997866273" lon="6.02954694069922">
        <ele>262.54</ele>
        <time>2024-12-29T15:16:25.232Z</time>
      </trkpt>
      <trkpt lat="49.95649393647909" lon="6.029459936544299">
        <ele>261.71</ele>
        <time>2024-12-29T15:16:25.325Z</time>
      </trkpt>
      <trkpt lat="49.956437945365906" lon="6.029423978179693">
        <ele>261.01</ele>
        <time>2024-12-29T15:16:25.426Z</time>
      </trkpt>
      <trkpt lat="49.95616897009313" lon="6.02939497679472">
        <ele>260.3</ele>
        <time>2024-12-29T15:16:25.563Z</time>
      </trkpt>
      <trkpt lat="49.95612697675824" lon="6.029370920732617">
        <ele>259.89</ele>
        <time>2024-12-29T15:16:25.706Z</time>
      </trkpt>
      <trkpt lat="49.956309953704476" lon="6.028985939919949">
        <ele>259.74</ele>
        <time>2024-12-29T15:16:25.890Z</time>
      </trkpt>
      <trkpt lat="49.9564019870013" lon="6.0287759732455015">
        <ele>259.68</ele>
        <time>2024-12-29T15:16:26.096Z</time>
      </trkpt>
      <trkpt lat="49.9564709700644" lon="6.028586961328983">
        <ele>259.73</ele>
        <time>2024-12-29T15:16:26.321Z</time>
      </trkpt>
      <trkpt lat="49.956543976441026" lon="6.028355956077576">
        <ele>259.89</ele>
        <time>2024-12-29T15:16:26.568Z</time>
      </trkpt>
      <trkpt lat="49.95657398365438" lon="6.02823399938643">
        <ele>260.23</ele>
        <time>2024-12-29T15:16:26.826Z</time>
      </trkpt>
      <trkpt lat="49.956657802686095" lon="6.027903836220503">
        <ele>260.62</ele>
        <time>2024-12-29T15:16:27.115Z</time>
      </trkpt>
      <trkpt lat="49.95674170553684" lon="6.027573673054576">
        <ele>261.28</ele>
        <time>2024-12-29T15:16:27.434Z</time>
      </trkpt>
      <trkpt lat="49.956824937835336" lon="6.027245940640569">
        <ele>261.98</ele>
        <time>2024-12-29T15:16:27.783Z</time>
      </trkpt>
      <trkpt lat="49.95685695670545" lon="6.027226997539401">
        <ele>262.81</ele>
        <time>2024-12-29T15:16:28.137Z</time>
      </trkpt>
      <trkpt lat="49.956910936161876" lon="6.027143932878971">
        <ele>263.78</ele>
        <time>2024-12-29T15:16:28.501Z</time>
      </trkpt>
      <trkpt lat="49.9570079986006" lon="6.026968918740749">
        <ele>264.92</ele>
        <time>2024-12-29T15:16:28.885Z</time>
      </trkpt>
      <trkpt lat="49.95709617622197" lon="6.0267494805157185">
        <ele>266.09</ele>
        <time>2024-12-29T15:16:29.291Z</time>
      </trkpt>
      <trkpt lat="49.95718393474817" lon="6.026530964300036">
        <ele>267.4</ele>
        <time>2024-12-29T15:16:29.719Z</time>
      </trkpt>
      <trkpt lat="49.9572239164263" lon="6.026456952095032">
        <ele>268.7</ele>
        <time>2024-12-29T15:16:30.156Z</time>
      </trkpt>
      <trkpt lat="49.95726297609508" lon="6.026418982073665">
        <ele>270.03</ele>
        <time>2024-12-29T15:16:30.599Z</time>
      </trkpt>
      <trkpt lat="49.95728493668139" lon="6.026326948776841">
        <ele>271.35</ele>
        <time>2024-12-29T15:16:31.050Z</time>
      </trkpt>
      <trkpt lat="49.95732299052179" lon="6.026350921019912">
        <ele>272.73</ele>
        <time>2024-12-29T15:16:31.507Z</time>
      </trkpt>
      <trkpt lat="49.95735299773514" lon="6.026406995952129">
        <ele>274.15</ele>
        <time>2024-12-29T15:16:31.970Z</time>
      </trkpt>
      <trkpt lat="49.957381999120116" lon="6.026491988450289">
        <ele>275.65</ele>
        <time>2024-12-29T15:16:32.441Z</time>
      </trkpt>
      <trkpt lat="49.95739893056452" lon="6.026583937928081">
        <ele>277.19</ele>
        <time>2024-12-29T15:16:32.921Z</time>
      </trkpt>
      <trkpt lat="49.95749892666936" lon="6.026696925982833">
        <ele>278.96</ele>
        <time>2024-12-29T15:16:33.417Z</time>
      </trkpt>
      <trkpt lat="49.957532957196236" lon="6.026704972609878">
        <ele>280.62</ele>
        <time>2024-12-29T15:16:33.918Z</time>
      </trkpt>
      <trkpt lat="49.95757897384465" lon="6.026636995375156">
        <ele>282.24</ele>
        <time>2024-12-29T15:16:34.427Z</time>
      </trkpt>
      <trkpt lat="49.9576229788363" lon="6.026509925723076">
        <ele>283.79</ele>
        <time>2024-12-29T15:16:34.949Z</time>
      </trkpt>
      <trkpt lat="49.95764896273613" lon="6.026507997885346">
        <ele>285.39</ele>
        <time>2024-12-29T15:16:35.474Z</time>
      </trkpt>
      <trkpt lat="49.95766396634281" lon="6.026569940149784">
        <ele>287.01</ele>
        <time>2024-12-29T15:16:36.005Z</time>
      </trkpt>
      <trkpt lat="49.95769992470741" lon="6.026505986228585">
        <ele>288.54</ele>
        <time>2024-12-29T15:16:36.543Z</time>
      </trkpt>
      <trkpt lat="49.957728926092386" lon="6.026495927944779">
        <ele>290.07</ele>
        <time>2024-12-29T15:16:37.085Z</time>
      </trkpt>
      <trkpt lat="49.95792699046433" lon="6.026460975408554">
        <ele>291.91</ele>
        <time>2024-12-29T15:16:37.654Z</time>
      </trkpt>
      <trkpt lat="49.95800192467868" lon="6.026378916576505">
        <ele>293.48</ele>
        <time>2024-12-29T15:16:38.235Z</time>
      </trkpt>
      <trkpt lat="49.958089934661984" lon="6.0263389348983765">
        <ele>295.01</ele>
        <time>2024-12-29T15:16:38.828Z</time>
      </trkpt>
      <trkpt lat="49.95815698988736" lon="6.026333989575505">
        <ele>296.43</ele>
        <time>2024-12-29T15:16:39.430Z</time>
      </trkpt>
      <trkpt lat="49.9582239612937" lon="6.026358967646956">
        <ele>297.69</ele>
        <time>2024-12-29T15:16:40.041Z</time>
      </trkpt>
      <trkpt lat="49.958281964063644" lon="6.026488970965147">
        <ele>298.91</ele>
        <time>2024-12-29T15:16:40.666Z</time>
      </trkpt>
      <trkpt lat="49.95831498876214" lon="6.026598941534758">
        <ele>299.96</ele>
        <time>2024-12-29T15:16:41.301Z</time>
      </trkpt>
      <trkpt lat="49.95835396461189" lon="6.026726933196187">
        <ele>300.87</ele>
        <time>2024-12-29T15:16:41.949Z</time>
      </trkpt>
      <trkpt lat="49.95836393907666" lon="6.026858948171139">
        <ele>301.57</ele>
        <time>2024-12-29T15:16:42.608Z</time>
      </trkpt>
      <trkpt lat="49.95840392075479" lon="6.026928937062621">
        <ele>302.03</ele>
        <time>2024-12-29T15:16:43.275Z</time>
      </trkpt>
      <trkpt lat="49.95844599790871" lon="6.0270689986646175">
        <ele>302.34</ele>
        <time>2024-12-29T15:16:43.955Z</time>
      </trkpt>
      <trkpt lat="49.95867599733174" lon="6.02727091871202">
        <ele>302.43</ele>
        <time>2024-12-29T15:16:44.671Z</time>
      </trkpt>
      <trkpt lat="49.95878194458783" lon="6.027328921481967">
        <ele>302.14</ele>
        <time>2024-12-29T15:16:45.402Z</time>
      </trkpt>
      <trkpt lat="49.95891697704792" lon="6.0274439211934805">
        <ele>301.57</ele>
        <time>2024-12-29T15:16:46.153Z</time>
      </trkpt>
      <trkpt lat="49.95910992845893" lon="6.027518939226866">
        <ele>300.58</ele>
        <time>2024-12-29T15:16:46.931Z</time>
      </trkpt>
      <trkpt lat="49.95920296758413" lon="6.027596974745393">
        <ele>299.55</ele>
        <time>2024-12-29T15:16:47.723Z</time>
      </trkpt>
      <trkpt lat="49.95930497534573" lon="6.027647936716676">
        <ele>298.28</ele>
        <time>2024-12-29T15:16:48.529Z</time>
      </trkpt>
      <trkpt lat="49.9594169575721" lon="6.027778945863247">
        <ele>296.86</ele>
        <time>2024-12-29T15:16:49.354Z</time>
      </trkpt>
      <trkpt lat="49.95950999669731" lon="6.027793949469924">
        <ele>295.27</ele>
        <time>2024-12-29T15:16:50.191Z</time>
      </trkpt>
      <trkpt lat="49.95954595506191" lon="6.027760924771428">
        <ele>293.63</ele>
        <time>2024-12-29T15:16:51.034Z</time>
      </trkpt>
      <trkpt lat="49.95960496366024" lon="6.027742987498641">
        <ele>291.86</ele>
        <time>2024-12-29T15:16:51.885Z</time>
      </trkpt>
      <trkpt lat="49.95973396115005" lon="6.027743993327022">
        <ele>289.96</ele>
        <time>2024-12-29T15:16:52.753Z</time>
      </trkpt>
      <trkpt lat="49.95976195670664" lon="6.027711974456906">
        <ele>288.16</ele>
        <time>2024-12-29T15:16:53.626Z</time>
      </trkpt>
      <trkpt lat="49.959891960024834" lon="6.027709962800145">
        <ele>286.28</ele>
        <time>2024-12-29T15:16:54.516Z</time>
      </trkpt>
      <trkpt lat="49.9599629547447" lon="6.027652965858579">
        <ele>284.45</ele>
        <time>2024-12-29T15:16:55.417Z</time>
      </trkpt>
      <trkpt lat="49.960022969171405" lon="6.0275269858539104">
        <ele>282.61</ele>
        <time>2024-12-29T15:16:56.331Z</time>
      </trkpt>
      <trkpt lat="49.96020192280412" lon="6.027261950075626">
        <ele>280.63</ele>
        <time>2024-12-29T15:16:57.278Z</time>
      </trkpt>
      <trkpt lat="49.96031398884952" lon="6.027186932042241">
        <ele>278.9</ele>
        <time>2024-12-29T15:16:58.242Z</time>
      </trkpt>
      <trkpt lat="49.960431922227144" lon="6.027108980342746">
        <ele>277.3</ele>
        <time>2024-12-29T15:16:59.223Z</time>
      </trkpt>
      <trkpt lat="49.96056494303048" lon="6.026999931782484">
        <ele>275.94</ele>
        <time>2024-12-29T15:17:00.224Z</time>
      </trkpt>
      <trkpt lat="49.96060794219375" lon="6.026933966204524">
        <ele>274.77</ele>
        <time>2024-12-29T15:17:01.233Z</time>
      </trkpt>
      <trkpt lat="49.96067399159074" lon="6.026901947334409">
        <ele>273.78</ele>
        <time>2024-12-29T15:17:02.251Z</time>
      </trkpt>
      <trkpt lat="49.960815981030464" lon="6.026821983978152">
        <ele>272.98</ele>
        <time>2024-12-29T15:17:03.289Z</time>
      </trkpt>
      <trkpt lat="49.960925951600075" lon="6.026882920414209">
        <ele>272.42</ele>
        <time>2024-12-29T15:17:04.343Z</time>
      </trkpt>
      <trkpt lat="49.96093994937837" lon="6.026925919577479">
        <ele>272.06</ele>
        <time>2024-12-29T15:17:05.401Z</time>
      </trkpt>
      <trkpt lat="49.96093693189323" lon="6.026988951489329">
        <ele>271.92</ele>
        <time>2024-12-29T15:17:06.465Z</time>
      </trkpt>
      <trkpt lat="49.960969956591725" lon="6.027047960087657">
        <ele>271.98</ele>
        <time>2024-12-29T15:17:07.535Z</time>
      </trkpt>
      <trkpt lat="49.96100096963346" lon="6.027159942314029">
        <ele>272.28</ele>
        <time>2024-12-29T15:17:08.616Z</time>
      </trkpt>
      <trkpt lat="49.961032988503575" lon="6.027241917327046">
        <ele>272.78</ele>
        <time>2024-12-29T15:17:09.705Z</time>
      </trkpt>
      <trkpt lat="49.96102293021977" lon="6.027384996414185">
        <ele>273.49</ele>
        <time>2024-12-29T15:17:10.806Z</time>
      </trkpt>
      <trkpt lat="49.96104991994798" lon="6.027574930340052">
        <ele>274.43</ele>
        <time>2024-12-29T15:17:11.924Z</time>
      </trkpt>
      <trkpt lat="49.9611059948802" lon="6.027718931436539">
        <ele>275.54</ele>
        <time>2024-12-29T15:17:13.057Z</time>
      </trkpt>
      <trkpt lat="49.96119693852961" lon="6.027805935591459">
        <ele>276.79</ele>
        <time>2024-12-29T15:17:14.204Z</time>
      </trkpt>
      <trkpt lat="49.96137195266783" lon="6.027844995260239">
        <ele>278.22</ele>
        <time>2024-12-29T15:17:15.375Z</time>
      </trkpt>
      <trkpt lat="49.96150899678469" lon="6.027915989980102">
        <ele>279.83</ele>
        <time>2024-12-29T15:17:16.565Z</time>
      </trkpt>
      <trkpt lat="49.96155593544245" lon="6.027983967214823">
        <ele>281.52</ele>
        <time>2024-12-29T15:17:17.763Z</time>
      </trkpt>
      <trkpt lat="49.96173799037933" lon="6.027882965281606">
        <ele>283.3</ele>
        <time>2024-12-29T15:17:18.987Z</time>
      </trkpt>
      <trkpt lat="49.961871933192015" lon="6.027852958068252">
        <ele>285.21</ele>
        <time>2024-12-29T15:17:20.229Z</time>
      </trkpt>
      <trkpt lat="49.962105955928564" lon="6.027868464589119">
        <ele>287.21</ele>
        <time>2024-12-29T15:17:21.503Z</time>
      </trkpt>
      <trkpt lat="49.96233997866511" lon="6.027883971109986">
        <ele>289.32</ele>
        <time>2024-12-29T15:17:22.808Z</time>
      </trkpt>
      <trkpt lat="49.962598979473114" lon="6.027942979708314">
        <ele>291.63</ele>
        <time>2024-12-29T15:17:24.148Z</time>
      </trkpt>
      <trkpt lat="49.96282503940165" lon="6.028030654415488">
        <ele>294.06</ele>
        <time>2024-12-29T15:17:25.519Z</time>
      </trkpt>
      <trkpt lat="49.963051015511155" lon="6.0281183291226625">
        <ele>296.57</ele>
        <time>2024-12-29T15:17:26.921Z</time>
      </trkpt>
      <trkpt lat="49.96327699162066" lon="6.028205920010805">
        <ele>299.16</ele>
        <time>2024-12-29T15:17:28.354Z</time>
      </trkpt>
      <trkpt lat="49.963503973558545" lon="6.028250930830836">
        <ele>301.84</ele>
        <time>2024-12-29T15:17:29.818Z</time>
      </trkpt>
      <trkpt lat="49.96370396576822" lon="6.028200471773744">
        <ele>304.52</ele>
        <time>2024-12-29T15:17:31.309Z</time>
      </trkpt>
      <trkpt lat="49.96390395797789" lon="6.028149928897619">
        <ele>307.25</ele>
        <time>2024-12-29T15:17:32.827Z</time>
      </trkpt>
      <trkpt lat="49.96396992355585" lon="6.0281589813530445">
        <ele>309.88</ele>
        <time>2024-12-29T15:17:34.354Z</time>
      </trkpt>
      <trkpt lat="49.96401493437588" lon="6.028142971917987">
        <ele>312.52</ele>
        <time>2024-12-29T15:17:35.887Z</time>
      </trkpt>
      <trkpt lat="49.96405499987304" lon="6.028104918077588">
        <ele>315.17</ele>
        <time>2024-12-29T15:17:37.426Z</time>
      </trkpt>
      <trkpt lat="49.964248621836305" lon="6.0278962925076485">
        <ele>317.94</ele>
        <time>2024-12-29T15:17:38.996Z</time>
      </trkpt>
      <trkpt lat="49.96444199234247" lon="6.027687918394804">
        <ele>320.7</ele>
        <time>2024-12-29T15:17:40.598Z</time>
      </trkpt>
      <trkpt lat="49.96460694819689" lon="6.027565961703658">
        <ele>323.42</ele>
        <time>2024-12-29T15:17:42.224Z</time>
      </trkpt>
      <trkpt lat="49.96469998732209" lon="6.027497984468937">
        <ele>326.07</ele>
        <time>2024-12-29T15:17:43.864Z</time>
      </trkpt>
      <trkpt lat="49.96493191458285" lon="6.027242252603173">
        <ele>328.77</ele>
        <time>2024-12-29T15:17:45.542Z</time>
      </trkpt>
      <trkpt lat="49.96516392566264" lon="6.02698652073741">
        <ele>331.29</ele>
        <time>2024-12-29T15:17:47.258Z</time>
      </trkpt>
      <trkpt lat="49.96539585292339" lon="6.026730705052614">
        <ele>333.67</ele>
        <time>2024-12-29T15:17:49.012Z</time>
      </trkpt>
      <trkpt lat="49.96562694199383" lon="6.026475979015231">
        <ele>336.04</ele>
        <time>2024-12-29T15:17:50.804Z</time>
      </trkpt>
      <trkpt lat="49.96572995558381" lon="6.026291996240616">
        <ele>338.18</ele>
        <time>2024-12-29T15:17:52.617Z</time>
      </trkpt>
      <trkpt lat="49.96585199609399" lon="6.026180936023593">
        <ele>340.28</ele>
        <time>2024-12-29T15:17:54.449Z</time>
      </trkpt>
      <trkpt lat="49.96594595722854" lon="6.026150928810239">
        <ele>342.12</ele>
        <time>2024-12-29T15:17:56.293Z</time>
      </trkpt>
      <trkpt lat="49.96595660224557" lon="6.026152856647968">
        <ele>343.74</ele>
        <time>2024-12-29T15:17:58.139Z</time>
      </trkpt>
      <trkpt lat="49.96606799773872" lon="6.02617297321558">
        <ele>345.24</ele>
        <time>2024-12-29T15:18:00.000Z</time>
      </trkpt>
      <trkpt lat="49.96622398495674" lon="6.026291996240616">
        <ele>346.57</ele>
        <time>2024-12-29T15:18:01.884Z</time>
      </trkpt>
      <trkpt lat="49.966316940262914" lon="6.026276992633939">
        <ele>347.71</ele>
        <time>2024-12-29T15:18:03.781Z</time>
      </trkpt>
      <trkpt lat="49.96636496856809" lon="6.026235921308398">
        <ele>348.66</ele>
        <time>2024-12-29T15:18:05.685Z</time>
      </trkpt>
      <trkpt lat="49.96636698022485" lon="6.026177918538451">
        <ele>349.43</ele>
        <time>2024-12-29T15:18:07.594Z</time>
      </trkpt>
      <trkpt lat="49.9663229752332" lon="6.026031989604235">
        <ele>350.04</ele>
        <time>2024-12-29T15:18:09.517Z</time>
      </trkpt>
      <trkpt lat="49.96626296080649" lon="6.025903997942805">
        <ele>350.47</ele>
        <time>2024-12-29T15:18:11.453Z</time>
      </trkpt>
      <trkpt lat="49.96623647399247" lon="6.0258727334439754">
        <ele>350.66</ele>
        <time>2024-12-29T15:18:13.394Z</time>
      </trkpt>
      <trkpt lat="49.96613396331668" lon="6.025751950219274">
        <ele>350.73</ele>
        <time>2024-12-29T15:18:15.352Z</time>
      </trkpt>
      <trkpt lat="49.96596297249198" lon="6.025665951892734">
        <ele>350.57</ele>
        <time>2024-12-29T15:18:17.334Z</time>
      </trkpt>
      <trkpt lat="49.965804973617196" lon="6.025647930800915">
        <ele>350.2</ele>
        <time>2024-12-29T15:18:19.337Z</time>
      </trkpt>
      <trkpt lat="49.96571092866361" lon="6.025666957721114">
        <ele>349.61</ele>
        <time>2024-12-29T15:18:21.353Z</time>
      </trkpt>
      <trkpt lat="49.96552191674709" lon="6.02580894716084">
        <ele>348.62</ele>
        <time>2024-12-29T15:18:23.397Z</time>
      </trkpt>
      <trkpt lat="49.965416975319386" lon="6.025843983516097">
        <ele>347.61</ele>
        <time>2024-12-29T15:18:25.455Z</time>
      </trkpt>
      <trkpt lat="49.96533994562924" lon="6.025889916345477">
        <ele>346.34</ele>
        <time>2024-12-29T15:18:27.524Z</time>
      </trkpt>
      <trkpt lat="49.96525998227298" lon="6.025921935215592">
        <ele>345.01</ele>
        <time>2024-12-29T15:18:29.604Z</time>
      </trkpt>
      <trkpt lat="49.96510097756982" lon="6.025930987671018">
        <ele>343.5</ele>
        <time>2024-12-29T15:18:31.705Z</time>
      </trkpt>
      <trkpt lat="49.96503693982959" lon="6.025956971570849">
        <ele>341.9</ele>
        <time>2024-12-29T15:18:33.815Z</time>
      </trkpt>
      <trkpt lat="49.96499293483794" lon="6.025987984612584">
        <ele>340.17</ele>
        <time>2024-12-29T15:18:35.932Z</time>
      </trkpt>
      <trkpt lat="49.96497097425163" lon="6.025987984612584">
        <ele>338.3</ele>
        <time>2024-12-29T15:18:38.052Z</time>
      </trkpt>
      <trkpt lat="49.964946918189526" lon="6.025958983227611">
        <ele>336.27</ele>
        <time>2024-12-29T15:18:40.176Z</time>
      </trkpt>
      <trkpt lat="49.964983966201544" lon="6.025869967415929">
        <ele>334.06</ele>
        <time>2024-12-29T15:18:42.309Z</time>
      </trkpt>
      <trkpt lat="49.9650639295578" lon="6.025684978812933">
        <ele>331.84</ele>
        <time>2024-12-29T15:18:44.461Z</time>
      </trkpt>
      <trkpt lat="49.965132996439934" lon="6.025470988824964">
        <ele>329.49</ele>
        <time>2024-12-29T15:18:46.634Z</time>
      </trkpt>
      <trkpt lat="49.965291917324066" lon="6.0250849183648825">
        <ele>327.07</ele>
        <time>2024-12-29T15:18:48.846Z</time>
      </trkpt>
      <trkpt lat="49.965377831831574" lon="6.024769842624664">
        <ele>324.52</ele>
        <time>2024-12-29T15:18:51.088Z</time>
      </trkpt>
      <trkpt lat="49.96546366252005" lon="6.024454766884446">
        <ele>321.79</ele>
        <time>2024-12-29T15:18:53.359Z</time>
      </trkpt>
      <trkpt lat="49.96554899029434" lon="6.024141954258084">
        <ele>318.98</ele>
        <time>2024-12-29T15:18:55.659Z</time>
      </trkpt>
      <trkpt lat="49.965623673051596" lon="6.023705340921879">
        <ele>316.11</ele>
        <time>2024-12-29T15:18:57.998Z</time>
      </trkpt>
      <trkpt lat="49.965697936713696" lon="6.02327099069953">
        <ele>313.39</ele>
        <time>2024-12-29T15:19:00.376Z</time>
      </trkpt>
      <trkpt lat="49.965779995545745" lon="6.022852985188365">
        <ele>310.69</ele>
        <time>2024-12-29T15:19:02.791Z</time>
      </trkpt>
      <trkpt lat="49.96583397500217" lon="6.022384939715266">
        <ele>308.13</ele>
        <time>2024-12-29T15:19:05.247Z</time>
      </trkpt>
      <trkpt lat="49.96585903689265" lon="6.022032983601093">
        <ele>305.62</ele>
        <time>2024-12-29T15:19:07.734Z</time>
      </trkpt>
      <trkpt lat="49.96588393114507" lon="6.02168295532465">
        <ele>303.07</ele>
        <time>2024-12-29T15:19:10.251Z</time>
      </trkpt>
      <trkpt lat="49.96591653674841" lon="6.0214197635650635">
        <ele>300.74</ele>
        <time>2024-12-29T15:19:12.791Z</time>
      </trkpt>
      <trkpt lat="49.96594897471368" lon="6.021157996729016">
        <ele>298.53</ele>
        <time>2024-12-29T15:19:15.354Z</time>
      </trkpt>
      <trkpt lat="49.965972946956754" lon="6.020894972607493">
        <ele>296.43</ele>
        <time>2024-12-29T15:19:17.940Z</time>
      </trkpt>
      <trkpt lat="49.96602499857545" lon="6.020743930712342">
        <ele>294.63</ele>
        <time>2024-12-29T15:19:20.541Z</time>
      </trkpt>
      <trkpt lat="49.966061962768435" lon="6.020578974857926">
        <ele>293.07</ele>
        <time>2024-12-29T15:19:23.157Z</time>
      </trkpt>
      <trkpt lat="49.96607294306159" lon="6.020534969866276">
        <ele>291.69</ele>
        <time>2024-12-29T15:19:25.777Z</time>
      </trkpt>
      <trkpt lat="49.966085935011506" lon="6.020402954891324">
        <ele>290.48</ele>
        <time>2024-12-29T15:19:28.408Z</time>
      </trkpt>
      <trkpt lat="49.96608895249665" lon="6.020370936021209">
        <ele>289.46</ele>
        <time>2024-12-29T15:19:31.042Z</time>
      </trkpt>
      <trkpt lat="49.966124994680285" lon="6.0202959179878235">
        <ele>288.72</ele>
        <time>2024-12-29T15:19:33.684Z</time>
      </trkpt>
      <trkpt lat="49.96613496914506" lon="6.020172955468297">
        <ele>288.1</ele>
        <time>2024-12-29T15:19:36.337Z</time>
      </trkpt>
      <trkpt lat="49.966129437088966" lon="6.01985058747232">
        <ele>287.63</ele>
        <time>2024-12-29T15:19:39.018Z</time>
      </trkpt>
      <trkpt lat="49.966123988851905" lon="6.019529979676008">
        <ele>287.38</ele>
        <time>2024-12-29T15:19:41.726Z</time>
      </trkpt>
      <trkpt lat="49.96612750925124" lon="6.019162433221936">
        <ele>287.43</ele>
        <time>2024-12-29T15:19:44.466Z</time>
      </trkpt>
      <trkpt lat="49.96613094583154" lon="6.018796982243657">
        <ele>287.63</ele>
        <time>2024-12-29T15:19:47.237Z</time>
      </trkpt>
      <trkpt lat="49.966108901426196" lon="6.018450977280736">
        <ele>287.93</ele>
        <time>2024-12-29T15:19:50.038Z</time>
      </trkpt>
      <trkpt lat="49.96608694083989" lon="6.018106983974576">
        <ele>288.39</ele>
        <time>2024-12-29T15:19:52.869Z</time>
      </trkpt>
      <trkpt lat="49.96604989282787" lon="6.017823172733188">
        <ele>288.98</ele>
        <time>2024-12-29T15:19:55.725Z</time>
      </trkpt>
      <trkpt lat="49.96601292863488" lon="6.017540954053402">
        <ele>289.77</ele>
        <time>2024-12-29T15:19:58.606Z</time>
      </trkpt>
      <trkpt lat="49.965993985533714" lon="6.017173994332552">
        <ele>290.73</ele>
        <time>2024-12-29T15:20:01.518Z</time>
      </trkpt>
      <trkpt lat="49.96600395999849" lon="6.016949946060777">
        <ele>291.74</ele>
        <time>2024-12-29T15:20:04.450Z</time>
      </trkpt>
      <trkpt lat="49.966019969433546" lon="6.01687291637063">
        <ele>292.94</ele>
        <time>2024-12-29T15:20:07.389Z</time>
      </trkpt>
      <trkpt lat="49.96604595333338" lon="6.016828995198011">
        <ele>294.29</ele>
        <time>2024-12-29T15:20:10.333Z</time>
      </trkpt>
      <trkpt lat="49.966085935011506" lon="6.016807956621051">
        <ele>295.78</ele>
        <time>2024-12-29T15:20:13.283Z</time>
      </trkpt>
      <trkpt lat="49.96614293195307" lon="6.01680594496429">
        <ele>297.41</ele>
        <time>2024-12-29T15:20:16.240Z</time>
      </trkpt>
      <trkpt lat="49.96623898856342" lon="6.016832934692502">
        <ele>299.18</ele>
        <time>2024-12-29T15:20:19.210Z</time>
      </trkpt>
      <trkpt lat="49.96652296744287" lon="6.01687291637063">
        <ele>301.23</ele>
        <time>2024-12-29T15:20:22.218Z</time>
      </trkpt>
      <trkpt lat="49.96665397658944" lon="6.016923962160945">
        <ele>303.06</ele>
        <time>2024-12-29T15:20:25.244Z</time>
      </trkpt>
      <trkpt lat="49.966767970472574" lon="6.017007948830724">
        <ele>304.93</ele>
        <time>2024-12-29T15:20:28.287Z</time>
      </trkpt>
      <trkpt lat="49.96690962463617" lon="6.017174161970615">
        <ele>306.83</ele>
        <time>2024-12-29T15:20:31.354Z</time>
      </trkpt>
      <trkpt lat="49.967050943523645" lon="6.017339956015348">
        <ele>308.68</ele>
        <time>2024-12-29T15:20:34.444Z</time>
      </trkpt>
      <trkpt lat="49.9671499338001" lon="6.017481945455074">
        <ele>310.47</ele>
        <time>2024-12-29T15:20:37.552Z</time>
      </trkpt>
      <trkpt lat="49.96716694906354" lon="6.01755796931684">
        <ele>312.17</ele>
        <time>2024-12-29T15:20:40.667Z</time>
      </trkpt>
      <trkpt lat="49.96723593212664" lon="6.017590994015336">
        <ele>313.83</ele>
        <time>2024-12-29T15:20:43.792Z</time>
      </trkpt>
      <trkpt lat="49.96733894571662" lon="6.01775192655623">
        <ele>315.5</ele>
        <time>2024-12-29T15:20:46.937Z</time>
      </trkpt>
      <trkpt lat="49.96740197762847" lon="6.017952924594283">
        <ele>317.06</ele>
        <time>2024-12-29T15:20:50.101Z</time>
      </trkpt>
      <trkpt lat="49.96746995486319" lon="6.018375959247351">
        <ele>318.65</ele>
        <time>2024-12-29T15:20:53.302Z</time>
      </trkpt>
      <trkpt lat="49.96754597872496" lon="6.018762951716781">
        <ele>320.05</ele>
        <time>2024-12-29T15:20:56.538Z</time>
      </trkpt>
      <trkpt lat="49.96765494346619" lon="6.0191979724913836">
        <ele>321.3</ele>
        <time>2024-12-29T15:20:59.814Z</time>
      </trkpt>
      <trkpt lat="49.96774714440107" lon="6.019459487870336">
        <ele>322.28</ele>
        <time>2024-12-29T15:21:03.116Z</time>
      </trkpt>
      <trkpt lat="49.9678389262408" lon="6.019719997420907">
        <ele>323.21</ele>
        <time>2024-12-29T15:21:06.444Z</time>
      </trkpt>
      <trkpt lat="49.967950992286205" lon="6.019956953823566">
        <ele>323.9</ele>
        <time>2024-12-29T15:21:09.797Z</time>
      </trkpt>
      <trkpt lat="49.968134220689535" lon="6.020211260765791">
        <ele>324.17</ele>
        <time>2024-12-29T15:21:13.183Z</time>
      </trkpt>
      <trkpt lat="49.968316946178675" lon="6.020464980974793">
        <ele>324.48</ele>
        <time>2024-12-29T15:21:16.601Z</time>
      </trkpt>
      <trkpt lat="49.96848416514695" lon="6.020717276260257">
        <ele>324.8</ele>
        <time>2024-12-29T15:21:20.051Z</time>
      </trkpt>
      <trkpt lat="49.96865096502006" lon="6.020968984812498">
        <ele>325.1</ele>
        <time>2024-12-29T15:21:23.532Z</time>
      </trkpt>
      <trkpt lat="49.96880720369518" lon="6.021220358088613">
        <ele>325.31</ele>
        <time>2024-12-29T15:21:27.043Z</time>
      </trkpt>
      <trkpt lat="49.968962939456105" lon="6.021470976993442">
        <ele>325.3</ele>
        <time>2024-12-29T15:21:30.584Z</time>
      </trkpt>
      <trkpt lat="49.96911708265543" lon="6.02165462449193">
        <ele>325.16</ele>
        <time>2024-12-29T15:21:34.151Z</time>
      </trkpt>
      <trkpt lat="49.96927097439766" lon="6.021837936714292">
        <ele>324.97</ele>
        <time>2024-12-29T15:21:37.744Z</time>
      </trkpt>
      <trkpt lat="49.96942310594022" lon="6.021994091570377">
        <ele>324.76</ele>
        <time>2024-12-29T15:21:41.361Z</time>
      </trkpt>
      <trkpt lat="49.96957498602569" lon="6.022149994969368">
        <ele>324.49</ele>
        <time>2024-12-29T15:21:45.002Z</time>
      </trkpt>
      <trkpt lat="49.96982795186341" lon="6.0223079938441515">
        <ele>323.98</ele>
        <time>2024-12-29T15:21:48.680Z</time>
      </trkpt>
      <trkpt lat="49.96998796239495" lon="6.0223739594221115">
        <ele>323.46</ele>
        <time>2024-12-29T15:21:52.380Z</time>
      </trkpt>
      <trkpt lat="49.970205975696445" lon="6.022462975233793">
        <ele>322.91</ele>
        <time>2024-12-29T15:21:56.110Z</time>
      </trkpt>
      <trkpt lat="49.97050194069743" lon="6.022508991882205">
        <ele>322.28</ele>
        <time>2024-12-29T15:21:59.879Z</time>
      </trkpt>
      <trkpt lat="49.97080930508673" lon="6.022494658827782">
        <ele>321.57</ele>
        <time>2024-12-29T15:22:03.690Z</time>
      </trkpt>
      <trkpt lat="49.97111666947603" lon="6.022480325773358">
        <ele>320.86</ele>
        <time>2024-12-29T15:22:07.542Z</time>
      </trkpt>
      <trkpt lat="49.9714239500463" lon="6.022465992718935">
        <ele>320.12</ele>
        <time>2024-12-29T15:22:11.435Z</time>
      </trkpt>
      <trkpt lat="49.9715069308877" lon="6.022504968568683">
        <ele>319.46</ele>
        <time>2024-12-29T15:22:15.339Z</time>
      </trkpt>
      <trkpt lat="49.97163492254913" lon="6.02254394441843">
        <ele>318.69</ele>
        <time>2024-12-29T15:22:19.261Z</time>
      </trkpt>
      <trkpt lat="49.97168395668268" lon="6.022615944966674">
        <ele>318.0</ele>
        <time>2024-12-29T15:22:23.192Z</time>
      </trkpt>
      <trkpt lat="49.97177314013243" lon="6.022877041250467">
        <ele>317.5</ele>
        <time>2024-12-29T15:22:27.148Z</time>
      </trkpt>
      <trkpt lat="49.971861988306046" lon="6.0231370478868484">
        <ele>316.88</ele>
        <time>2024-12-29T15:22:31.129Z</time>
      </trkpt>
      <trkpt lat="49.971861988306046" lon="6.023136964067817">
        <ele>316.18</ele>
        <time>2024-12-29T15:22:35.110Z</time>
      </trkpt>
      <trkpt lat="49.97199693694711" lon="6.023452961817384">
        <ele>315.44</ele>
        <time>2024-12-29T15:22:39.124Z</time>
      </trkpt>
      <trkpt lat="49.97210414148867" lon="6.023731492459774">
        <ele>314.74</ele>
        <time>2024-12-29T15:22:43.166Z</time>
      </trkpt>
      <trkpt lat="49.97221092693508" lon="6.024008933454752">
        <ele>314.12</ele>
        <time>2024-12-29T15:22:47.236Z</time>
      </trkpt>
      <trkpt lat="49.97227261774242" lon="6.0240883100777864">
        <ele>313.47</ele>
        <time>2024-12-29T15:22:51.316Z</time>
      </trkpt>
      <trkpt lat="49.972374960780144" lon="6.024219989776611">
        <ele>312.84</ele>
        <time>2024-12-29T15:22:55.414Z</time>
      </trkpt>
      <trkpt lat="49.97238099575043" lon="6.02406794205308">
        <ele>312.27</ele>
        <time>2024-12-29T15:22:59.525Z</time>
      </trkpt>
      <trkpt lat="49.97238795273006" lon="6.023884965106845">
        <ele>311.79</ele>
        <time>2024-12-29T15:23:03.652Z</time>
      </trkpt>
      <trkpt lat="49.97241293080151" lon="6.023879935964942">
        <ele>311.5</ele>
        <time>2024-12-29T15:23:07.782Z</time>
      </trkpt>
      <trkpt lat="49.972418965771794" lon="6.023854957893491">
        <ele>311.31</ele>
        <time>2024-12-29T15:23:11.915Z</time>
      </trkpt>
      <trkpt lat="49.97239398770034" lon="6.023672986775637">
        <ele>311.18</ele>
        <time>2024-12-29T15:23:16.064Z</time>
      </trkpt>
      <trkpt lat="49.97236498631537" lon="6.023308960720897">
        <ele>311.15</ele>
        <time>2024-12-29T15:23:20.244Z</time>
      </trkpt>
      <trkpt lat="49.97236599214375" lon="6.0232259798794985">
        <ele>311.34</ele>
        <time>2024-12-29T15:23:24.431Z</time>
      </trkpt>
      <trkpt lat="49.97234394773841" lon="6.02314593270421">
        <ele>311.69</ele>
        <time>2024-12-29T15:23:28.626Z</time>
      </trkpt>
      <trkpt lat="49.97232592664659" lon="6.022934960201383">
        <ele>312.16</ele>
        <time>2024-12-29T15:23:32.839Z</time>
      </trkpt>
      <trkpt lat="49.97229994274676" lon="6.02277796715498">
        <ele>312.74</ele>
        <time>2024-12-29T15:23:37.066Z</time>
      </trkpt>
      <trkpt lat="49.97231796383858" lon="6.0226749535650015">
        <ele>313.49</ele>
        <time>2024-12-29T15:23:41.302Z</time>
      </trkpt>
      <trkpt lat="49.97240798547864" lon="6.02239097468555">
        <ele>314.32</ele>
        <time>2024-12-29T15:23:45.566Z</time>
      </trkpt>
      <trkpt lat="49.97254595160484" lon="6.02226298302412">
        <ele>315.62</ele>
        <time>2024-12-29T15:23:49.851Z</time>
      </trkpt>
      <trkpt lat="49.97269095852971" lon="6.022146977484226">
        <ele>317.0</ele>
        <time>2024-12-29T15:23:54.158Z</time>
      </trkpt>
      <trkpt lat="49.972891956567764" lon="6.022020997479558">
        <ele>318.59</ele>
        <time>2024-12-29T15:23:58.494Z</time>
      </trkpt>
      <trkpt lat="49.97315363958478" lon="6.021926952525973">
        <ele>320.25</ele>
        <time>2024-12-29T15:24:02.866Z</time>
      </trkpt>
      <trkpt lat="49.97341540642083" lon="6.021832907572389">
        <ele>321.94</ele>
        <time>2024-12-29T15:24:07.274Z</time>
      </trkpt>
      <trkpt lat="49.97367692179978" lon="6.021738946437836">
        <ele>323.72</ele>
        <time>2024-12-29T15:24:11.717Z</time>
      </trkpt>
      <trkpt lat="49.97396148741245" lon="6.02162092924118">
        <ele>325.71</ele>
        <time>2024-12-29T15:24:16.200Z</time>
      </trkpt>
      <trkpt lat="49.974245969206095" lon="6.021502995863557">
        <ele>327.64</ele>
        <time>2024-12-29T15:24:20.722Z</time>
      </trkpt>
      <trkpt lat="49.97441494837403" lon="6.021346924826503">
        <ele>329.28</ele>
        <time>2024-12-29T15:24:25.270Z</time>
      </trkpt>
      <trkpt lat="49.974566074088216" lon="6.021223878487945">
        <ele>330.97</ele>
        <time>2024-12-29T15:24:29.841Z</time>
      </trkpt>
      <trkpt lat="49.9747169483453" lon="6.02110099978745">
        <ele>332.67</ele>
        <time>2024-12-29T15:24:34.435Z</time>
      </trkpt>
      <trkpt lat="49.97490596026182" lon="6.020913999527693">
        <ele>334.29</ele>
        <time>2024-12-29T15:24:39.059Z</time>
      </trkpt>
      <trkpt lat="49.975043926388025" lon="6.0207099840044975">
        <ele>335.76</ele>
        <time>2024-12-29T15:24:43.708Z</time>
      </trkpt>
      <trkpt lat="49.9750969838351" lon="6.0206749476492405">
        <ele>337.32</ele>
        <time>2024-12-29T15:24:48.365Z</time>
      </trkpt>
      <trkpt lat="49.975172923877835" lon="6.0207099840044975">
        <ele>338.91</ele>
        <time>2024-12-29T15:24:53.032Z</time>
      </trkpt>
      <trkpt lat="49.97529496438801" lon="6.020810985937715">
        <ele>340.56</ele>
        <time>2024-12-29T15:24:57.718Z</time>
      </trkpt>
      <trkpt lat="49.97546494938433" lon="6.020880974829197">
        <ele>342.1</ele>
        <time>2024-12-29T15:25:02.427Z</time>
      </trkpt>
      <trkpt lat="49.97574691660702" lon="6.02097493596375">
        <ele>343.52</ele>
        <time>2024-12-29T15:25:07.175Z</time>
      </trkpt>
      <trkpt lat="49.97604698874056" lon="6.021035956218839">
        <ele>344.79</ele>
        <time>2024-12-29T15:25:11.963Z</time>
      </trkpt>
      <trkpt lat="49.97632392682135" lon="6.021065963432193">
        <ele>345.83</ele>
        <time>2024-12-29T15:25:16.788Z</time>
      </trkpt>
      <trkpt lat="49.97651344165206" lon="6.021073926240206">
        <ele>346.9</ele>
        <time>2024-12-29T15:25:21.639Z</time>
      </trkpt>
      <trkpt lat="49.97670295648277" lon="6.02108197286725">
        <ele>347.94</ele>
        <time>2024-12-29T15:25:26.515Z</time>
      </trkpt>
      <trkpt lat="49.976994981989264" lon="6.021109968423843">
        <ele>348.82</ele>
        <time>2024-12-29T15:25:31.430Z</time>
      </trkpt>
      <trkpt lat="49.97709698975086" lon="6.021133940666914">
        <ele>349.82</ele>
        <time>2024-12-29T15:25:36.359Z</time>
      </trkpt>
      <trkpt lat="49.97721995227039" lon="6.021219938993454">
        <ele>350.97</ele>
        <time>2024-12-29T15:25:41.306Z</time>
      </trkpt>
      <trkpt lat="49.97735993005335" lon="6.02138196118176">
        <ele>352.26</ele>
        <time>2024-12-29T15:25:46.276Z</time>
      </trkpt>
      <trkpt lat="49.9775146599859" lon="6.0216468293219805">
        <ele>353.55</ele>
        <time>2024-12-29T15:25:51.277Z</time>
      </trkpt>
      <trkpt lat="49.97766897082329" lon="6.021910943090916">
        <ele>354.67</ele>
        <time>2024-12-29T15:25:56.308Z</time>
      </trkpt>
      <trkpt lat="49.977834932506084" lon="6.0222649946808815">
        <ele>355.84</ele>
        <time>2024-12-29T15:26:01.377Z</time>
      </trkpt>
      <trkpt lat="49.97789192944765" lon="6.02232894860208">
        <ele>356.51</ele>
        <time>2024-12-29T15:26:06.456Z</time>
      </trkpt>
      <trkpt lat="49.97791791334748" lon="6.0223338939249516">
        <ele>357.02</ele>
        <time>2024-12-29T15:26:11.538Z</time>
      </trkpt>
      <trkpt lat="49.977985974401236" lon="6.022346969693899">
        <ele>357.41</ele>
        <time>2024-12-29T15:26:16.629Z</time>
      </trkpt>
      <trkpt lat="49.978267438709736" lon="6.022331463173032">
        <ele>357.56</ele>
        <time>2024-12-29T15:26:21.758Z</time>
      </trkpt>
      <trkpt lat="49.978519063442945" lon="6.022317633032799">
        <ele>357.84</ele>
        <time>2024-12-29T15:26:26.920Z</time>
      </trkpt>
      <trkpt lat="49.97854898683727" lon="6.0223159566521645">
        <ele>357.99</ele>
        <time>2024-12-29T15:26:32.086Z</time>
      </trkpt>
      <trkpt lat="49.97862593270838" lon="6.022281926125288">
        <ele>358.04</ele>
        <time>2024-12-29T15:26:37.263Z</time>
      </trkpt>
      <trkpt lat="49.97881251387298" lon="6.022014711052179">
        <ele>357.99</ele>
        <time>2024-12-29T15:26:42.474Z</time>
      </trkpt>
      <trkpt lat="49.97884092852473" lon="6.021973975002766">
        <ele>357.91</ele>
        <time>2024-12-29T15:26:47.690Z</time>
      </trkpt>
      <trkpt lat="49.9788339715451" lon="6.021896945312619">
        <ele>357.68</ele>
        <time>2024-12-29T15:26:52.913Z</time>
      </trkpt>
      <trkpt lat="49.978764988482" lon="6.021766941994429">
        <ele>357.29</ele>
        <time>2024-12-29T15:26:58.150Z</time>
      </trkpt>
      <trkpt lat="49.97868494130671" lon="6.021695947274566">
        <ele>356.88</ele>
        <time>2024-12-29T15:27:03.400Z</time>
      </trkpt>
      <trkpt lat="49.97859693132341" lon="6.021652948111296">
        <ele>356.42</ele>
        <time>2024-12-29T15:27:08.662Z</time>
      </trkpt>
      <trkpt lat="49.97854094021022" lon="6.021580947563052">
        <ele>356.06</ele>
        <time>2024-12-29T15:27:13.934Z</time>
      </trkpt>
      <trkpt lat="49.97851797379553" lon="6.021501990035176">
        <ele>355.79</ele>
        <time>2024-12-29T15:27:19.213Z</time>
      </trkpt>
      <trkpt lat="49.97847497463226" lon="6.021163947880268">
        <ele>355.33</ele>
        <time>2024-12-29T15:27:24.522Z</time>
      </trkpt>
      <trkpt lat="49.97849794104695" lon="6.021087924018502">
        <ele>355.2</ele>
        <time>2024-12-29T15:27:29.838Z</time>
      </trkpt>
      <trkpt lat="49.9786439538002" lon="6.020923973992467">
        <ele>355.3</ele>
        <time>2024-12-29T15:27:35.178Z</time>
      </trkpt>
      <trkpt lat="49.97870799154043" lon="6.020783996209502">
        <ele>355.24</ele>
        <time>2024-12-29T15:27:40.533Z</time>
      </trkpt>
      <trkpt lat="49.97874797321856" lon="6.020738985389471">
        <ele>355.34</ele>
        <time>2024-12-29T15:27:45.894Z</time>
      </trkpt>
      <trkpt lat="49.97889901511371" lon="6.020659441128373">
        <ele>355.7</ele>
        <time>2024-12-29T15:27:51.277Z</time>
      </trkpt>
      <trkpt lat="49.97904997318983" lon="6.020579980686307">
        <ele>356.11</ele>
        <time>2024-12-29T15:27:56.681Z</time>
      </trkpt>
      <trkpt lat="49.97913194820285" lon="6.020480990409851">
        <ele>356.42</ele>
        <time>2024-12-29T15:28:02.099Z</time>
      </trkpt>
      <trkpt lat="49.979243176057935" lon="6.020136913284659">
        <ele>356.51</ele>
        <time>2024-12-29T15:28:07.550Z</time>
      </trkpt>
      <trkpt lat="49.97935448773205" lon="6.019792919978499">
        <ele>356.77</ele>
        <time>2024-12-29T15:28:13.034Z</time>
      </trkpt>
      <trkpt lat="49.97946571558714" lon="6.019448926672339">
        <ele>357.11</ele>
        <time>2024-12-29T15:28:18.551Z</time>
      </trkpt>
      <trkpt lat="49.979575937613845" lon="6.019107950851321">
        <ele>357.47</ele>
        <time>2024-12-29T15:28:24.101Z</time>
      </trkpt>
      <trkpt lat="49.97963394038379" lon="6.018989933654666">
        <ele>357.99</ele>
        <time>2024-12-29T15:28:29.664Z</time>
      </trkpt>
      <trkpt lat="49.97979118488729" lon="6.0187627002596855">
        <ele>358.66</ele>
        <time>2024-12-29T15:28:35.256Z</time>
      </trkpt>
      <trkpt lat="49.9799479264766" lon="6.018535969778895">
        <ele>359.49</ele>
        <time>2024-12-29T15:28:40.876Z</time>
      </trkpt>
      <trkpt lat="49.9800671171397" lon="6.018347712233663">
        <ele>360.19</ele>
        <time>2024-12-29T15:28:46.519Z</time>
      </trkpt>
      <trkpt lat="49.98018597252667" lon="6.01815995760262">
        <ele>360.8</ele>
        <time>2024-12-29T15:28:52.185Z</time>
      </trkpt>
      <trkpt lat="49.98024892061949" lon="6.017989972606301">
        <ele>361.23</ele>
        <time>2024-12-29T15:28:57.867Z</time>
      </trkpt>
      <trkpt lat="49.98027197085321" lon="6.017968934029341">
        <ele>361.65</ele>
        <time>2024-12-29T15:29:03.553Z</time>
      </trkpt>
      <trkpt lat="49.98033894225955" lon="6.017959965392947">
        <ele>362.07</ele>
        <time>2024-12-29T15:29:09.248Z</time>
      </trkpt>
      <trkpt lat="49.98035495169461" lon="6.017939932644367">
        <ele>362.33</ele>
        <time>2024-12-29T15:29:14.946Z</time>
      </trkpt>
      <trkpt lat="49.98036693781614" lon="6.017889976501465">
        <ele>362.47</ele>
        <time>2024-12-29T15:29:20.648Z</time>
      </trkpt>
      <trkpt lat="49.98043893836439" lon="6.017767935991287">
        <ele>362.54</ele>
        <time>2024-12-29T15:29:26.364Z</time>
      </trkpt>
      <trkpt lat="49.98044899664819" lon="6.017703982070088">
        <ele>362.44</ele>
        <time>2024-12-29T15:29:32.086Z</time>
      </trkpt>
      <trkpt lat="49.980474980548024" lon="6.017652936279774">
        <ele>362.22</ele>
        <time>2024-12-29T15:29:37.814Z</time>
      </trkpt>
      <trkpt lat="49.9804899841547" lon="6.017578924074769">
        <ele>361.87</ele>
        <time>2024-12-29T15:29:43.548Z</time>
      </trkpt>
      <trkpt lat="49.98055192641914" lon="6.017444981262088">
        <ele>361.38</ele>
        <time>2024-12-29T15:29:49.297Z</time>
      </trkpt>
      <trkpt lat="49.98056332580745" lon="6.017395779490471">
        <ele>360.74</ele>
        <time>2024-12-29T15:29:55.050Z</time>
      </trkpt>
      <trkpt lat="49.98059794306755" lon="6.017247922718525">
        <ele>359.96</ele>
        <time>2024-12-29T15:30:00.817Z</time>
      </trkpt>
      <trkpt lat="49.980671955272555" lon="6.017153961583972">
        <ele>359.02</ele>
        <time>2024-12-29T15:30:06.596Z</time>
      </trkpt>
      <trkpt lat="49.98072392307222" lon="6.017001997679472">
        <ele>357.88</ele>
        <time>2024-12-29T15:30:12.390Z</time>
      </trkpt>
      <trkpt lat="49.98075191862881" lon="6.016862941905856">
        <ele>356.59</ele>
        <time>2024-12-29T15:30:18.197Z</time>
      </trkpt>
      <trkpt lat="49.98078494332731" lon="6.016811979934573">
        <ele>355.15</ele>
        <time>2024-12-29T15:30:24.010Z</time>
      </trkpt>
      <trkpt lat="49.980841940268874" lon="6.016649957746267">
        <ele>353.53</ele>
        <time>2024-12-29T15:30:29.839Z</time>
      </trkpt>
      <trkpt lat="49.98086599633098" lon="6.016435967758298">
        <ele>351.77</ele>
        <time>2024-12-29T15:30:35.687Z</time>
      </trkpt>
      <trkpt lat="49.980844957754016" lon="6.0161869414150715">
        <ele>349.91</ele>
        <time>2024-12-29T15:30:41.556Z</time>
      </trkpt>
      <trkpt lat="49.98072593472898" lon="6.015792991966009">
        <ele>347.85</ele>
        <time>2024-12-29T15:30:47.463Z</time>
      </trkpt>
      <trkpt lat="49.98058914206922" lon="6.015435755252838">
        <ele>345.61</ele>
        <time>2024-12-29T15:30:53.405Z</time>
      </trkpt>
      <trkpt lat="49.98045293614268" lon="6.015079943463206">
        <ele>343.47</ele>
        <time>2024-12-29T15:30:59.383Z</time>
      </trkpt>
      <trkpt lat="49.98035998083651" lon="6.014758916571736">
        <ele>341.22</ele>
        <time>2024-12-29T15:31:05.391Z</time>
      </trkpt>
      <trkpt lat="49.98025394976139" lon="6.014577951282263">
        <ele>339.1</ele>
        <time>2024-12-29T15:31:11.420Z</time>
      </trkpt>
      <trkpt lat="49.980221930891275" lon="6.014501927420497">
        <ele>336.89</ele>
        <time>2024-12-29T15:31:17.457Z</time>
      </trkpt>
      <trkpt lat="49.980197958648205" lon="6.01435599848628">
        <ele>334.53</ele>
        <time>2024-12-29T15:31:23.507Z</time>
      </trkpt>
      <trkpt lat="49.98018194921315" lon="6.014281986281276">
        <ele>332.22</ele>
        <time>2024-12-29T15:31:29.564Z</time>
      </trkpt>
      <trkpt lat="49.98005295172334" lon="6.0139569360762835">
        <ele>329.96</ele>
        <time>2024-12-29T15:31:35.654Z</time>
      </trkpt>
      <trkpt lat="49.979962930083275" lon="6.013648984953761">
        <ele>327.63</ele>
        <time>2024-12-29T15:31:41.773Z</time>
      </trkpt>
      <trkpt lat="49.97988799586892" lon="6.013249922543764">
        <ele>325.18</ele>
        <time>2024-12-29T15:31:47.928Z</time>
      </trkpt>
      <trkpt lat="49.979871986433864" lon="6.0129249561578035">
        <ele>322.9</ele>
        <time>2024-12-29T15:31:54.111Z</time>
      </trkpt>
      <trkpt lat="49.97989394702017" lon="6.012495970353484">
        <ele>320.25</ele>
        <time>2024-12-29T15:32:00.331Z</time>
      </trkpt>
      <trkpt lat="49.97992697171867" lon="6.0123709961771965">
        <ele>317.84</ele>
        <time>2024-12-29T15:32:06.562Z</time>
      </trkpt>
      <trkpt lat="49.97997893951833" lon="6.012333948165178">
        <ele>315.49</ele>
        <time>2024-12-29T15:32:12.801Z</time>
      </trkpt>
      <trkpt lat="49.98005194589496" lon="6.012318944558501">
        <ele>313.14</ele>
        <time>2024-12-29T15:32:19.050Z</time>
      </trkpt>
      <trkpt lat="49.98010399751365" lon="6.012515919283032">
        <ele>310.89</ele>
        <time>2024-12-29T15:32:25.317Z</time>
      </trkpt>
      <trkpt lat="49.98020265251398" lon="6.012813141569495">
        <ele>308.68</ele>
        <time>2024-12-29T15:32:31.613Z</time>
      </trkpt>
      <trkpt lat="49.98030097223818" lon="6.013108938932419">
        <ele>306.61</ele>
        <time>2024-12-29T15:32:37.937Z</time>
      </trkpt>
      <trkpt lat="49.98033793643117" lon="6.013357965275645">
        <ele>304.74</ele>
        <time>2024-12-29T15:32:44.283Z</time>
      </trkpt>
      <trkpt lat="49.980388982221484" lon="6.013401970267296">
        <ele>302.88</ele>
        <time>2024-12-29T15:32:50.637Z</time>
      </trkpt>
      <trkpt lat="49.98041798360646" lon="6.013468941673636">
        <ele>301.18</ele>
        <time>2024-12-29T15:32:56.998Z</time>
      </trkpt>
      <trkpt lat="49.980539940297604" lon="6.013812934979796">
        <ele>299.57</ele>
        <time>2024-12-29T15:33:03.393Z</time>
      </trkpt>
      <trkpt lat="49.98057698830962" lon="6.013850988820195">
        <ele>298.09</ele>
        <time>2024-12-29T15:33:09.794Z</time>
      </trkpt>
      <trkpt lat="49.98061998747289" lon="6.013850988820195">
        <ele>296.69</ele>
        <time>2024-12-29T15:33:16.201Z</time>
      </trkpt>
      <trkpt lat="49.98066592030227" lon="6.01381896995008">
        <ele>295.4</ele>
        <time>2024-12-29T15:33:22.614Z</time>
      </trkpt>
      <trkpt lat="49.98078393749893" lon="6.013645967468619">
        <ele>294.14</ele>
        <time>2024-12-29T15:33:29.049Z</time>
      </trkpt>
      <trkpt lat="49.980939170345664" lon="6.013402976095676">
        <ele>293.08</ele>
        <time>2024-12-29T15:33:35.514Z</time>
      </trkpt>
      <trkpt lat="49.9810944031924" lon="6.013159900903702">
        <ele>292.27</ele>
        <time>2024-12-29T15:33:42.008Z</time>
      </trkpt>
      <trkpt lat="49.981248965486884" lon="6.012917999178171">
        <ele>291.69</ele>
        <time>2024-12-29T15:33:48.531Z</time>
      </trkpt>
      <trkpt lat="49.98137293383479" lon="6.012706942856312">
        <ele>291.24</ele>
        <time>2024-12-29T15:33:55.079Z</time>
      </trkpt>
      <trkpt lat="49.98152892105281" lon="6.012410977855325">
        <ele>291.06</ele>
        <time>2024-12-29T15:34:01.660Z</time>
      </trkpt>
      <trkpt lat="49.981637969613075" lon="6.0120929684489965">
        <ele>291.09</ele>
        <time>2024-12-29T15:34:08.272Z</time>
      </trkpt>
      <trkpt lat="49.98160695657134" lon="6.012031948193908">
        <ele>291.09</ele>
        <time>2024-12-29T15:34:14.890Z</time>
      </trkpt>
      <trkpt lat="49.98158792965114" lon="6.011889958754182">
        <ele>291.28</ele>
        <time>2024-12-29T15:34:21.521Z</time>
      </trkpt>
      <trkpt lat="49.98157694935799" lon="6.011805972084403">
        <ele>291.56</ele>
        <time>2024-12-29T15:34:28.159Z</time>
      </trkpt>
      <trkpt lat="49.98157896101475" lon="6.011763978749514">
        <ele>291.93</ele>
        <time>2024-12-29T15:34:34.801Z</time>
      </trkpt>
      <trkpt lat="49.981618942692876" lon="6.011802954599261">
        <ele>292.38</ele>
        <time>2024-12-29T15:34:41.449Z</time>
      </trkpt>
      <trkpt lat="49.98165196739137" lon="6.011807983741164">
        <ele>292.94</ele>
        <time>2024-12-29T15:34:48.102Z</time>
      </trkpt>
      <trkpt lat="49.98164794407785" lon="6.011755932122469">
        <ele>293.61</ele>
        <time>2024-12-29T15:34:54.759Z</time>
      </trkpt>
      <trkpt lat="49.98165791854262" lon="6.011696923524141">
        <ele>294.37</ele>
        <time>2024-12-29T15:35:01.421Z</time>
      </trkpt>
      <trkpt lat="49.9816969782114" lon="6.0117419343441725">
        <ele>295.17</ele>
        <time>2024-12-29T15:35:08.090Z</time>
      </trkpt>
      <trkpt lat="49.98170695267618" lon="6.011665994301438">
        <ele>296.09</ele>
        <time>2024-12-29T15:35:14.766Z</time>
      </trkpt>
      <trkpt lat="49.98173394240439" lon="6.011636992916465">
        <ele>297.05</ele>
        <time>2024-12-29T15:35:21.446Z</time>
      </trkpt>
      <trkpt lat="49.98172991909087" lon="6.011616960167885">
        <ele>298.05</ele>
        <time>2024-12-29T15:35:28.128Z</time>
      </trkpt>
      <trkpt lat="49.98172095045447" lon="6.011573961004615">
        <ele>299.1</ele>
        <time>2024-12-29T15:35:34.814Z</time>
      </trkpt>
      <trkpt lat="49.981722962111235" lon="6.011514952406287">
        <ele>300.22</ele>
        <time>2024-12-29T15:35:41.505Z</time>
      </trkpt>
      <trkpt lat="49.981703935191035" lon="6.011380925774574">
        <ele>301.42</ele>
        <time>2024-12-29T15:35:48.208Z</time>
      </trkpt>
      <trkpt lat="49.98171198181808" lon="6.011332981288433">
        <ele>302.61</ele>
        <time>2024-12-29T15:35:54.915Z</time>
      </trkpt>
      <trkpt lat="49.981742994859815" lon="6.011269949376583">
        <ele>303.86</ele>
        <time>2024-12-29T15:36:01.629Z</time>
      </trkpt>
      <trkpt lat="49.98174098320305" lon="6.011208929121494">
        <ele>305.09</ele>
        <time>2024-12-29T15:36:08.348Z</time>
      </trkpt>
      <trkpt lat="49.98166998848319" lon="6.010968955233693">
        <ele>306.33</ele>
        <time>2024-12-29T15:36:15.090Z</time>
      </trkpt>
      <trkpt lat="49.9816279951483" lon="6.010761922225356">
        <ele>307.62</ele>
        <time>2024-12-29T15:36:21.850Z</time>
      </trkpt>
      <trkpt lat="49.98156898654997" lon="6.01066192612052">
        <ele>308.85</ele>
        <time>2024-12-29T15:36:28.622Z</time>
      </trkpt>
      <trkpt lat="49.9815349560231" lon="6.010539969429374">
        <ele>310.1</ele>
        <time>2024-12-29T15:36:35.405Z</time>
      </trkpt>
      <trkpt lat="49.9815019313246" lon="6.010455982759595">
        <ele>311.34</ele>
        <time>2024-12-29T15:36:42.197Z</time>
      </trkpt>
      <trkpt lat="49.98142599128187" lon="6.010197987779975">
        <ele>312.62</ele>
        <time>2024-12-29T15:36:49.013Z</time>
      </trkpt>
      <trkpt lat="49.9813639651984" lon="6.009909985587001">
        <ele>313.86</ele>
        <time>2024-12-29T15:36:55.855Z</time>
      </trkpt>
      <trkpt lat="49.981338903307915" lon="6.0096141044050455">
        <ele>315.12</ele>
        <time>2024-12-29T15:37:02.723Z</time>
      </trkpt>
      <trkpt lat="49.98131392523646" lon="6.009319983422756">
        <ele>316.37</ele>
        <time>2024-12-29T15:37:09.617Z</time>
      </trkpt>
      <trkpt lat="49.98129799962044" lon="6.00921998731792">
        <ele>317.53</ele>
        <time>2024-12-29T15:37:16.519Z</time>
      </trkpt>
      <trkpt lat="49.981294982135296" lon="6.009054947644472">
        <ele>318.72</ele>
        <time>2024-12-29T15:37:23.436Z</time>
      </trkpt>
      <trkpt lat="49.981274949386716" lon="6.0088439751416445">
        <ele>319.89</ele>
        <time>2024-12-29T15:37:30.371Z</time>
      </trkpt>
      <trkpt lat="49.981254916638136" lon="6.008541975170374">
        <ele>320.95</ele>
        <time>2024-12-29T15:37:37.332Z</time>
      </trkpt>
      <trkpt lat="49.98127997852862" lon="6.008118940517306">
        <ele>321.94</ele>
        <time>2024-12-29T15:37:44.330Z</time>
      </trkpt>
      <trkpt lat="49.98129992745817" lon="6.008068984374404">
        <ele>322.88</ele>
        <time>2024-12-29T15:37:51.333Z</time>
      </trkpt>
      <trkpt lat="49.98133194632828" lon="6.00803897716105">
        <ele>323.78</ele>
        <time>2024-12-29T15:37:58.341Z</time>
      </trkpt>
      <trkpt lat="49.98139497824013" lon="6.008013999089599">
        <ele>324.65</ele>
        <time>2024-12-29T15:38:05.357Z</time>
      </trkpt>
      <trkpt lat="49.9815209582448" lon="6.00790997967124">
        <ele>325.52</ele>
        <time>2024-12-29T15:38:12.393Z</time>
      </trkpt>
      <trkpt lat="49.98158197849989" lon="6.0078279208391905">
        <ele>326.18</ele>
        <time>2024-12-29T15:38:19.439Z</time>
      </trkpt>
      <trkpt lat="49.98159195296466" lon="6.007782993838191">
        <ele>326.79</ele>
        <time>2024-12-29T15:38:26.489Z</time>
      </trkpt>
      <trkpt lat="49.981573931872845" lon="6.0077189560979605">
        <ele>327.33</ele>
        <time>2024-12-29T15:38:33.545Z</time>
      </trkpt>
      <trkpt lat="49.98155599460006" lon="6.007587946951389">
        <ele>327.83</ele>
        <time>2024-12-29T15:38:40.613Z</time>
      </trkpt>
      <trkpt lat="49.98155498877168" lon="6.007143957540393">
        <ele>328.41</ele>
        <time>2024-12-29T15:38:47.719Z</time>
      </trkpt>
      <trkpt lat="49.98153797350824" lon="6.007007919251919">
        <ele>328.83</ele>
        <time>2024-12-29T15:38:54.837Z</time>
      </trkpt>
      <trkpt lat="49.98154392465949" lon="6.006899960339069">
        <ele>329.17</ele>
        <time>2024-12-29T15:39:01.964Z</time>
      </trkpt>
      <trkpt lat="49.98153897933662" lon="6.006817985326052">
        <ele>329.43</ele>
        <time>2024-12-29T15:39:09.098Z</time>
      </trkpt>
      <trkpt lat="49.98155792243779" lon="6.006773980334401">
        <ele>329.58</ele>
        <time>2024-12-29T15:39:16.237Z</time>
      </trkpt>
      <trkpt lat="49.98154694214463" lon="6.006727963685989">
        <ele>329.69</ele>
        <time>2024-12-29T15:39:23.380Z</time>
      </trkpt>
      <trkpt lat="49.98153797350824" lon="6.00662293843925">
        <ele>329.76</ele>
        <time>2024-12-29T15:39:30.532Z</time>
      </trkpt>
      <trkpt lat="49.98154493048787" lon="6.006580945104361">
        <ele>329.73</ele>
        <time>2024-12-29T15:39:37.688Z</time>
      </trkpt>
      <trkpt lat="49.98152397572994" lon="6.006483966484666">
        <ele>329.66</ele>
        <time>2024-12-29T15:39:44.853Z</time>
      </trkpt>
      <trkpt lat="49.98152498155832" lon="6.006412971764803">
        <ele>329.49</ele>
        <time>2024-12-29T15:39:52.024Z</time>
      </trkpt>
      <trkpt lat="49.98155792243779" lon="6.006309958174825">
        <ele>329.25</ele>
        <time>2024-12-29T15:39:59.205Z</time>
      </trkpt>
      <trkpt lat="49.981552977114916" lon="6.006268970668316">
        <ele>329.03</ele>
        <time>2024-12-29T15:40:06.390Z</time>
      </trkpt>
      <trkpt lat="49.98156295157969" lon="6.006219936534762">
        <ele>328.77</ele>
        <time>2024-12-29T15:40:13.579Z</time>
      </trkpt>
      <trkpt lat="49.98156395740807" lon="6.006166962906718">
        <ele>328.51</ele>
        <time>2024-12-29T15:40:20.773Z</time>
      </trkpt>
      <trkpt lat="49.98154493048787" lon="6.006095968186855">
        <ele>328.27</ele>
        <time>2024-12-29T15:40:27.973Z</time>
      </trkpt>
      <trkpt lat="49.98146295547485" lon="6.005951967090368">
        <ele>328.02</ele>
        <time>2024-12-29T15:40:35.190Z</time>
      </trkpt>
      <trkpt lat="49.981401935219765" lon="6.005912991240621">
        <ele>327.81</ele>
        <time>2024-12-29T15:40:42.415Z</time>
      </trkpt>
      <trkpt lat="49.98131392523646" lon="6.005795979872346">
        <ele>327.63</ele>
        <time>2024-12-29T15:40:49.656Z</time>
      </trkpt>
      <trkpt lat="49.98125893995166" lon="6.005684919655323">
        <ele>327.5</ele>
        <time>2024-12-29T15:40:56.909Z</time>
      </trkpt>
      <trkpt lat="49.98124494217336" lon="6.00561392493546">
        <ele>327.47</ele>
        <time>2024-12-29T15:41:04.168Z</time>
      </trkpt>
      <trkpt lat="49.98121099546552" lon="6.005574949085712">
        <ele>327.49</ele>
        <time>2024-12-29T15:41:11.433Z</time>
      </trkpt>
      <trkpt lat="49.98116799630225" lon="6.005422985181212">
        <ele>327.6</ele>
        <time>2024-12-29T15:41:18.712Z</time>
      </trkpt>
      <trkpt lat="49.98114896938205" lon="6.005236990749836">
        <ele>327.81</ele>
        <time>2024-12-29T15:41:26.008Z</time>
      </trkpt>
      <trkpt lat="49.98108275234699" lon="6.004910599440336">
        <ele>328.07</ele>
        <time>2024-12-29T15:41:33.333Z</time>
      </trkpt>
      <trkpt lat="49.981016954407096" lon="6.0045859683305025">
        <ele>328.48</ele>
        <time>2024-12-29T15:41:40.687Z</time>
      </trkpt>
      <trkpt lat="49.980938751250505" lon="6.0042746644467115">
        <ele>328.97</ele>
        <time>2024-12-29T15:41:48.070Z</time>
      </trkpt>
      <trkpt lat="49.980860967189074" lon="6.003964953124523">
        <ele>329.71</ele>
        <time>2024-12-29T15:41:55.482Z</time>
      </trkpt>
      <trkpt lat="49.98078494332731" lon="6.003616936504841">
        <ele>330.73</ele>
        <time>2024-12-29T15:42:02.925Z</time>
      </trkpt>
      <trkpt lat="49.98076692223549" lon="6.003423985093832">
        <ele>331.88</ele>
        <time>2024-12-29T15:42:10.385Z</time>
      </trkpt>
      <trkpt lat="49.980776980519295" lon="6.003294987604022">
        <ele>333.15</ele>
        <time>2024-12-29T15:42:17.856Z</time>
      </trkpt>
      <trkpt lat="49.98075141571462" lon="6.003035735338926">
        <ele>334.73</ele>
        <time>2024-12-29T15:42:25.350Z</time>
      </trkpt>
      <trkpt lat="49.98072593472898" lon="6.0027779918164015">
        <ele>336.51</ele>
        <time>2024-12-29T15:42:32.866Z</time>
      </trkpt>
      <trkpt lat="49.98067899607122" lon="6.002657962962985">
        <ele>338.3</ele>
        <time>2024-12-29T15:42:40.394Z</time>
      </trkpt>
      <trkpt lat="49.98067991808057" lon="6.002541957423091">
        <ele>340.18</ele>
        <time>2024-12-29T15:42:47.932Z</time>
      </trkpt>
      <trkpt lat="49.980651922523975" lon="6.00249795243144">
        <ele>342.11</ele>
        <time>2024-12-29T15:42:55.476Z</time>
      </trkpt>
      <trkpt lat="49.980649994686246" lon="6.0024569649249315">
        <ele>344.13</ele>
        <time>2024-12-29T15:43:03.023Z</time>
      </trkpt>
      <trkpt lat="49.98055494390428" lon="6.00234598852694">
        <ele>346.32</ele>
        <time>2024-12-29T15:43:10.586Z</time>
      </trkpt>
      <trkpt lat="49.98054496943951" lon="6.002275999635458">
        <ele>348.52</ele>
        <time>2024-12-29T15:43:18.155Z</time>
      </trkpt>
      <trkpt lat="49.98048596084118" lon="6.002177931368351">
        <ele>350.81</ele>
        <time>2024-12-29T15:43:25.736Z</time>
      </trkpt>
      <trkpt lat="49.98048897832632" lon="6.002139961346984">
        <ele>353.07</ele>
        <time>2024-12-29T15:43:33.320Z</time>
      </trkpt>
      <trkpt lat="49.980477998033166" lon="6.002079946920276">
        <ele>355.39</ele>
        <time>2024-12-29T15:43:40.909Z</time>
      </trkpt>
      <trkpt lat="49.98047196306288" lon="6.001880960538983">
        <ele>357.82</ele>
        <time>2024-12-29T15:43:48.516Z</time>
      </trkpt>
      <trkpt lat="49.98046693392098" lon="6.001833938062191">
        <ele>360.1</ele>
        <time>2024-12-29T15:43:56.127Z</time>
      </trkpt>
      <trkpt lat="49.98044698499143" lon="6.001790938898921">
        <ele>362.33</ele>
        <time>2024-12-29T15:44:03.742Z</time>
      </trkpt>
      <trkpt lat="49.98042494058609" lon="6.001597987487912">
        <ele>364.69</ele>
        <time>2024-12-29T15:44:11.374Z</time>
      </trkpt>
      <trkpt lat="49.98041798360646" lon="6.001399923115969">
        <ele>366.97</ele>
        <time>2024-12-29T15:44:19.023Z</time>
      </trkpt>
      <trkpt lat="49.98036199249327" lon="6.001124996691942">
        <ele>369.15</ele>
        <time>2024-12-29T15:44:26.697Z</time>
      </trkpt>
      <trkpt lat="49.98038194142282" lon="6.001009996980429">
        <ele>371.05</ele>
        <time>2024-12-29T15:44:34.381Z</time>
      </trkpt>
      <trkpt lat="49.98042896389961" lon="6.0009099170565605">
        <ele>372.82</ele>
        <time>2024-12-29T15:44:42.076Z</time>
      </trkpt>
      <trkpt lat="49.98044597916305" lon="6.000827942043543">
        <ele>374.41</ele>
        <time>2024-12-29T15:44:49.778Z</time>
      </trkpt>
      <trkpt lat="49.98045293614268" lon="6.000578999519348">
        <ele>375.92</ele>
        <time>2024-12-29T15:44:57.502Z</time>
      </trkpt>
      <trkpt lat="49.980474980548024" lon="6.00051898509264">
        <ele>377.1</ele>
        <time>2024-12-29T15:45:05.232Z</time>
      </trkpt>
      <trkpt lat="49.980604983866215" lon="6.0003329906612635">
        <ele>378.11</ele>
        <time>2024-12-29T15:45:12.985Z</time>
      </trkpt>
      <trkpt lat="49.980628872290254" lon="6.000242717564106">
        <ele>378.89</ele>
        <time>2024-12-29T15:45:20.747Z</time>
      </trkpt>
      <trkpt lat="49.98063792474568" lon="6.000208938494325">
        <ele>379.42</ele>
        <time>2024-12-29T15:45:28.512Z</time>
      </trkpt>
      <trkpt lat="49.98063398525119" lon="6.0001609940081835">
        <ele>379.75</ele>
        <time>2024-12-29T15:45:36.281Z</time>
      </trkpt>
      <trkpt lat="49.98061596415937" lon="6.00011195987463">
        <ele>380.09</ele>
        <time>2024-12-29T15:45:44.055Z</time>
      </trkpt>
      <trkpt lat="49.98073917813599" lon="5.999815408140421">
        <ele>379.67</ele>
        <time>2024-12-29T15:45:51.859Z</time>
      </trkpt>
      <trkpt lat="49.980861973017454" lon="5.999519946053624">
        <ele>379.2</ele>
        <time>2024-12-29T15:45:59.693Z</time>
      </trkpt>
      <trkpt lat="49.98091796413064" lon="5.999253988265991">
        <ele>378.57</ele>
        <time>2024-12-29T15:46:07.552Z</time>
      </trkpt>
      <trkpt lat="49.980930956080556" lon="5.999068999662995">
        <ele>377.68</ele>
        <time>2024-12-29T15:46:15.427Z</time>
      </trkpt>
      <trkpt lat="49.98102491721511" lon="5.998745961114764">
        <ele>376.48</ele>
        <time>2024-12-29T15:46:23.332Z</time>
      </trkpt>
      <trkpt lat="49.98106054030359" lon="5.998442117124796">
        <ele>375.11</ele>
        <time>2024-12-29T15:46:31.264Z</time>
      </trkpt>
      <trkpt lat="49.981095995754" lon="5.998139949515462">
        <ele>373.49</ele>
        <time>2024-12-29T15:46:39.222Z</time>
      </trkpt>
      <trkpt lat="49.98115693219006" lon="5.997962923720479">
        <ele>371.66</ele>
        <time>2024-12-29T15:46:47.197Z</time>
      </trkpt>
      <trkpt lat="49.981231950223446" lon="5.997865945100784">
        <ele>369.69</ele>
        <time>2024-12-29T15:46:55.185Z</time>
      </trkpt>
      <trkpt lat="49.98129565268755" lon="5.997815150767565">
        <ele>367.59</ele>
        <time>2024-12-29T15:47:03.183Z</time>
      </trkpt>
      <trkpt lat="49.98129598796368" lon="5.997814983129501">
        <ele>365.48</ele>
        <time>2024-12-29T15:47:11.181Z</time>
      </trkpt>
      <trkpt lat="49.98153395019472" lon="5.997671987861395">
        <ele>362.85</ele>
        <time>2024-12-29T15:47:19.213Z</time>
      </trkpt>
      <trkpt lat="49.98160192742944" lon="5.997633934020996">
        <ele>360.46</ele>
        <time>2024-12-29T15:47:27.255Z</time>
      </trkpt>
      <trkpt lat="49.98182094655931" lon="5.997579954564571">
        <ele>357.82</ele>
        <time>2024-12-29T15:47:35.326Z</time>
      </trkpt>
      <trkpt lat="49.98193594627082" lon="5.997583977878094">
        <ele>355.3</ele>
        <time>2024-12-29T15:47:43.413Z</time>
      </trkpt>
      <trkpt lat="49.98216795735061" lon="5.997676933184266">
        <ele>352.74</ele>
        <time>2024-12-29T15:47:51.532Z</time>
      </trkpt>
      <trkpt lat="49.98232092708349" lon="5.997775923460722">
        <ele>350.27</ele>
        <time>2024-12-29T15:47:59.673Z</time>
      </trkpt>
      <trkpt lat="49.98249191790819" lon="5.997909950092435">
        <ele>347.7</ele>
        <time>2024-12-29T15:48:07.839Z</time>
      </trkpt>
      <trkpt lat="49.98257196508348" lon="5.99792093038559">
        <ele>345.24</ele>
        <time>2024-12-29T15:48:16.016Z</time>
      </trkpt>
      <trkpt lat="49.98263499699533" lon="5.997876925393939">
        <ele>342.89</ele>
        <time>2024-12-29T15:48:24.202Z</time>
      </trkpt>
      <trkpt lat="49.9827229231596" lon="5.997664947062731">
        <ele>340.65</ele>
        <time>2024-12-29T15:48:32.410Z</time>
      </trkpt>
      <trkpt lat="49.9827419500798" lon="5.99755397066474">
        <ele>338.49</ele>
        <time>2024-12-29T15:48:40.628Z</time>
      </trkpt>
      <trkpt lat="49.98274597339332" lon="5.997333945706487">
        <ele>336.47</ele>
        <time>2024-12-29T15:48:48.865Z</time>
      </trkpt>
      <trkpt lat="49.982730969786644" lon="5.996937984600663">
        <ele>334.44</ele>
        <time>2024-12-29T15:48:57.136Z</time>
      </trkpt>
      <trkpt lat="49.982714960351586" lon="5.9967579413205385">
        <ele>332.52</ele>
        <time>2024-12-29T15:49:05.423Z</time>
      </trkpt>
      <trkpt lat="49.98272996395826" lon="5.996675966307521">
        <ele>330.69</ele>
        <time>2024-12-29T15:49:13.717Z</time>
      </trkpt>
      <trkpt lat="49.982775980606675" lon="5.996652999892831">
        <ele>328.96</ele>
        <time>2024-12-29T15:49:22.017Z</time>
      </trkpt>
      <trkpt lat="49.98281395062804" lon="5.996665991842747">
        <ele>327.37</ele>
        <time>2024-12-29T15:49:30.323Z</time>
      </trkpt>
      <trkpt lat="49.98294663615525" lon="5.996825667098165">
        <ele>325.87</ele>
        <time>2024-12-29T15:49:38.651Z</time>
      </trkpt>
      <trkpt lat="49.983078986406326" lon="5.996984923258424">
        <ele>324.42</ele>
        <time>2024-12-29T15:49:47.001Z</time>
      </trkpt>
      <trkpt lat="49.98332197777927" lon="5.997244929894805">
        <ele>322.97</ele>
        <time>2024-12-29T15:49:55.391Z</time>
      </trkpt>
      <trkpt lat="49.98346799053252" lon="5.997507954016328">
        <ele>321.6</ele>
        <time>2024-12-29T15:50:03.811Z</time>
      </trkpt>
      <trkpt lat="49.98366295360029" lon="5.997608955949545">
        <ele>320.52</ele>
        <time>2024-12-29T15:50:12.258Z</time>
      </trkpt>
      <trkpt lat="49.983764961361885" lon="5.9977589920163155">
        <ele>319.45</ele>
        <time>2024-12-29T15:50:20.724Z</time>
      </trkpt>
      <trkpt lat="49.983851965516806" lon="5.997806936502457">
        <ele>318.65</ele>
        <time>2024-12-29T15:50:29.202Z</time>
      </trkpt>
      <trkpt lat="49.983978951349854" lon="5.997807942330837">
        <ele>318.05</ele>
        <time>2024-12-29T15:50:37.697Z</time>
      </trkpt>
      <trkpt lat="49.984150948002934" lon="5.997872985899448">
        <ele>317.54</ele>
        <time>2024-12-29T15:50:46.216Z</time>
      </trkpt>
      <trkpt lat="49.98434096574783" lon="5.997979938983917">
        <ele>317.08</ele>
        <time>2024-12-29T15:50:54.762Z</time>
      </trkpt>
      <trkpt lat="49.98456962406635" lon="5.9981930907815695">
        <ele>316.48</ele>
        <time>2024-12-29T15:51:03.343Z</time>
      </trkpt>
      <trkpt lat="49.984797947108746" lon="5.998405991122127">
        <ele>316.07</ele>
        <time>2024-12-29T15:51:11.960Z</time>
      </trkpt>
      <trkpt lat="49.98497254215181" lon="5.998501963913441">
        <ele>315.75</ele>
        <time>2024-12-29T15:51:20.602Z</time>
      </trkpt>
      <trkpt lat="49.98514696955681" lon="5.998597936704755">
        <ele>315.41</ele>
        <time>2024-12-29T15:51:29.268Z</time>
      </trkpt>
      <trkpt lat="49.985352074727416" lon="5.9987385012209415">
        <ele>315.18</ele>
        <time>2024-12-29T15:51:37.964Z</time>
      </trkpt>
      <trkpt lat="49.98555692844093" lon="5.9988789819180965">
        <ele>315.0</ele>
        <time>2024-12-29T15:51:46.690Z</time>
      </trkpt>
      <trkpt lat="49.98576899059117" lon="5.999083919450641">
        <ele>314.73</ele>
        <time>2024-12-29T15:51:55.449Z</time>
      </trkpt>
      <trkpt lat="49.985953057184815" lon="5.999241080135107">
        <ele>314.41</ele>
        <time>2024-12-29T15:52:04.237Z</time>
      </trkpt>
      <trkpt lat="49.9861369561404" lon="5.999397989362478">
        <ele>313.96</ele>
        <time>2024-12-29T15:52:13.053Z</time>
      </trkpt>
      <trkpt lat="49.98630350455642" lon="5.999482981860638">
        <ele>313.61</ele>
        <time>2024-12-29T15:52:21.892Z</time>
      </trkpt>
      <trkpt lat="49.986469969153404" lon="5.999567974358797">
        <ele>313.34</ele>
        <time>2024-12-29T15:52:30.754Z</time>
      </trkpt>
      <trkpt lat="49.98673299327493" lon="5.99966193549335">
        <ele>313.17</ele>
        <time>2024-12-29T15:52:39.652Z</time>
      </trkpt>
      <trkpt lat="49.9868069216609" lon="5.999673921614885">
        <ele>312.94</ele>
        <time>2024-12-29T15:52:48.560Z</time>
      </trkpt>
      <trkpt lat="49.98695394024253" lon="5.999680962413549">
        <ele>312.61</ele>
        <time>2024-12-29T15:52:57.488Z</time>
      </trkpt>
      <trkpt lat="49.98701998963952" lon="5.999639974907041">
        <ele>312.34</ele>
        <time>2024-12-29T15:53:06.425Z</time>
      </trkpt>
      <trkpt lat="49.98719491995871" lon="5.9993169363588095">
        <ele>312.0</ele>
        <time>2024-12-29T15:53:15.399Z</time>
      </trkpt>
      <trkpt lat="49.98731520026922" lon="5.99901937879622">
        <ele>311.55</ele>
        <time>2024-12-29T15:53:24.403Z</time>
      </trkpt>
      <trkpt lat="49.987434977665544" lon="5.998722994700074">
        <ele>311.18</ele>
        <time>2024-12-29T15:53:33.437Z</time>
      </trkpt>
      <trkpt lat="49.98750898987055" lon="5.998589973896742">
        <ele>310.86</ele>
        <time>2024-12-29T15:53:42.486Z</time>
      </trkpt>
      <trkpt lat="49.987650979310274" lon="5.9983479883521795">
        <ele>310.6</ele>
        <time>2024-12-29T15:53:51.563Z</time>
      </trkpt>
      <trkpt lat="49.98774494044483" lon="5.998235922306776">
        <ele>310.5</ele>
        <time>2024-12-29T15:54:00.656Z</time>
      </trkpt>
      <trkpt lat="49.98774896375835" lon="5.998149923980236">
        <ele>310.47</ele>
        <time>2024-12-29T15:54:09.757Z</time>
      </trkpt>
      <trkpt lat="49.987804954871535" lon="5.997939957305789">
        <ele>310.5</ele>
        <time>2024-12-29T15:54:18.877Z</time>
      </trkpt>
      <trkpt lat="49.98783194459975" lon="5.997881954535842">
        <ele>310.52</ele>
        <time>2024-12-29T15:54:28.003Z</time>
      </trkpt>
      <trkpt lat="49.98785298317671" lon="5.997836943715811">
        <ele>310.6</ele>
        <time>2024-12-29T15:54:37.134Z</time>
      </trkpt>
      <trkpt lat="49.987910985946655" lon="5.9977589920163155">
        <ele>310.72</ele>
        <time>2024-12-29T15:54:46.275Z</time>
      </trkpt>
      <trkpt lat="49.98800897039473" lon="5.997694954276085">
        <ele>310.87</ele>
        <time>2024-12-29T15:54:55.430Z</time>
      </trkpt>
      <trkpt lat="49.98809698037803" lon="5.997673999518156">
        <ele>311.09</ele>
        <time>2024-12-29T15:55:04.597Z</time>
      </trkpt>
      <trkpt lat="49.98833192512393" lon="5.997651955112815">
        <ele>311.3</ele>
        <time>2024-12-29T15:55:13.796Z</time>
      </trkpt>
      <trkpt lat="49.98841398395598" lon="5.997634939849377">
        <ele>311.6</ele>
        <time>2024-12-29T15:55:23.006Z</time>
      </trkpt>
      <trkpt lat="49.988470980897546" lon="5.997552964836359">
        <ele>311.98</ele>
        <time>2024-12-29T15:55:32.226Z</time>
      </trkpt>
      <trkpt lat="49.98857198283076" lon="5.997220957651734">
        <ele>312.49</ele>
        <time>2024-12-29T15:55:41.478Z</time>
      </trkpt>
      <trkpt lat="49.988639960065484" lon="5.996999926865101">
        <ele>313.05</ele>
        <time>2024-12-29T15:55:50.751Z</time>
      </trkpt>
      <trkpt lat="49.988727467134595" lon="5.99669792689383">
        <ele>313.76</ele>
        <time>2024-12-29T15:56:00.052Z</time>
      </trkpt>
      <trkpt lat="49.98881505802274" lon="5.99639592692256">
        <ele>314.4</ele>
        <time>2024-12-29T15:56:09.382Z</time>
      </trkpt>
      <trkpt lat="49.988901978358626" lon="5.99609593860805">
        <ele>314.94</ele>
        <time>2024-12-29T15:56:18.740Z</time>
      </trkpt>
      <trkpt lat="49.98892695643008" lon="5.996021926403046">
        <ele>315.35</ele>
        <time>2024-12-29T15:56:28.105Z</time>
      </trkpt>
      <trkpt lat="49.98897498473525" lon="5.99594296887517">
        <ele>315.73</ele>
        <time>2024-12-29T15:56:37.480Z</time>
      </trkpt>
      <trkpt lat="49.98908897861838" lon="5.9958249516785145">
        <ele>316.08</ele>
        <time>2024-12-29T15:56:46.873Z</time>
      </trkpt>
      <trkpt lat="49.989350996911526" lon="5.995740965008736">
        <ele>316.42</ele>
        <time>2024-12-29T15:56:56.302Z</time>
      </trkpt>
      <trkpt lat="49.989651991054416" lon="5.995659995824099">
        <ele>316.51</ele>
        <time>2024-12-29T15:57:05.771Z</time>
      </trkpt>
      <trkpt lat="49.989757938310504" lon="5.995655972510576">
        <ele>316.57</ele>
        <time>2024-12-29T15:57:15.255Z</time>
      </trkpt>
      <trkpt lat="49.98983295634389" lon="5.995668964460492">
        <ele>316.57</ele>
        <time>2024-12-29T15:57:24.749Z</time>
      </trkpt>
      <trkpt lat="49.98989892192185" lon="5.995798967778683">
        <ele>316.41</ele>
        <time>2024-12-29T15:57:34.257Z</time>
      </trkpt>
      <trkpt lat="49.98995893634856" lon="5.995852947235107">
        <ele>316.3</ele>
        <time>2024-12-29T15:57:43.774Z</time>
      </trkpt>
      <trkpt lat="49.9899809807539" lon="5.995864933356643">
        <ele>316.22</ele>
        <time>2024-12-29T15:57:53.294Z</time>
      </trkpt>
      <trkpt lat="49.98998299241066" lon="5.995864933356643">
        <ele>316.14</ele>
        <time>2024-12-29T15:58:02.815Z</time>
      </trkpt>
      <trkpt lat="49.9899809807539" lon="5.995864933356643">
        <ele>316.22</ele>
        <time>2024-12-29T15:58:12.336Z</time>
      </trkpt>
      <trkpt lat="49.99007594771683" lon="5.995915979146957">
        <ele>315.84</ele>
        <time>2024-12-29T15:58:21.870Z</time>
      </trkpt>
      <trkpt lat="49.990254985168576" lon="5.995995942503214">
        <ele>315.64</ele>
        <time>2024-12-29T15:58:31.429Z</time>
      </trkpt>
      <trkpt lat="49.99043393880129" lon="5.996075989678502">
        <ele>315.51</ele>
        <time>2024-12-29T15:58:41.013Z</time>
      </trkpt>
      <trkpt lat="49.99056897126138" lon="5.996196940541267">
        <ele>315.46</ele>
        <time>2024-12-29T15:58:50.618Z</time>
      </trkpt>
      <trkpt lat="49.99069193378091" lon="5.996374972164631">
        <ele>315.39</ele>
        <time>2024-12-29T15:59:00.245Z</time>
      </trkpt>
      <trkpt lat="49.990829983726144" lon="5.9967199712991714">
        <ele>315.3</ele>
        <time>2024-12-29T15:59:09.907Z</time>
      </trkpt>
      <trkpt lat="49.99092696234584" lon="5.996891967952251">
        <ele>315.34</ele>
        <time>2024-12-29T15:59:19.589Z</time>
      </trkpt>
      <trkpt lat="49.99105394817889" lon="5.99699598737061">
        <ele>315.46</ele>
        <time>2024-12-29T15:59:29.290Z</time>
      </trkpt>
      <trkpt lat="49.99118395149708" lon="5.997036974877119">
        <ele>315.67</ele>
        <time>2024-12-29T15:59:39.009Z</time>
      </trkpt>
      <trkpt lat="49.99131998978555" lon="5.997053990140557">
        <ele>315.95</ele>
        <time>2024-12-29T15:59:48.746Z</time>
      </trkpt>
      <trkpt lat="49.991436917334795" lon="5.996989952400327">
        <ele>316.31</ele>
        <time>2024-12-29T15:59:58.499Z</time>
      </trkpt>
      <trkpt lat="49.9915159586817" lon="5.9969219751656055">
        <ele>316.78</ele>
        <time>2024-12-29T16:00:08.265Z</time>
      </trkpt>
      <trkpt lat="49.991696923971176" lon="5.996702956035733">
        <ele>317.42</ele>
        <time>2024-12-29T16:00:18.061Z</time>
      </trkpt>
      <trkpt lat="49.99187495559454" lon="5.996640929952264">
        <ele>318.0</ele>
        <time>2024-12-29T16:00:27.882Z</time>
      </trkpt>
      <trkpt lat="49.99190395697951" lon="5.996659956872463">
        <ele>318.53</ele>
        <time>2024-12-29T16:00:37.707Z</time>
      </trkpt>
      <trkpt lat="49.9919409211725" lon="5.996657945215702">
        <ele>319.13</ele>
        <time>2024-12-29T16:00:47.537Z</time>
      </trkpt>
      <trkpt lat="49.992037983611226" lon="5.996599942445755">
        <ele>319.88</ele>
        <time>2024-12-29T16:00:57.381Z</time>
      </trkpt>
      <trkpt lat="49.99226194806397" lon="5.996405985206366">
        <ele>320.67</ele>
        <time>2024-12-29T16:01:07.259Z</time>
      </trkpt>
      <trkpt lat="49.992415588349104" lon="5.996256368234754">
        <ele>321.45</ele>
        <time>2024-12-29T16:01:17.161Z</time>
      </trkpt>
      <trkpt lat="49.99256897717714" lon="5.996106918901205">
        <ele>322.31</ele>
        <time>2024-12-29T16:01:27.087Z</time>
      </trkpt>
      <trkpt lat="49.992717588320374" lon="5.995980855077505">
        <ele>323.14</ele>
        <time>2024-12-29T16:01:37.036Z</time>
      </trkpt>
      <trkpt lat="49.99286594800651" lon="5.995854958891869">
        <ele>324.01</ele>
        <time>2024-12-29T16:01:47.007Z</time>
      </trkpt>
      <trkpt lat="49.99291196465492" lon="5.995777929201722">
        <ele>325.05</ele>
        <time>2024-12-29T16:01:56.987Z</time>
      </trkpt>
      <trkpt lat="49.992937948554754" lon="5.995693942531943">
        <ele>326.17</ele>
        <time>2024-12-29T16:02:06.975Z</time>
      </trkpt>
      <trkpt lat="49.99294691719115" lon="5.995648931711912">
        <ele>327.32</ele>
        <time>2024-12-29T16:02:16.967Z</time>
      </trkpt>
      <trkpt lat="49.9929459951818" lon="5.9955089539289474">
        <ele>328.56</ele>
        <time>2024-12-29T16:02:26.972Z</time>
      </trkpt>
      <trkpt lat="49.99292495660484" lon="5.99532195366919">
        <ele>329.89</ele>
        <time>2024-12-29T16:02:36.993Z</time>
      </trkpt>
      <trkpt lat="49.992877934128046" lon="5.994951976463199">
        <ele>331.29</ele>
        <time>2024-12-29T16:02:47.046Z</time>
      </trkpt>
      <trkpt lat="49.9928423948586" lon="5.994476638734341">
        <ele>332.92</ele>
        <time>2024-12-29T16:02:57.140Z</time>
      </trkpt>
      <trkpt lat="49.99280693940818" lon="5.994003983214498">
        <ele>334.63</ele>
        <time>2024-12-29T16:03:07.275Z</time>
      </trkpt>
      <trkpt lat="49.992807945236564" lon="5.99370215088129">
        <ele>336.14</ele>
        <time>2024-12-29T16:03:17.436Z</time>
      </trkpt>
      <trkpt lat="49.992808951064944" lon="5.993401994928718">
        <ele>337.55</ele>
        <time>2024-12-29T16:03:27.623Z</time>
      </trkpt>
      <trkpt lat="49.99281599186361" lon="5.993274925276637">
        <ele>338.88</ele>
        <time>2024-12-29T16:03:37.821Z</time>
      </trkpt>
      <trkpt lat="49.992850022390485" lon="5.992948533967137">
        <ele>340.23</ele>
        <time>2024-12-29T16:03:48.048Z</time>
      </trkpt>
      <trkpt lat="49.99288396909833" lon="5.992623986676335">
        <ele>341.57</ele>
        <time>2024-12-29T16:03:58.303Z</time>
      </trkpt>
      <trkpt lat="49.99295295216143" lon="5.992250991985202">
        <ele>342.88</ele>
        <time>2024-12-29T16:04:08.591Z</time>
      </trkpt>
      <trkpt lat="49.993017576634884" lon="5.992027446627617">
        <ele>344.08</ele>
        <time>2024-12-29T16:04:18.900Z</time>
      </trkpt>
      <trkpt lat="49.99308194965124" lon="5.991804990917444">
        <ele>345.29</ele>
        <time>2024-12-29T16:04:29.230Z</time>
      </trkpt>
      <trkpt lat="49.993229638785124" lon="5.991410119459033">
        <ele>346.42</ele>
        <time>2024-12-29T16:04:39.600Z</time>
      </trkpt>
      <trkpt lat="49.993377244099975" lon="5.9910153318196535">
        <ele>347.41</ele>
        <time>2024-12-29T16:04:50.009Z</time>
      </trkpt>
      <trkpt lat="49.99352392740548" lon="5.990622974932194">
        <ele>348.4</ele>
        <time>2024-12-29T16:05:00.457Z</time>
      </trkpt>
      <trkpt lat="49.99364395625889" lon="5.9901889599859715">
        <ele>349.43</ele>
        <time>2024-12-29T16:05:10.946Z</time>
      </trkpt>
      <trkpt lat="49.99365694820881" lon="5.989826945587993">
        <ele>350.45</ele>
        <time>2024-12-29T16:05:21.466Z</time>
      </trkpt>
      <trkpt lat="49.993646973744035" lon="5.989632988348603">
        <ele>351.3</ele>
        <time>2024-12-29T16:05:32.003Z</time>
      </trkpt>
      <trkpt lat="49.99359995126724" lon="5.989405922591686">
        <ele>352.06</ele>
        <time>2024-12-29T16:05:42.560Z</time>
      </trkpt>
      <trkpt lat="49.99350699596107" lon="5.989145999774337">
        <ele>352.72</ele>
        <time>2024-12-29T16:05:53.143Z</time>
      </trkpt>
      <trkpt lat="49.993540942668915" lon="5.9890939481556416">
        <ele>353.23</ele>
        <time>2024-12-29T16:06:03.732Z</time>
      </trkpt>
      <trkpt lat="49.99355795793235" lon="5.989084895700216">
        <ele>353.7</ele>
        <time>2024-12-29T16:06:14.323Z</time>
      </trkpt>
      <trkpt lat="49.993602968752384" lon="5.989060923457146">
        <ele>354.11</ele>
        <time>2024-12-29T16:06:24.921Z</time>
      </trkpt>
      <trkpt lat="49.9936989415437" lon="5.989172989502549">
        <ele>354.39</ele>
        <time>2024-12-29T16:06:35.535Z</time>
      </trkpt>
      <trkpt lat="49.993809163570404" lon="5.989460572600365">
        <ele>354.55</ele>
        <time>2024-12-29T16:06:46.178Z</time>
      </trkpt>
      <trkpt lat="49.99391896650195" lon="5.989746982231736">
        <ele>354.64</ele>
        <time>2024-12-29T16:06:56.849Z</time>
      </trkpt>
      <trkpt lat="49.99404360540211" lon="5.990153253078461">
        <ele>354.53</ele>
        <time>2024-12-29T16:07:07.559Z</time>
      </trkpt>
      <trkpt lat="49.99416816048324" lon="5.9905594401061535">
        <ele>354.54</ele>
        <time>2024-12-29T16:07:18.308Z</time>
      </trkpt>
      <trkpt lat="49.994291961193085" lon="5.990962944924831">
        <ele>354.61</ele>
        <time>2024-12-29T16:07:29.095Z</time>
      </trkpt>
      <trkpt lat="49.994465969502926" lon="5.9912889171391726">
        <ele>354.74</ele>
        <time>2024-12-29T16:07:39.919Z</time>
      </trkpt>
      <trkpt lat="49.99462497420609" lon="5.991420932114124">
        <ele>354.72</ele>
        <time>2024-12-29T16:07:50.767Z</time>
      </trkpt>
      <trkpt lat="49.99464894644916" lon="5.991571974009275">
        <ele>354.53</ele>
        <time>2024-12-29T16:08:01.628Z</time>
      </trkpt>
      <trkpt lat="49.994654981419444" lon="5.991607932373881">
        <ele>354.36</ele>
        <time>2024-12-29T16:08:12.492Z</time>
      </trkpt>
      <trkpt lat="49.9947159178555" lon="5.991793926805258">
        <ele>354.12</ele>
        <time>2024-12-29T16:08:23.374Z</time>
      </trkpt>
      <trkpt lat="49.994896966964006" lon="5.991749921813607">
        <ele>353.84</ele>
        <time>2024-12-29T16:08:34.281Z</time>
      </trkpt>
      <trkpt lat="49.995084973052144" lon="5.991535931825638">
        <ele>353.6</ele>
        <time>2024-12-29T16:08:45.219Z</time>
      </trkpt>
      <trkpt lat="49.99528999440372" lon="5.991220939904451">
        <ele>353.47</ele>
        <time>2024-12-29T16:08:56.195Z</time>
      </trkpt>
      <trkpt lat="49.99542494304478" lon="5.99083092994988">
        <ele>353.46</ele>
        <time>2024-12-29T16:09:07.209Z</time>
      </trkpt>
      <trkpt lat="49.99557305127382" lon="5.990680810064077">
        <ele>352.97</ele>
        <time>2024-12-29T16:09:18.247Z</time>
      </trkpt>
      <trkpt lat="49.9957209918648" lon="5.99053094163537">
        <ele>352.46</ele>
        <time>2024-12-29T16:09:29.309Z</time>
      </trkpt>
      <trkpt lat="49.995947973802686" lon="5.990384928882122">
        <ele>351.69</ele>
        <time>2024-12-29T16:09:40.403Z</time>
      </trkpt>
      <trkpt lat="49.996225917711854" lon="5.990166999399662">
        <ele>350.78</ele>
        <time>2024-12-29T16:09:51.539Z</time>
      </trkpt>
      <trkpt lat="49.99644066207111" lon="5.989930713549256">
        <ele>349.83</ele>
        <time>2024-12-29T16:10:02.710Z</time>
      </trkpt>
      <trkpt lat="49.996654987335205" lon="5.989694930613041">
        <ele>348.79</ele>
        <time>2024-12-29T16:10:13.916Z</time>
      </trkpt>
      <trkpt lat="49.99686964787543" lon="5.989469289779663">
        <ele>347.68</ele>
        <time>2024-12-29T16:10:25.157Z</time>
      </trkpt>
      <trkpt lat="49.997083973139524" lon="5.989243984222412">
        <ele>346.41</ele>
        <time>2024-12-29T16:10:36.432Z</time>
      </trkpt>
      <trkpt lat="49.99715915881097" lon="5.989007446914911">
        <ele>345.47</ele>
        <time>2024-12-29T16:10:47.730Z</time>
      </trkpt>
      <trkpt lat="49.99723392538726" lon="5.988771999254823">
        <ele>344.37</ele>
        <time>2024-12-29T16:10:59.051Z</time>
      </trkpt>
      <trkpt lat="49.9973632581532" lon="5.988395651802421">
        <ele>343.04</ele>
        <time>2024-12-29T16:11:10.408Z</time>
      </trkpt>
      <trkpt lat="49.99749192036688" lon="5.988020980730653">
        <ele>342.0</ele>
        <time>2024-12-29T16:11:21.802Z</time>
      </trkpt>
      <trkpt lat="49.9975551199168" lon="5.987729709595442">
        <ele>341.01</ele>
        <time>2024-12-29T16:11:33.222Z</time>
      </trkpt>
      <trkpt lat="49.99761798419058" lon="5.987439947202802">
        <ele>339.88</ele>
        <time>2024-12-29T16:11:44.669Z</time>
      </trkpt>
      <trkpt lat="49.997645979747176" lon="5.987166948616505">
        <ele>338.72</ele>
        <time>2024-12-29T16:11:56.139Z</time>
      </trkpt>
      <trkpt lat="49.99764799140394" lon="5.986790433526039">
        <ele>337.65</ele>
        <time>2024-12-29T16:12:07.642Z</time>
      </trkpt>
      <trkpt lat="49.99764991924167" lon="5.986415930092335">
        <ele>336.39</ele>
        <time>2024-12-29T16:12:19.177Z</time>
      </trkpt>
      <trkpt lat="49.99768294394016" lon="5.986348958685994">
        <ele>334.97</ele>
        <time>2024-12-29T16:12:30.719Z</time>
      </trkpt>
      <trkpt lat="49.99773893505335" lon="5.9863249864429235">
        <ele>333.47</ele>
        <time>2024-12-29T16:12:42.269Z</time>
      </trkpt>
      <trkpt lat="49.99777698889375" lon="5.986369997262955">
        <ele>331.95</ele>
        <time>2024-12-29T16:12:53.825Z</time>
      </trkpt>
      <trkpt lat="49.99780850484967" lon="5.986629668623209">
        <ele>330.32</ele>
        <time>2024-12-29T16:13:05.404Z</time>
      </trkpt>
      <trkpt lat="49.997839936986566" lon="5.986887998878956">
        <ele>328.62</ele>
        <time>2024-12-29T16:13:17.006Z</time>
      </trkpt>
      <trkpt lat="49.997833985835314" lon="5.987279936671257">
        <ele>326.94</ele>
        <time>2024-12-29T16:13:28.641Z</time>
      </trkpt>
      <trkpt lat="49.997859969735146" lon="5.987488981336355">
        <ele>325.22</ele>
        <time>2024-12-29T16:13:40.295Z</time>
      </trkpt>
      <trkpt lat="49.99791193753481" lon="5.987748987972736">
        <ele>323.41</ele>
        <time>2024-12-29T16:13:51.972Z</time>
      </trkpt>
      <trkpt lat="49.997964072972536" lon="5.988082503899932">
        <ele>321.61</ele>
        <time>2024-12-29T16:14:03.679Z</time>
      </trkpt>
      <trkpt lat="49.99801620841026" lon="5.9884160198271275">
        <ele>319.84</ele>
        <time>2024-12-29T16:14:15.415Z</time>
      </trkpt>
      <trkpt lat="49.99806792475283" lon="5.98874693736434">
        <ele>318.17</ele>
        <time>2024-12-29T16:14:27.181Z</time>
      </trkpt>
      <trkpt lat="49.99814294278622" lon="5.988849950954318">
        <ele>316.56</ele>
        <time>2024-12-29T16:14:38.960Z</time>
      </trkpt>
      <trkpt lat="49.99827696941793" lon="5.988945923745632">
        <ele>314.97</ele>
        <time>2024-12-29T16:14:50.759Z</time>
      </trkpt>
      <trkpt lat="49.99827998690307" lon="5.9891139809042215">
        <ele>313.45</ele>
        <time>2024-12-29T16:15:02.572Z</time>
      </trkpt>
      <trkpt lat="49.998325584456325" lon="5.989406760782003">
        <ele>311.92</ele>
        <time>2024-12-29T16:15:14.411Z</time>
      </trkpt>
      <trkpt lat="49.99837093055248" lon="5.989697948098183">
        <ele>310.47</ele>
        <time>2024-12-29T16:15:26.276Z</time>
      </trkpt>
      <trkpt lat="49.99838492833078" lon="5.989790987223387">
        <ele>309.08</ele>
        <time>2024-12-29T16:15:38.149Z</time>
      </trkpt>
      <trkpt lat="49.998526917770505" lon="5.990146966651082">
        <ele>307.65</ele>
        <time>2024-12-29T16:15:50.058Z</time>
      </trkpt>
      <trkpt lat="49.998567989096045" lon="5.9903679974377155">
        <ele>306.33</ele>
        <time>2024-12-29T16:16:01.987Z</time>
      </trkpt>
      <trkpt lat="49.9985979963094" lon="5.990723976865411">
        <ele>305.07</ele>
        <time>2024-12-29T16:16:13.947Z</time>
      </trkpt>
      <trkpt lat="49.99857796356082" lon="5.990809975191951">
        <ele>303.97</ele>
        <time>2024-12-29T16:16:25.915Z</time>
      </trkpt>
      <trkpt lat="49.998566983267665" lon="5.990947941318154">
        <ele>302.93</ele>
        <time>2024-12-29T16:16:37.894Z</time>
      </trkpt>
      <trkpt lat="49.99856396578252" lon="5.991011979058385">
        <ele>302.0</ele>
        <time>2024-12-29T16:16:49.879Z</time>
      </trkpt>
      <trkpt lat="49.99855893664062" lon="5.99110996350646">
        <ele>301.15</ele>
        <time>2024-12-29T16:17:01.872Z</time>
      </trkpt>
      <trkpt lat="49.998524989932775" lon="5.991391930729151">
        <ele>300.35</ele>
        <time>2024-12-29T16:17:13.890Z</time>
      </trkpt>
      <trkpt lat="49.9985099863261" lon="5.991497626528144">
        <ele>299.69</ele>
        <time>2024-12-29T16:17:25.917Z</time>
      </trkpt>
      <trkpt lat="49.9985099863261" lon="5.991497961804271">
        <ele>299.14</ele>
        <time>2024-12-29T16:17:37.944Z</time>
      </trkpt>
      <trkpt lat="49.998438991606236" lon="5.991750927641988">
        <ele>298.69</ele>
        <time>2024-12-29T16:17:49.995Z</time>
      </trkpt>
      <trkpt lat="49.998353999108076" lon="5.991964917629957">
        <ele>298.31</ele>
        <time>2024-12-29T16:18:02.068Z</time>
      </trkpt>
      <trkpt lat="49.99824897386134" lon="5.992159964516759">
        <ele>298.09</ele>
        <time>2024-12-29T16:18:14.163Z</time>
      </trkpt>
      <trkpt lat="49.998117964714766" lon="5.992316957563162">
        <ele>297.93</ele>
        <time>2024-12-29T16:18:26.280Z</time>
      </trkpt>
      <trkpt lat="49.998030960559845" lon="5.992422988638282">
        <ele>297.88</ele>
        <time>2024-12-29T16:18:38.412Z</time>
      </trkpt>
      <trkpt lat="49.9978659208864" lon="5.992618957534432">
        <ele>297.97</ele>
        <time>2024-12-29T16:18:50.571Z</time>
      </trkpt>
      <trkpt lat="49.99773893505335" lon="5.99280696362257">
        <ele>298.13</ele>
        <time>2024-12-29T16:19:02.754Z</time>
      </trkpt>
      <trkpt lat="49.99766391701996" lon="5.99293596111238">
        <ele>298.43</ele>
        <time>2024-12-29T16:19:14.952Z</time>
      </trkpt>
      <trkpt lat="49.99757297337055" lon="5.993105946108699">
        <ele>298.84</ele>
        <time>2024-12-29T16:19:27.169Z</time>
      </trkpt>
      <trkpt lat="49.99748798087239" lon="5.9932859893888235">
        <ele>299.37</ele>
        <time>2024-12-29T16:19:39.405Z</time>
      </trkpt>
      <trkpt lat="49.99739728868008" lon="5.993487322703004">
        <ele>300.07</ele>
        <time>2024-12-29T16:19:51.662Z</time>
      </trkpt>
      <trkpt lat="49.99730693176389" lon="5.9936879854649305">
        <ele>300.83</ele>
        <time>2024-12-29T16:20:03.940Z</time>
      </trkpt>
      <trkpt lat="49.99714868143201" lon="5.994037091732025">
        <ele>301.7</ele>
        <time>2024-12-29T16:20:16.255Z</time>
      </trkpt>
      <trkpt lat="49.99699093401432" lon="5.994384940713644">
        <ele>302.66</ele>
        <time>2024-12-29T16:20:28.606Z</time>
      </trkpt>
      <trkpt lat="49.99712093733251" lon="5.994545957073569">
        <ele>303.8</ele>
        <time>2024-12-29T16:20:40.980Z</time>
      </trkpt>
      <trkpt lat="49.99695095233619" lon="5.994879975914955">
        <ele>304.89</ele>
        <time>2024-12-29T16:20:53.390Z</time>
      </trkpt>
      <trkpt lat="49.99703393317759" lon="5.995004950091243">
        <ele>306.19</ele>
        <time>2024-12-29T16:21:05.816Z</time>
      </trkpt>
      <trkpt lat="49.997148932889104" lon="5.995009979233146">
        <ele>307.56</ele>
        <time>2024-12-29T16:21:18.257Z</time>
      </trkpt>
      <trkpt lat="49.99724599532783" lon="5.994945941492915">
        <ele>308.98</ele>
        <time>2024-12-29T16:21:30.712Z</time>
      </trkpt>
      <trkpt lat="49.997426960617304" lon="5.994740920141339">
        <ele>310.54</ele>
        <time>2024-12-29T16:21:43.197Z</time>
      </trkpt>
      <trkpt lat="49.99760222621262" lon="5.994451995939016">
        <ele>312.25</ele>
        <time>2024-12-29T16:21:55.716Z</time>
      </trkpt>
      <trkpt lat="49.99777698889375" lon="5.994163993746042">
        <ele>314.02</ele>
        <time>2024-12-29T16:22:08.269Z</time>
      </trkpt>
      <trkpt lat="49.99789592809975" lon="5.994036924093962">
        <ele>315.86</ele>
        <time>2024-12-29T16:22:20.841Z</time>
      </trkpt>
      <trkpt lat="49.99798494391143" lon="5.993979927152395">
        <ele>317.74</ele>
        <time>2024-12-29T16:22:33.426Z</time>
      </trkpt>
      <trkpt lat="49.998054932802916" lon="5.994026949629188">
        <ele>319.84</ele>
        <time>2024-12-29T16:22:46.022Z</time>
      </trkpt>
      <trkpt lat="49.998116958886385" lon="5.994131974875927">
        <ele>322.1</ele>
        <time>2024-12-29T16:22:58.630Z</time>
      </trkpt>
      <trkpt lat="49.998200945556164" lon="5.994486948475242">
        <ele>324.64</ele>
        <time>2024-12-29T16:23:11.270Z</time>
      </trkpt>
      <trkpt lat="49.99825693666935" lon="5.994640924036503">
        <ele>327.07</ele>
        <time>2024-12-29T16:23:23.925Z</time>
      </trkpt>
      <trkpt lat="49.998306976631284" lon="5.994728934019804">
        <ele>329.55</ele>
        <time>2024-12-29T16:23:36.591Z</time>
      </trkpt>
      <trkpt lat="49.99844393692911" lon="5.994968991726637">
        <ele>332.23</ele>
        <time>2024-12-29T16:23:49.284Z</time>
      </trkpt>
      <trkpt lat="49.998502945527434" lon="5.995071921497583">
        <ele>334.93</ele>
        <time>2024-12-29T16:24:01.989Z</time>
      </trkpt>
      <trkpt lat="49.998632948845625" lon="5.995299993082881">
        <ele>337.83</ele>
        <time>2024-12-29T16:24:14.720Z</time>
      </trkpt>
      <trkpt lat="49.99868298880756" lon="5.995433935895562">
        <ele>340.68</ele>
        <time>2024-12-29T16:24:27.465Z</time>
      </trkpt>
      <trkpt lat="49.99877795577049" lon="5.995689919218421">
        <ele>343.68</ele>
        <time>2024-12-29T16:24:40.235Z</time>
      </trkpt>
      <trkpt lat="49.998892955482006" lon="5.9959539491683245">
        <ele>346.7</ele>
        <time>2024-12-29T16:24:53.032Z</time>
      </trkpt>
      <trkpt lat="49.998977947980165" lon="5.996092921122909">
        <ele>349.69</ele>
        <time>2024-12-29T16:25:05.846Z</time>
      </trkpt>
      <trkpt lat="49.999144999310374" lon="5.996333984658122">
        <ele>352.82</ele>
        <time>2024-12-29T16:25:18.690Z</time>
      </trkpt>
      <trkpt lat="49.999210964888334" lon="5.99652593024075">
        <ele>355.95</ele>
        <time>2024-12-29T16:25:31.553Z</time>
      </trkpt>
      <trkpt lat="49.99930995516479" lon="5.996980983763933">
        <ele>359.18</ele>
        <time>2024-12-29T16:25:44.457Z</time>
      </trkpt>
      <trkpt lat="49.99932395294309" lon="5.997120961546898">
        <ele>362.21</ele>
        <time>2024-12-29T16:25:57.374Z</time>
      </trkpt>
      <trkpt lat="49.99936795793474" lon="5.997435953468084">
        <ele>365.31</ele>
        <time>2024-12-29T16:26:10.318Z</time>
      </trkpt>
      <trkpt lat="49.99941506423056" lon="5.997766368091106">
        <ele>368.41</ele>
        <time>2024-12-29T16:26:23.291Z</time>
      </trkpt>
      <trkpt lat="49.99946191906929" lon="5.998094938695431">
        <ele>371.48</ele>
        <time>2024-12-29T16:26:36.293Z</time>
      </trkpt>
      <trkpt lat="49.99951405450702" lon="5.9983485750854015">
        <ele>374.53</ele>
        <time>2024-12-29T16:26:49.318Z</time>
      </trkpt>
      <trkpt lat="49.99956593848765" lon="5.998600954189897">
        <ele>377.56</ele>
        <time>2024-12-29T16:27:02.366Z</time>
      </trkpt>
      <trkpt lat="49.999678675085306" lon="5.998809831216931">
        <ele>380.58</ele>
        <time>2024-12-29T16:27:15.437Z</time>
      </trkpt>
      <trkpt lat="49.999790992587805" lon="5.999017953872681">
        <ele>383.55</ele>
        <time>2024-12-29T16:27:28.532Z</time>
      </trkpt>
      <trkpt lat="49.9998189881444" lon="5.999203948304057">
        <ele>386.52</ele>
        <time>2024-12-29T16:27:41.643Z</time>
      </trkpt>
      <trkpt lat="49.99985394068062" lon="5.9995239693671465">
        <ele>389.46</ele>
        <time>2024-12-29T16:27:54.782Z</time>
      </trkpt>
      <trkpt lat="50.000009927898645" lon="5.999928982928395">
        <ele>392.25</ele>
        <time>2024-12-29T16:28:07.962Z</time>
      </trkpt>
      <trkpt lat="50.000022584572434" lon="5.999968880787492">
        <ele>394.89</ele>
        <time>2024-12-29T16:28:21.146Z</time>
      </trkpt>
      <trkpt lat="50.00008058734238" lon="6.000152947381139">
        <ele>397.68</ele>
        <time>2024-12-29T16:28:34.347Z</time>
      </trkpt>
      <trkpt lat="50.00015099532902" lon="6.0003759898245335">
        <ele>400.5</ele>
        <time>2024-12-29T16:28:47.570Z</time>
      </trkpt>
      <trkpt lat="50.00030094757676" lon="6.000779997557402">
        <ele>403.12</ele>
        <time>2024-12-29T16:29:00.833Z</time>
      </trkpt>
      <trkpt lat="50.00035693868995" lon="6.000940930098295">
        <ele>405.53</ele>
        <time>2024-12-29T16:29:14.111Z</time>
      </trkpt>
      <trkpt lat="50.00044595450163" lon="6.001191968098283">
        <ele>407.83</ele>
        <time>2024-12-29T16:29:27.414Z</time>
      </trkpt>
      <trkpt lat="50.00057151541114" lon="6.001529339700937">
        <ele>410.07</ele>
        <time>2024-12-29T16:29:40.751Z</time>
      </trkpt>
      <trkpt lat="50.00069716013968" lon="6.001866711303592">
        <ele>412.23</ele>
        <time>2024-12-29T16:29:54.121Z</time>
      </trkpt>
      <trkpt lat="50.000821966677904" lon="6.002201987430453">
        <ele>414.19</ele>
        <time>2024-12-29T16:30:07.524Z</time>
      </trkpt>
      <trkpt lat="50.000927494838834" lon="6.00252871401608">
        <ele>415.99</ele>
        <time>2024-12-29T16:30:20.959Z</time>
      </trkpt>
      <trkpt lat="50.001033106818795" lon="6.0028554406017065">
        <ele>417.58</ele>
        <time>2024-12-29T16:30:34.425Z</time>
      </trkpt>
      <trkpt lat="50.00113796442747" lon="6.0031799878925085">
        <ele>419.05</ele>
        <time>2024-12-29T16:30:47.923Z</time>
      </trkpt>
      <trkpt lat="50.001276936382055" lon="6.00348592735827">
        <ele>420.43</ele>
        <time>2024-12-29T16:31:01.453Z</time>
      </trkpt>
      <trkpt lat="50.00142998993397" lon="6.003650967031717">
        <ele>421.67</ele>
        <time>2024-12-29T16:31:15.008Z</time>
      </trkpt>
      <trkpt lat="50.001599974930286" lon="6.003791950643063">
        <ele>422.81</ele>
        <time>2024-12-29T16:31:28.588Z</time>
      </trkpt>
      <trkpt lat="50.00177297741175" lon="6.003867471590638">
        <ele>423.83</ele>
        <time>2024-12-29T16:31:42.192Z</time>
      </trkpt>
      <trkpt lat="50.00194597989321" lon="6.003942992538214">
        <ele>424.77</ele>
        <time>2024-12-29T16:31:55.820Z</time>
      </trkpt>
      <trkpt lat="50.002111019566655" lon="6.004003006964922">
        <ele>425.6</ele>
        <time>2024-12-29T16:32:09.471Z</time>
      </trkpt>
      <trkpt lat="50.00227597542107" lon="6.0040629375725985">
        <ele>426.34</ele>
        <time>2024-12-29T16:32:23.145Z</time>
      </trkpt>
      <trkpt lat="50.0024539232254" lon="6.004202999174595">
        <ele>426.95</ele>
        <time>2024-12-29T16:32:36.845Z</time>
      </trkpt>
      <trkpt lat="50.002630949020386" lon="6.004368960857391">
        <ele>427.46</ele>
        <time>2024-12-29T16:32:50.573Z</time>
      </trkpt>
      <trkpt lat="50.00270797871053" lon="6.004481948912144">
        <ele>427.84</ele>
        <time>2024-12-29T16:33:04.315Z</time>
      </trkpt>
      <trkpt lat="50.0027771294117" lon="6.004661489278078">
        <ele>428.14</ele>
        <time>2024-12-29T16:33:18.075Z</time>
      </trkpt>
      <trkpt lat="50.00285105779767" lon="6.004853351041675">
        <ele>428.35</ele>
        <time>2024-12-29T16:33:31.854Z</time>
      </trkpt>
      <trkpt lat="50.00299413688481" lon="6.005224669352174">
        <ele>428.52</ele>
        <time>2024-12-29T16:33:45.670Z</time>
      </trkpt>
      <trkpt lat="50.00313721597195" lon="6.005596071481705">
        <ele>428.59</ele>
        <time>2024-12-29T16:33:59.524Z</time>
      </trkpt>
      <trkpt lat="50.00328037887812" lon="6.005967389792204">
        <ele>428.58</ele>
        <time>2024-12-29T16:34:13.415Z</time>
      </trkpt>
      <trkpt lat="50.003421949222684" lon="6.006334936246276">
        <ele>428.49</ele>
        <time>2024-12-29T16:34:27.343Z</time>
      </trkpt>
      <trkpt lat="50.003507947549224" lon="6.006505927070975">
        <ele>428.41</ele>
        <time>2024-12-29T16:34:41.289Z</time>
      </trkpt>
      <trkpt lat="50.00373794697225" lon="6.006317920982838">
        <ele>428.31</ele>
        <time>2024-12-29T16:34:55.270Z</time>
      </trkpt>
      <trkpt lat="50.00397993251681" lon="6.006230916827917">
        <ele>428.19</ele>
        <time>2024-12-29T16:35:09.284Z</time>
      </trkpt>
      <trkpt lat="50.00415704213083" lon="6.006098901852965">
        <ele>427.87</ele>
        <time>2024-12-29T16:35:23.324Z</time>
      </trkpt>
      <trkpt lat="50.00433398410678" lon="6.005966970697045">
        <ele>427.55</ele>
        <time>2024-12-29T16:35:37.391Z</time>
      </trkpt>
      <trkpt lat="50.00447295606136" lon="6.005897987633944">
        <ele>427.24</ele>
        <time>2024-12-29T16:35:51.477Z</time>
      </trkpt>
      <trkpt lat="50.00455291941762" lon="6.005918942391872">
        <ele>426.92</ele>
        <time>2024-12-29T16:36:05.574Z</time>
      </trkpt>
      <trkpt lat="50.00458996742964" lon="6.0060199443250895">
        <ele>426.58</ele>
        <time>2024-12-29T16:36:19.681Z</time>
      </trkpt>
      <trkpt lat="50.004606982693076" lon="6.006107954308391">
        <ele>426.2</ele>
        <time>2024-12-29T16:36:33.796Z</time>
      </trkpt>
      <trkpt lat="50.00463891774416" lon="6.006504921242595">
        <ele>425.81</ele>
        <time>2024-12-29T16:36:47.945Z</time>
      </trkpt>
      <trkpt lat="50.00470496714115" lon="6.006764927878976">
        <ele>425.35</ele>
        <time>2024-12-29T16:37:02.118Z</time>
      </trkpt>
      <trkpt lat="50.00477998517454" lon="6.006969949230552">
        <ele>424.88</ele>
        <time>2024-12-29T16:37:16.312Z</time>
      </trkpt>
      <trkpt lat="50.004843939095736" lon="6.007143957540393">
        <ele>424.36</ele>
        <time>2024-12-29T16:37:30.523Z</time>
      </trkpt>
      <trkpt lat="50.0049561727792" lon="6.007369346916676">
        <ele>423.8</ele>
        <time>2024-12-29T16:37:44.758Z</time>
      </trkpt>
      <trkpt lat="50.00506798736751" lon="6.007593981921673">
        <ele>423.23</ele>
        <time>2024-12-29T16:37:59.018Z</time>
      </trkpt>
      <trkpt lat="50.00521693378687" lon="6.00795297883451">
        <ele>422.66</ele>
        <time>2024-12-29T16:38:13.314Z</time>
      </trkpt>
      <trkpt lat="50.00531894154847" lon="6.008169986307621">
        <ele>422.08</ele>
        <time>2024-12-29T16:38:27.634Z</time>
      </trkpt>
      <trkpt lat="50.00546872615814" lon="6.008428819477558">
        <ele>421.48</ele>
        <time>2024-12-29T16:38:41.983Z</time>
      </trkpt>
      <trkpt lat="50.005617924034595" lon="6.0086869820952415">
        <ele>420.82</ele>
        <time>2024-12-29T16:38:56.362Z</time>
      </trkpt>
      <trkpt lat="50.00578899867833" lon="6.009088978171349">
        <ele>420.12</ele>
        <time>2024-12-29T16:39:10.783Z</time>
      </trkpt>
      <trkpt lat="50.00587063841522" lon="6.00932895205915">
        <ele>419.5</ele>
        <time>2024-12-29T16:39:25.227Z</time>
      </trkpt>
      <trkpt lat="50.00595194287598" lon="6.00956792011857">
        <ele>418.87</ele>
        <time>2024-12-29T16:39:39.694Z</time>
      </trkpt>
      <trkpt lat="50.0059749931097" lon="6.009674957022071">
        <ele>418.25</ele>
        <time>2024-12-29T16:39:54.171Z</time>
      </trkpt>
      <trkpt lat="50.00602092593908" lon="6.009877966716886">
        <ele>417.63</ele>
        <time>2024-12-29T16:40:08.667Z</time>
      </trkpt>
      <trkpt lat="50.00609116628766" lon="6.010302593931556">
        <ele>416.96</ele>
        <time>2024-12-29T16:40:23.200Z</time>
      </trkpt>
      <trkpt lat="50.00616098754108" lon="6.01072495803237">
        <ele>416.28</ele>
        <time>2024-12-29T16:40:37.771Z</time>
      </trkpt>
      <trkpt lat="50.00626266002655" lon="6.011018576100469">
        <ele>415.6</ele>
        <time>2024-12-29T16:40:52.370Z</time>
      </trkpt>
      <trkpt lat="50.006363997235894" lon="6.011310936883092">
        <ele>415.06</ele>
        <time>2024-12-29T16:41:06.998Z</time>
      </trkpt>
      <trkpt lat="50.00644211657345" lon="6.011592652648687">
        <ele>414.63</ele>
        <time>2024-12-29T16:41:21.652Z</time>
      </trkpt>
      <trkpt lat="50.00651998445392" lon="6.011872943490744">
        <ele>414.32</ele>
        <time>2024-12-29T16:41:36.333Z</time>
      </trkpt>
      <trkpt lat="50.00662769190967" lon="6.012093890458345">
        <ele>414.08</ele>
        <time>2024-12-29T16:41:51.037Z</time>
      </trkpt>
      <trkpt lat="50.00673498027027" lon="6.01231399923563">
        <ele>413.94</ele>
        <time>2024-12-29T16:42:05.765Z</time>
      </trkpt>
      <trkpt lat="50.006858948618174" lon="6.012664949521422">
        <ele>413.83</ele>
        <time>2024-12-29T16:42:20.528Z</time>
      </trkpt>
      <trkpt lat="50.00693413428962" lon="6.012919507920742">
        <ele>413.82</ele>
        <time>2024-12-29T16:42:35.315Z</time>
      </trkpt>
      <trkpt lat="50.007008984684944" lon="6.013172976672649">
        <ele>413.88</ele>
        <time>2024-12-29T16:42:50.126Z</time>
      </trkpt>
      <trkpt lat="50.00710898078978" lon="6.013571955263615">
        <ele>414.0</ele>
        <time>2024-12-29T16:43:04.974Z</time>
      </trkpt>
      <trkpt lat="50.007136976346374" lon="6.013817964121699">
        <ele>414.13</ele>
        <time>2024-12-29T16:43:19.843Z</time>
      </trkpt>
      <trkpt lat="50.00715097412467" lon="6.014061961323023">
        <ele>414.34</ele>
        <time>2024-12-29T16:43:34.733Z</time>
      </trkpt>
      <trkpt lat="50.007334956899285" lon="6.013942938297987">
        <ele>414.8</ele>
        <time>2024-12-29T16:43:49.650Z</time>
      </trkpt>
      <trkpt lat="50.007439982146025" lon="6.01390496827662">
        <ele>415.26</ele>
        <time>2024-12-29T16:44:04.581Z</time>
      </trkpt>
      <trkpt lat="50.007573924958706" lon="6.0139059741050005">
        <ele>415.75</ele>
        <time>2024-12-29T16:44:19.530Z</time>
      </trkpt>
      <trkpt lat="50.00781792216003" lon="6.013975962996483">
        <ele>416.35</ele>
        <time>2024-12-29T16:44:34.512Z</time>
      </trkpt>
      <trkpt lat="50.00791992992163" lon="6.014024997130036">
        <ele>416.98</ele>
        <time>2024-12-29T16:44:49.508Z</time>
      </trkpt>
      <trkpt lat="50.00813693739474" lon="6.014088951051235">
        <ele>417.69</ele>
        <time>2024-12-29T16:45:04.534Z</time>
      </trkpt>
      <trkpt lat="50.008262917399406" lon="6.014088951051235">
        <ele>418.36</ele>
        <time>2024-12-29T16:45:19.577Z</time>
      </trkpt>
      <trkpt lat="50.008405996486545" lon="6.014061961323023">
        <ele>419.02</ele>
        <time>2024-12-29T16:45:34.639Z</time>
      </trkpt>
      <trkpt lat="50.00850993208587" lon="6.014078976586461">
        <ele>419.67</ele>
        <time>2024-12-29T16:45:49.715Z</time>
      </trkpt>
      <trkpt lat="50.00871998257935" lon="6.0141589399427176">
        <ele>420.26</ele>
        <time>2024-12-29T16:46:04.820Z</time>
      </trkpt>
      <trkpt lat="50.00883196480572" lon="6.014150977134705">
        <ele>420.88</ele>
        <time>2024-12-29T16:46:19.940Z</time>
      </trkpt>
      <trkpt lat="50.008927937597036" lon="6.014118958264589">
        <ele>421.44</ele>
        <time>2024-12-29T16:46:35.073Z</time>
      </trkpt>
      <trkpt lat="50.00904394313693" lon="6.0141589399427176">
        <ele>421.94</ele>
        <time>2024-12-29T16:46:50.222Z</time>
      </trkpt>
      <trkpt lat="50.00919196754694" lon="6.014260947704315">
        <ele>422.42</ele>
        <time>2024-12-29T16:47:05.392Z</time>
      </trkpt>
      <trkpt lat="50.00931593589485" lon="6.014265976846218">
        <ele>422.76</ele>
        <time>2024-12-29T16:47:20.579Z</time>
      </trkpt>
      <trkpt lat="50.00949296168983" lon="6.014256924390793">
        <ele>422.97</ele>
        <time>2024-12-29T16:47:35.789Z</time>
      </trkpt>
      <trkpt lat="50.00969194807112" lon="6.01422599516809">
        <ele>423.0</ele>
        <time>2024-12-29T16:47:51.026Z</time>
      </trkpt>
      <trkpt lat="50.009890515357256" lon="6.014177463948727">
        <ele>422.89</ele>
        <time>2024-12-29T16:48:06.290Z</time>
      </trkpt>
      <trkpt lat="50.01008899882436" lon="6.014128932729363">
        <ele>422.63</ele>
        <time>2024-12-29T16:48:21.581Z</time>
      </trkpt>
      <trkpt lat="50.01031598076224" lon="6.014091968536377">
        <ele>422.11</ele>
        <time>2024-12-29T16:48:36.902Z</time>
      </trkpt>
      <trkpt lat="50.0104839541018" lon="6.013981997966766">
        <ele>421.36</ele>
        <time>2024-12-29T16:48:52.248Z</time>
      </trkpt>
      <trkpt lat="50.01056794077158" lon="6.013987949118018">
        <ele>420.41</ele>
        <time>2024-12-29T16:49:07.605Z</time>
      </trkpt>
      <trkpt lat="50.01069794408977" lon="6.013828944414854">
        <ele>419.2</ele>
        <time>2024-12-29T16:49:22.984Z</time>
      </trkpt>
      <trkpt lat="50.01091570593417" lon="6.013583689928055">
        <ele>417.73</ele>
        <time>2024-12-29T16:49:38.399Z</time>
      </trkpt>
      <trkpt lat="50.01113296486437" lon="6.013338938355446">
        <ele>416.02</ele>
        <time>2024-12-29T16:49:53.850Z</time>
      </trkpt>
      <trkpt lat="50.011225920170546" lon="6.013255957514048">
        <ele>414.17</ele>
        <time>2024-12-29T16:50:09.315Z</time>
      </trkpt>
      <trkpt lat="50.01151895150542" lon="6.013323934748769">
        <ele>411.99</ele>
        <time>2024-12-29T16:50:24.820Z</time>
      </trkpt>
      <trkpt lat="50.01176797784865" lon="6.013287976384163">
        <ele>409.6</ele>
        <time>2024-12-29T16:50:40.358Z</time>
      </trkpt>
      <trkpt lat="50.0118759367615" lon="6.013189991936088">
        <ele>407.07</ele>
        <time>2024-12-29T16:50:55.913Z</time>
      </trkpt>
      <trkpt lat="50.01190694980323" lon="6.013150932267308">
        <ele>404.41</ele>
        <time>2024-12-29T16:51:11.473Z</time>
      </trkpt>
      <trkpt lat="50.01204399392009" lon="6.012907940894365">
        <ele>401.43</ele>
        <time>2024-12-29T16:51:27.061Z</time>
      </trkpt>
      <trkpt lat="50.01218028366566" lon="6.012551207095385">
        <ele>398.26</ele>
        <time>2024-12-29T16:51:42.684Z</time>
      </trkpt>
      <trkpt lat="50.012316489592195" lon="6.012194473296404">
        <ele>394.9</ele>
        <time>2024-12-29T16:51:58.343Z</time>
      </trkpt>
      <trkpt lat="50.01245194114745" lon="6.011839918792248">
        <ele>391.4</ele>
        <time>2024-12-29T16:52:14.037Z</time>
      </trkpt>
      <trkpt lat="50.01260499469936" lon="6.011543953791261">
        <ele>387.76</ele>
        <time>2024-12-29T16:52:29.764Z</time>
      </trkpt>
      <trkpt lat="50.012788977473974" lon="6.011344967409968">
        <ele>384.04</ele>
        <time>2024-12-29T16:52:45.521Z</time>
      </trkpt>
      <trkpt lat="50.01289961859584" lon="6.011136593297124">
        <ele>380.25</ele>
        <time>2024-12-29T16:53:01.301Z</time>
      </trkpt>
      <trkpt lat="50.013009924441576" lon="6.010928973555565">
        <ele>376.34</ele>
        <time>2024-12-29T16:53:17.104Z</time>
      </trkpt>
      <trkpt lat="50.013151075690985" lon="6.010767789557576">
        <ele>372.41</ele>
        <time>2024-12-29T16:53:32.931Z</time>
      </trkpt>
      <trkpt lat="50.0132919754833" lon="6.010606940835714">
        <ele>368.39</ele>
        <time>2024-12-29T16:53:48.781Z</time>
      </trkpt>
      <trkpt lat="50.01349976286292" lon="6.010426143184304">
        <ele>364.24</ele>
        <time>2024-12-29T16:54:04.663Z</time>
      </trkpt>
      <trkpt lat="50.01370755024254" lon="6.010245345532894">
        <ele>360.17</ele>
        <time>2024-12-29T16:54:20.577Z</time>
      </trkpt>
      <trkpt lat="50.01391491852701" lon="6.010064966976643">
        <ele>356.08</ele>
        <time>2024-12-29T16:54:36.522Z</time>
      </trkpt>
      <trkpt lat="50.014133686199784" lon="6.009970922023058">
        <ele>352.08</ele>
        <time>2024-12-29T16:54:52.498Z</time>
      </trkpt>
      <trkpt lat="50.01435237005353" lon="6.009876877069473">
        <ele>348.26</ele>
        <time>2024-12-29T16:55:08.504Z</time>
      </trkpt>
      <trkpt lat="50.014570550993085" lon="6.009783083572984">
        <ele>344.44</ele>
        <time>2024-12-29T16:55:24.540Z</time>
      </trkpt>
      <trkpt lat="50.01457097008824" lon="6.009782999753952">
        <ele>341.07</ele>
        <time>2024-12-29T16:55:40.576Z</time>
      </trkpt>
      <trkpt lat="50.014759646728635" lon="6.009571775794029">
        <ele>337.52</ele>
        <time>2024-12-29T16:55:56.643Z</time>
      </trkpt>
      <trkpt lat="50.0149479880929" lon="6.009360970929265">
        <ele>334.23</ele>
        <time>2024-12-29T16:56:12.741Z</time>
      </trkpt>
      <trkpt lat="50.01499593257904" lon="6.0093749687075615">
        <ele>331.41</ele>
        <time>2024-12-29T16:56:28.846Z</time>
      </trkpt>
      <trkpt lat="50.01521738246083" lon="6.009519388899207">
        <ele>328.86</ele>
        <time>2024-12-29T16:56:44.983Z</time>
      </trkpt>
      <trkpt lat="50.015438832342625" lon="6.009663725271821">
        <ele>326.58</ele>
        <time>2024-12-29T16:57:01.152Z</time>
      </trkpt>
      <trkpt lat="50.01565994694829" lon="6.009807977825403">
        <ele>324.37</ele>
        <time>2024-12-29T16:57:17.353Z</time>
      </trkpt>
      <trkpt lat="50.01583504490554" lon="6.009941501542926">
        <ele>322.38</ele>
        <time>2024-12-29T16:57:33.580Z</time>
      </trkpt>
      <trkpt lat="50.01600997522473" lon="6.010074941441417">
        <ele>320.63</ele>
        <time>2024-12-29T16:57:49.833Z</time>
      </trkpt>
      <trkpt lat="50.01608792692423" lon="6.010083993896842">
        <ele>319.14</ele>
        <time>2024-12-29T16:58:06.097Z</time>
      </trkpt>
      <trkpt lat="50.01613193191588" lon="6.009824993088841">
        <ele>317.77</ele>
        <time>2024-12-29T16:58:22.384Z</time>
      </trkpt>
      <trkpt lat="50.01617493107915" lon="6.00967395119369">
        <ele>316.82</ele>
        <time>2024-12-29T16:58:38.685Z</time>
      </trkpt>
      <trkpt lat="50.01619094051421" lon="6.009616954252124">
        <ele>316.24</ele>
        <time>2024-12-29T16:58:54.991Z</time>
      </trkpt>
      <trkpt lat="50.016269981861115" lon="6.009613936766982">
        <ele>315.94</ele>
        <time>2024-12-29T16:59:11.308Z</time>
      </trkpt>
      <trkpt lat="50.016358997672796" lon="6.00958694703877">
        <ele>315.94</ele>
        <time>2024-12-29T16:59:27.637Z</time>
      </trkpt>
      <trkpt lat="50.016420939937234" lon="6.009551994502544">
        <ele>316.22</ele>
        <time>2024-12-29T16:59:43.975Z</time>
      </trkpt>
      <trkpt lat="50.016483971849084" lon="6.009484939277172">
        <ele>316.76</ele>
        <time>2024-12-29T17:00:00.323Z</time>
      </trkpt>
      <trkpt lat="50.016593942418694" lon="6.009330963715911">
        <ele>317.61</ele>
        <time>2024-12-29T17:00:16.691Z</time>
      </trkpt>
      <trkpt lat="50.016713133081794" lon="6.009091576561332">
        <ele>318.79</ele>
        <time>2024-12-29T17:00:33.085Z</time>
      </trkpt>
      <trkpt lat="50.016831988468766" lon="6.008852943778038">
        <ele>320.19</ele>
        <time>2024-12-29T17:00:49.505Z</time>
      </trkpt>
      <trkpt lat="50.01695193350315" lon="6.009122924879193">
        <ele>321.82</ele>
        <time>2024-12-29T17:01:05.953Z</time>
      </trkpt>
      <trkpt lat="50.017006918787956" lon="6.009151926264167">
        <ele>323.53</ele>
        <time>2024-12-29T17:01:22.408Z</time>
      </trkpt>
      <trkpt lat="50.017067939043045" lon="6.009318977594376">
        <ele>325.4</ele>
        <time>2024-12-29T17:01:38.880Z</time>
      </trkpt>
      <trkpt lat="50.01712594181299" lon="6.009409921243787">
        <ele>327.38</ele>
        <time>2024-12-29T17:01:55.363Z</time>
      </trkpt>
      <trkpt lat="50.017192997038364" lon="6.0095619689673185">
        <ele>329.47</ele>
        <time>2024-12-29T17:02:11.862Z</time>
      </trkpt>
      <trkpt lat="50.01731595955789" lon="6.009770929813385">
        <ele>331.66</ele>
        <time>2024-12-29T17:02:28.385Z</time>
      </trkpt>
      <trkpt lat="50.01741796731949" lon="6.009879978373647">
        <ele>333.94</ele>
        <time>2024-12-29T17:02:44.925Z</time>
      </trkpt>
      <trkpt lat="50.017474964261055" lon="6.009985925629735">
        <ele>336.23</ele>
        <time>2024-12-29T17:03:01.477Z</time>
      </trkpt>
      <trkpt lat="50.01765199005604" lon="6.010196981951594">
        <ele>338.74</ele>
        <time>2024-12-29T17:03:18.058Z</time>
      </trkpt>
      <trkpt lat="50.01773991622031" lon="6.010250961408019">
        <ele>341.2</ele>
        <time>2024-12-29T17:03:34.652Z</time>
      </trkpt>
      <trkpt lat="50.01785499975085" lon="6.010387921705842">
        <ele>343.71</ele>
        <time>2024-12-29T17:03:51.265Z</time>
      </trkpt>
      <trkpt lat="50.017922976985574" lon="6.010432932525873">
        <ele>346.07</ele>
        <time>2024-12-29T17:04:07.888Z</time>
      </trkpt>
      <trkpt lat="50.01806597225368" lon="6.0105149913579226">
        <ele>348.49</ele>
        <time>2024-12-29T17:04:24.532Z</time>
      </trkpt>
      <trkpt lat="50.01814895309508" lon="6.010503927245736">
        <ele>350.77</ele>
        <time>2024-12-29T17:04:41.187Z</time>
      </trkpt>
      <trkpt lat="50.01814593560994" lon="6.010454976931214">
        <ele>352.81</ele>
        <time>2024-12-29T17:04:57.846Z</time>
      </trkpt>
      <trkpt lat="50.01814593560994" lon="6.010452965274453">
        <ele>354.76</ele>
        <time>2024-12-29T17:05:14.505Z</time>
      </trkpt>
      <trkpt lat="50.01813093200326" lon="6.010175943374634">
        <ele>356.61</ele>
        <time>2024-12-29T17:05:31.188Z</time>
      </trkpt>
      <trkpt lat="50.0180718395859" lon="6.009886180981994">
        <ele>358.25</ele>
        <time>2024-12-29T17:05:47.897Z</time>
      </trkpt>
      <trkpt lat="50.018012998625636" lon="6.009597927331924">
        <ele>359.91</ele>
        <time>2024-12-29T17:06:04.632Z</time>
      </trkpt>
      <trkpt lat="50.018008975312114" lon="6.009294921532273">
        <ele>361.55</ele>
        <time>2024-12-29T17:06:21.393Z</time>
      </trkpt>
      <trkpt lat="50.01812296919525" lon="6.009061988443136">
        <ele>363.26</ele>
        <time>2024-12-29T17:06:38.179Z</time>
      </trkpt>
      <trkpt lat="50.018205950036645" lon="6.009067939594388">
        <ele>365.02</ele>
        <time>2024-12-29T17:06:54.976Z</time>
      </trkpt>
      <trkpt lat="50.018354980275035" lon="6.009024940431118">
        <ele>366.75</ele>
        <time>2024-12-29T17:07:11.794Z</time>
      </trkpt>
      <trkpt lat="50.018402924761176" lon="6.009025946259499">
        <ele>368.4</ele>
        <time>2024-12-29T17:07:28.618Z</time>
      </trkpt>
      <trkpt lat="50.018439972773194" lon="6.00904899649322">
        <ele>370.05</ele>
        <time>2024-12-29T17:07:45.447Z</time>
      </trkpt>
      <trkpt lat="50.01840393058956" lon="6.0090819373726845">
        <ele>371.63</ele>
        <time>2024-12-29T17:08:02.282Z</time>
      </trkpt>
      <trkpt lat="50.01847098581493" lon="6.009155949577689">
        <ele>373.39</ele>
        <time>2024-12-29T17:08:19.128Z</time>
      </trkpt>
      <trkpt lat="50.0184999871999" lon="6.00924295373261">
        <ele>375.15</ele>
        <time>2024-12-29T17:08:35.982Z</time>
      </trkpt>
      <trkpt lat="50.0184259749949" lon="6.009294921532273">
        <ele>376.81</ele>
        <time>2024-12-29T17:08:52.847Z</time>
      </trkpt>
      <trkpt lat="50.0183739233762" lon="6.00935191847384">
        <ele>378.54</ele>
        <time>2024-12-29T17:09:09.721Z</time>
      </trkpt>
      <trkpt lat="50.01836596056819" lon="6.00939592346549">
        <ele>380.37</ele>
        <time>2024-12-29T17:09:26.599Z</time>
      </trkpt>
      <trkpt lat="50.01839395612478" lon="6.009474964812398">
        <ele>382.33</ele>
        <time>2024-12-29T17:09:43.484Z</time>
      </trkpt>
      <trkpt lat="50.01844692975283" lon="6.009555933997035">
        <ele>384.4</ele>
        <time>2024-12-29T17:10:00.379Z</time>
      </trkpt>
      <trkpt lat="50.01850292086601" lon="6.009602956473827">
        <ele>386.54</ele>
        <time>2024-12-29T17:10:17.283Z</time>
      </trkpt>
      <trkpt lat="50.018680952489376" lon="6.009964970871806">
        <ele>388.92</ele>
        <time>2024-12-29T17:10:34.226Z</time>
      </trkpt>
      <trkpt lat="50.01881699077785" lon="6.010290943086147">
        <ele>391.4</ele>
        <time>2024-12-29T17:10:51.202Z</time>
      </trkpt>
      <trkpt lat="50.01897222362459" lon="6.0105774365365505">
        <ele>394.0</ele>
        <time>2024-12-29T17:11:08.211Z</time>
      </trkpt>
      <trkpt lat="50.019126953557134" lon="6.010862924158573">
        <ele>396.65</ele>
        <time>2024-12-29T17:11:25.252Z</time>
      </trkpt>
      <trkpt lat="50.019193924963474" lon="6.010931991040707">
        <ele>399.19</ele>
        <time>2024-12-29T17:11:42.303Z</time>
      </trkpt>
      <trkpt lat="50.019256956875324" lon="6.010942971333861">
        <ele>401.76</ele>
        <time>2024-12-29T17:11:59.363Z</time>
      </trkpt>
      <trkpt lat="50.01939693465829" lon="6.011332981288433">
        <ele>404.44</ele>
        <time>2024-12-29T17:12:16.461Z</time>
      </trkpt>
      <trkpt lat="50.0195499882102" lon="6.011664988473058">
        <ele>407.08</ele>
        <time>2024-12-29T17:12:33.594Z</time>
      </trkpt>
      <trkpt lat="50.01967797987163" lon="6.011894987896085">
        <ele>409.91</ele>
        <time>2024-12-29T17:12:50.754Z</time>
      </trkpt>
      <trkpt lat="50.019901944324374" lon="6.012189947068691">
        <ele>412.98</ele>
        <time>2024-12-29T17:13:07.953Z</time>
      </trkpt>
      <trkpt lat="50.02008894458413" lon="6.012386921793222">
        <ele>415.92</ele>
        <time>2024-12-29T17:13:25.182Z</time>
      </trkpt>
      <trkpt lat="50.02024048939347" lon="6.012471495196223">
        <ele>418.85</ele>
        <time>2024-12-29T17:13:42.432Z</time>
      </trkpt>
      <trkpt lat="50.02039195038378" lon="6.012555984780192">
        <ele>421.8</ele>
        <time>2024-12-29T17:13:59.704Z</time>
      </trkpt>
      <trkpt lat="50.02047996036708" lon="6.012562941759825">
        <ele>424.63</ele>
        <time>2024-12-29T17:14:16.988Z</time>
      </trkpt>
      <trkpt lat="50.020589930936694" lon="6.0125309228897095">
        <ele>427.45</ele>
        <time>2024-12-29T17:14:34.287Z</time>
      </trkpt>
      <trkpt lat="50.02071792259812" lon="6.0125429928302765">
        <ele>430.2</ele>
        <time>2024-12-29T17:14:51.603Z</time>
      </trkpt>
      <trkpt lat="50.02087600529194" lon="6.012589428573847">
        <ele>432.85</ele>
        <time>2024-12-29T17:15:08.940Z</time>
      </trkpt>
      <trkpt lat="50.02103392034769" lon="6.012635948136449">
        <ele>435.47</ele>
        <time>2024-12-29T17:15:26.299Z</time>
      </trkpt>
      <trkpt lat="50.02129292115569" lon="6.0126439947634935">
        <ele>438.13</ele>
        <time>2024-12-29T17:15:43.692Z</time>
      </trkpt>
      <trkpt lat="50.02147992141545" lon="6.012629996985197">
        <ele>440.63</ele>
        <time>2024-12-29T17:16:01.110Z</time>
      </trkpt>
      <trkpt lat="50.021600956097245" lon="6.0126519575715065">
        <ele>443.03</ele>
        <time>2024-12-29T17:16:18.544Z</time>
      </trkpt>
      <trkpt lat="50.021750992164016" lon="6.012708954513073">
        <ele>445.37</ele>
        <time>2024-12-29T17:16:35.999Z</time>
      </trkpt>
      <trkpt lat="50.021919971331954" lon="6.012798473238945">
        <ele>447.63</ele>
        <time>2024-12-29T17:16:53.478Z</time>
      </trkpt>
      <trkpt lat="50.02208895049989" lon="6.012887991964817">
        <ele>449.78</ele>
        <time>2024-12-29T17:17:10.981Z</time>
      </trkpt>
      <trkpt lat="50.02228299155831" lon="6.012908946722746">
        <ele>451.78</ele>
        <time>2024-12-29T17:17:28.510Z</time>
      </trkpt>
      <trkpt lat="50.02242397516966" lon="6.012966949492693">
        <ele>453.66</ele>
        <time>2024-12-29T17:17:46.058Z</time>
      </trkpt>
      <trkpt lat="50.02251491881907" lon="6.012966949492693">
        <ele>455.39</ele>
        <time>2024-12-29T17:18:03.618Z</time>
      </trkpt>
      <trkpt lat="50.02265699207783" lon="6.012923950329423">
        <ele>456.99</ele>
        <time>2024-12-29T17:18:21.198Z</time>
      </trkpt>
      <trkpt lat="50.022758999839425" lon="6.012905929237604">
        <ele>458.49</ele>
        <time>2024-12-29T17:18:38.791Z</time>
      </trkpt>
      <trkpt lat="50.023020934313536" lon="6.012979941442609">
        <ele>459.96</ele>
        <time>2024-12-29T17:18:56.420Z</time>
      </trkpt>
      <trkpt lat="50.023193936794996" lon="6.013082955032587">
        <ele>461.22</ele>
        <time>2024-12-29T17:19:14.074Z</time>
      </trkpt>
      <trkpt lat="50.02350197173655" lon="6.0131399519741535">
        <ele>462.45</ele>
        <time>2024-12-29T17:19:31.769Z</time>
      </trkpt>
      <trkpt lat="50.02375653013587" lon="6.013257969170809">
        <ele>463.49</ele>
        <time>2024-12-29T17:19:49.499Z</time>
      </trkpt>
      <trkpt lat="50.024010920897126" lon="6.013375986367464">
        <ele>464.41</ele>
        <time>2024-12-29T17:20:07.265Z</time>
      </trkpt>
      <trkpt lat="50.02427997998893" lon="6.013439940288663">
        <ele>465.21</ele>
        <time>2024-12-29T17:20:25.067Z</time>
      </trkpt>
      <trkpt lat="50.024476954713464" lon="6.013435916975141">
        <ele>465.75</ele>
        <time>2024-12-29T17:20:42.896Z</time>
      </trkpt>
      <trkpt lat="50.024673929437995" lon="6.01343197748065">
        <ele>466.17</ele>
        <time>2024-12-29T17:21:00.751Z</time>
      </trkpt>
      <trkpt lat="50.024865958839655" lon="6.013370957225561">
        <ele>466.45</ele>
        <time>2024-12-29T17:21:18.632Z</time>
      </trkpt>
      <trkpt lat="50.024996967986226" lon="6.013383949175477">
        <ele>466.62</ele>
        <time>2024-12-29T17:21:36.531Z</time>
      </trkpt>
      <trkpt lat="50.02519050613046" lon="6.013473970815539">
        <ele>466.71</ele>
        <time>2024-12-29T17:21:54.456Z</time>
      </trkpt>
      <trkpt lat="50.025383960455656" lon="6.013563992455602">
        <ele>466.68</ele>
        <time>2024-12-29T17:22:12.408Z</time>
      </trkpt>
      <trkpt lat="50.02565595321357" lon="6.013656947761774">
        <ele>466.56</ele>
        <time>2024-12-29T17:22:30.398Z</time>
      </trkpt>
      <trkpt lat="50.02580791711807" lon="6.013665916398168">
        <ele>466.29</ele>
        <time>2024-12-29T17:22:48.408Z</time>
      </trkpt>
      <trkpt lat="50.02580598928034" lon="6.013665916398168">
        <ele>466.04</ele>
        <time>2024-12-29T17:23:06.418Z</time>
      </trkpt>
      <trkpt lat="50.02588394097984" lon="6.0136709455400705">
        <ele>465.7</ele>
        <time>2024-12-29T17:23:24.439Z</time>
      </trkpt>
      <trkpt lat="50.02616096287966" lon="6.013648984953761">
        <ele>465.2</ele>
        <time>2024-12-29T17:23:42.497Z</time>
      </trkpt>
      <trkpt lat="50.02633899450302" lon="6.013683937489986">
        <ele>464.7</ele>
        <time>2024-12-29T17:24:00.579Z</time>
      </trkpt>
      <trkpt lat="50.026583997532725" lon="6.013793991878629">
        <ele>464.2</ele>
        <time>2024-12-29T17:24:18.695Z</time>
      </trkpt>
      <trkpt lat="50.026736967265606" lon="6.0138429421931505">
        <ele>463.89</ele>
        <time>2024-12-29T17:24:36.831Z</time>
      </trkpt>
      <trkpt lat="50.02697593532503" lon="6.013820478692651">
        <ele>463.69</ele>
        <time>2024-12-29T17:24:54.999Z</time>
      </trkpt>
      <trkpt lat="50.02721498720348" lon="6.013797931373119">
        <ele>463.57</ele>
        <time>2024-12-29T17:25:13.199Z</time>
      </trkpt>
      <trkpt lat="50.02731196582317" lon="6.0137849394232035">
        <ele>463.43</ele>
        <time>2024-12-29T17:25:31.412Z</time>
      </trkpt>
      <trkpt lat="50.02743693999946" lon="6.013679997995496">
        <ele>463.4</ele>
        <time>2024-12-29T17:25:49.644Z</time>
      </trkpt>
      <trkpt lat="50.02762192860246" lon="6.013588970527053">
        <ele>463.4</ele>
        <time>2024-12-29T17:26:07.902Z</time>
      </trkpt>
      <trkpt lat="50.02781806513667" lon="6.013429882004857">
        <ele>463.47</ele>
        <time>2024-12-29T17:26:26.190Z</time>
      </trkpt>
      <trkpt lat="50.02801395021379" lon="6.013270961120725">
        <ele>463.6</ele>
        <time>2024-12-29T17:26:44.507Z</time>
      </trkpt>
      <trkpt lat="50.028113946318626" lon="6.013134922832251">
        <ele>463.81</ele>
        <time>2024-12-29T17:27:02.842Z</time>
      </trkpt>
      <trkpt lat="50.02827295102179" lon="6.012993939220905">
        <ele>464.07</ele>
        <time>2024-12-29T17:27:21.201Z</time>
      </trkpt>
      <trkpt lat="50.028360122814775" lon="6.0126949567347765">
        <ele>464.38</ele>
        <time>2024-12-29T17:27:39.589Z</time>
      </trkpt>
      <trkpt lat="50.02844737842679" lon="6.012395890429616">
        <ele>464.69</ele>
        <time>2024-12-29T17:27:58.005Z</time>
      </trkpt>
      <trkpt lat="50.02853396348655" lon="6.012098919600248">
        <ele>464.92</ele>
        <time>2024-12-29T17:28:16.449Z</time>
      </trkpt>
      <trkpt lat="50.02870495431125" lon="6.012098919600248">
        <ele>465.35</ele>
        <time>2024-12-29T17:28:34.916Z</time>
      </trkpt>
      <trkpt lat="50.0289199501276" lon="6.012340988963842">
        <ele>465.9</ele>
        <time>2024-12-29T17:28:53.418Z</time>
      </trkpt>
      <trkpt lat="50.029119942337275" lon="6.012490941211581">
        <ele>466.43</ele>
        <time>2024-12-29T17:29:11.950Z</time>
      </trkpt>
      <trkpt lat="50.02919697202742" lon="6.012577945366502">
        <ele>467.04</ele>
        <time>2024-12-29T17:29:30.495Z</time>
      </trkpt>
      <trkpt lat="50.029302164912224" lon="6.012853039428592">
        <ele>467.71</ele>
        <time>2024-12-29T17:29:49.067Z</time>
      </trkpt>
      <trkpt lat="50.02940693870187" lon="6.013126960024238">
        <ele>468.34</ele>
        <time>2024-12-29T17:30:07.666Z</time>
      </trkpt>
      <trkpt lat="50.029441975057125" lon="6.013203989714384">
        <ele>468.97</ele>
        <time>2024-12-29T17:30:26.274Z</time>
      </trkpt>
      <trkpt lat="50.029589999467134" lon="6.013337932527065">
        <ele>469.63</ele>
        <time>2024-12-29T17:30:44.904Z</time>
      </trkpt>
      <trkpt lat="50.029730731621385" lon="6.013613445684314">
        <ele>470.23</ele>
        <time>2024-12-29T17:31:03.565Z</time>
      </trkpt>
      <trkpt lat="50.029870960861444" lon="6.013887953013182">
        <ele>470.8</ele>
        <time>2024-12-29T17:31:22.256Z</time>
      </trkpt>
      <trkpt lat="50.03000699914992" lon="6.014195987954736">
        <ele>471.29</ele>
        <time>2024-12-29T17:31:40.979Z</time>
      </trkpt>
      <trkpt lat="50.03010397776961" lon="6.01452698931098">
        <ele>471.75</ele>
        <time>2024-12-29T17:31:59.733Z</time>
      </trkpt>
      <trkpt lat="50.030151922255754" lon="6.014847932383418">
        <ele>472.22</ele>
        <time>2024-12-29T17:32:18.515Z</time>
      </trkpt>
      <trkpt lat="50.03026499412954" lon="6.015230985358357">
        <ele>472.56</ele>
        <time>2024-12-29T17:32:37.334Z</time>
      </trkpt>
      <trkpt lat="50.03036918118596" lon="6.015649326145649">
        <ele>472.73</ele>
        <time>2024-12-29T17:32:56.191Z</time>
      </trkpt>
      <trkpt lat="50.030473452061415" lon="6.0160676669329405">
        <ele>472.75</ele>
        <time>2024-12-29T17:33:15.087Z</time>
      </trkpt>
      <trkpt lat="50.03057772293687" lon="6.016486007720232">
        <ele>472.62</ele>
        <time>2024-12-29T17:33:34.021Z</time>
      </trkpt>
      <trkpt lat="50.030668498948216" lon="6.0168504528701305">
        <ele>472.24</ele>
        <time>2024-12-29T17:33:52.989Z</time>
      </trkpt>
      <trkpt lat="50.03068199381232" lon="6.0169043485075235">
        <ele>471.58</ele>
        <time>2024-12-29T17:34:11.962Z</time>
      </trkpt>
      <trkpt lat="50.03078626468778" lon="6.017322689294815">
        <ele>470.75</ele>
        <time>2024-12-29T17:34:30.974Z</time>
      </trkpt>
      <trkpt lat="50.03088894300163" lon="6.017734995111823">
        <ele>469.68</ele>
        <time>2024-12-29T17:34:50.024Z</time>
      </trkpt>
      <trkpt lat="50.031009977683425" lon="6.018108995631337">
        <ele>468.35</ele>
        <time>2024-12-29T17:35:09.110Z</time>
      </trkpt>
      <trkpt lat="50.03113495185971" lon="6.018493976444006">
        <ele>466.72</ele>
        <time>2024-12-29T17:35:28.233Z</time>
      </trkpt>
      <trkpt lat="50.03120762296021" lon="6.018800251185894">
        <ele>464.85</ele>
        <time>2024-12-29T17:35:47.384Z</time>
      </trkpt>
      <trkpt lat="50.03127995878458" lon="6.0191049333661795">
        <ele>462.66</ele>
        <time>2024-12-29T17:36:06.563Z</time>
      </trkpt>
      <trkpt lat="50.03137215971947" lon="6.019387571141124">
        <ele>460.15</ele>
        <time>2024-12-29T17:36:25.769Z</time>
      </trkpt>
      <trkpt lat="50.031463941559196" lon="6.019668951630592">
        <ele>457.42</ele>
        <time>2024-12-29T17:36:45.002Z</time>
      </trkpt>
      <trkpt lat="50.0316502712667" lon="6.020043957978487">
        <ele>454.18</ele>
        <time>2024-12-29T17:37:04.276Z</time>
      </trkpt>
      <trkpt lat="50.0318366009742" lon="6.020418964326382">
        <ele>450.71</ele>
        <time>2024-12-29T17:37:23.590Z</time>
      </trkpt>
      <trkpt lat="50.032021924853325" lon="6.020791959017515">
        <ele>447.4</ele>
        <time>2024-12-29T17:37:42.945Z</time>
      </trkpt>
      <trkpt lat="50.0320749823004" lon="6.021145926788449">
        <ele>444.12</ele>
        <time>2024-12-29T17:38:02.331Z</time>
      </trkpt>
      <trkpt lat="50.03216399811208" lon="6.0213699750602245">
        <ele>440.8</ele>
        <time>2024-12-29T17:38:21.740Z</time>
      </trkpt>
      <trkpt lat="50.03230397589505" lon="6.021470976993442">
        <ele>437.49</ele>
        <time>2024-12-29T17:38:41.169Z</time>
      </trkpt>
      <trkpt lat="50.032474463805556" lon="6.0215384513139725">
        <ele>434.25</ele>
        <time>2024-12-29T17:39:00.622Z</time>
      </trkpt>
      <trkpt lat="50.032644951716065" lon="6.021605925634503">
        <ele>431.06</ele>
        <time>2024-12-29T17:39:20.098Z</time>
      </trkpt>
      <trkpt lat="50.03290495835245" lon="6.02162092924118">
        <ele>427.95</ele>
        <time>2024-12-29T17:39:39.609Z</time>
      </trkpt>
      <trkpt lat="50.03312749788165" lon="6.021618498489261">
        <ele>424.67</ele>
        <time>2024-12-29T17:39:59.150Z</time>
      </trkpt>
      <trkpt lat="50.033349953591824" lon="6.021615983918309">
        <ele>421.47</ele>
        <time>2024-12-29T17:40:18.720Z</time>
      </trkpt>
      <trkpt lat="50.03348892554641" lon="6.021586982533336">
        <ele>418.52</ele>
        <time>2024-12-29T17:40:38.309Z</time>
      </trkpt>
      <trkpt lat="50.03370995633304" lon="6.021513976156712">
        <ele>415.76</ele>
        <time>2024-12-29T17:40:57.928Z</time>
      </trkpt>
      <trkpt lat="50.03379193134606" lon="6.021545995026827">
        <ele>413.36</ele>
        <time>2024-12-29T17:41:17.559Z</time>
      </trkpt>
      <trkpt lat="50.03395898267627" lon="6.021731989458203">
        <ele>411.14</ele>
        <time>2024-12-29T17:41:37.217Z</time>
      </trkpt>
      <trkpt lat="50.034020924940705" lon="6.021849922835827">
        <ele>409.28</ele>
        <time>2024-12-29T17:41:56.888Z</time>
      </trkpt>
      <trkpt lat="50.03409996628761" lon="6.021934999153018">
        <ele>407.71</ele>
        <time>2024-12-29T17:42:16.572Z</time>
      </trkpt>
      <trkpt lat="50.03422192297876" lon="6.0220069997012615">
        <ele>406.43</ele>
        <time>2024-12-29T17:42:36.273Z</time>
      </trkpt>
      <trkpt lat="50.03440950997174" lon="6.02213297970593">
        <ele>405.45</ele>
        <time>2024-12-29T17:42:56.002Z</time>
      </trkpt>
      <trkpt lat="50.03459692932665" lon="6.022258959710598">
        <ele>404.82</ele>
        <time>2024-12-29T17:43:15.758Z</time>
      </trkpt>
      <trkpt lat="50.03475995734334" lon="6.022316962480545">
        <ele>404.64</ele>
        <time>2024-12-29T17:43:35.536Z</time>
      </trkpt>
      <trkpt lat="50.034922985360026" lon="6.022374965250492">
        <ele>404.81</ele>
        <time>2024-12-29T17:43:55.337Z</time>
      </trkpt>
      <trkpt lat="50.03508349880576" lon="6.0224089957773685">
        <ele>405.33</ele>
        <time>2024-12-29T17:44:15.159Z</time>
      </trkpt>
      <trkpt lat="50.035243928432465" lon="6.022442942485213">
        <ele>406.2</ele>
        <time>2024-12-29T17:44:35.003Z</time>
      </trkpt>
      <trkpt lat="50.03549647517502" lon="6.022449480369687">
        <ele>407.45</ele>
        <time>2024-12-29T17:44:54.881Z</time>
      </trkpt>
      <trkpt lat="50.03574893809855" lon="6.022455934435129">
        <ele>408.95</ele>
        <time>2024-12-29T17:45:14.792Z</time>
      </trkpt>
      <trkpt lat="50.035866955295205" lon="6.022498933598399">
        <ele>410.79</ele>
        <time>2024-12-29T17:45:34.719Z</time>
      </trkpt>
      <trkpt lat="50.03592294640839" lon="6.022497927770019">
        <ele>412.86</ele>
        <time>2024-12-29T17:45:54.654Z</time>
      </trkpt>
      <trkpt lat="50.03606795333326" lon="6.022590966895223">
        <ele>415.32</ele>
        <time>2024-12-29T17:46:14.610Z</time>
      </trkpt>
      <trkpt lat="50.03628596663475" lon="6.022764975205064">
        <ele>418.15</ele>
        <time>2024-12-29T17:46:34.599Z</time>
      </trkpt>
      <trkpt lat="50.03646098077297" lon="6.022960944101214">
        <ele>421.17</ele>
        <time>2024-12-29T17:46:54.616Z</time>
      </trkpt>
      <trkpt lat="50.03667480312288" lon="6.023218268528581">
        <ele>424.4</ele>
        <time>2024-12-29T17:47:14.669Z</time>
      </trkpt>
      <trkpt lat="50.03667522221804" lon="6.023218771442771">
        <ele>427.4</ele>
        <time>2024-12-29T17:47:34.723Z</time>
      </trkpt>
      <trkpt lat="50.03688896074891" lon="6.023475928232074">
        <ele>430.84</ele>
        <time>2024-12-29T17:47:54.813Z</time>
      </trkpt>
      <trkpt lat="50.03710253164172" lon="6.023706179112196">
        <ele>434.31</ele>
        <time>2024-12-29T17:48:14.937Z</time>
      </trkpt>
      <trkpt lat="50.0373160187155" lon="6.023936346173286">
        <ele>437.74</ele>
        <time>2024-12-29T17:48:35.096Z</time>
      </trkpt>
      <trkpt lat="50.03752891905606" lon="6.024165926501155">
        <ele>441.1</ele>
        <time>2024-12-29T17:48:55.290Z</time>
      </trkpt>
      <trkpt lat="50.03770594485104" lon="6.024410929530859">
        <ele>444.32</ele>
        <time>2024-12-29T17:49:15.515Z</time>
      </trkpt>
      <trkpt lat="50.037952959537506" lon="6.024635983631015">
        <ele>447.44</ele>
        <time>2024-12-29T17:49:35.779Z</time>
      </trkpt>
      <trkpt lat="50.03808991983533" lon="6.024788953363895">
        <ele>450.46</ele>
        <time>2024-12-29T17:49:56.065Z</time>
      </trkpt>
      <trkpt lat="50.03825596533716" lon="6.024812925606966">
        <ele>453.38</ele>
        <time>2024-12-29T17:50:16.373Z</time>
      </trkpt>
      <trkpt lat="50.03851999528706" lon="6.024843938648701">
        <ele>456.27</ele>
        <time>2024-12-29T17:50:36.717Z</time>
      </trkpt>
      <trkpt lat="50.03862393088639" lon="6.024871934205294">
        <ele>458.81</ele>
        <time>2024-12-29T17:50:57.075Z</time>
      </trkpt>
      <trkpt lat="50.03877799026668" lon="6.0250149294734">
        <ele>461.23</ele>
        <time>2024-12-29T17:51:17.457Z</time>
      </trkpt>
      <trkpt lat="50.03895493224263" lon="6.025116937234998">
        <ele>463.39</ele>
        <time>2024-12-29T17:51:37.864Z</time>
      </trkpt>
      <trkpt lat="50.0390499830246" lon="6.025189943611622">
        <ele>465.32</ele>
        <time>2024-12-29T17:51:58.285Z</time>
      </trkpt>
      <trkpt lat="50.03923539072275" lon="6.025421703234315">
        <ele>467.12</ele>
        <time>2024-12-29T17:52:18.738Z</time>
      </trkpt>
      <trkpt lat="50.03942088223994" lon="6.025653462857008">
        <ele>468.7</ele>
        <time>2024-12-29T17:52:39.223Z</time>
      </trkpt>
      <trkpt lat="50.03960628993809" lon="6.025885222479701">
        <ele>470.04</ele>
        <time>2024-12-29T17:52:59.739Z</time>
      </trkpt>
      <trkpt lat="50.03979094326496" lon="6.0261159762740135">
        <ele>471.1</ele>
        <time>2024-12-29T17:53:20.287Z</time>
      </trkpt>
      <trkpt lat="50.0399459246546" lon="6.026257965713739">
        <ele>471.93</ele>
        <time>2024-12-29T17:53:40.859Z</time>
      </trkpt>
      <trkpt lat="50.04011197015643" lon="6.026347987353802">
        <ele>472.51</ele>
        <time>2024-12-29T17:54:01.454Z</time>
      </trkpt>
      <trkpt lat="50.04023593850434" lon="6.026384951546788">
        <ele>472.97</ele>
        <time>2024-12-29T17:54:22.066Z</time>
      </trkpt>
      <trkpt lat="50.04048144444823" lon="6.026414455845952">
        <ele>473.09</ele>
        <time>2024-12-29T17:54:42.711Z</time>
      </trkpt>
      <trkpt lat="50.04072695039213" lon="6.026443960145116">
        <ele>473.23</ele>
        <time>2024-12-29T17:55:03.389Z</time>
      </trkpt>
      <trkpt lat="50.04092794843018" lon="6.026526940986514">
        <ele>473.36</ele>
        <time>2024-12-29T17:55:24.095Z</time>
      </trkpt>
      <trkpt lat="50.041191978380084" lon="6.026609921827912">
        <ele>473.31</ele>
        <time>2024-12-29T17:55:44.837Z</time>
      </trkpt>
      <trkpt lat="50.04143899306655" lon="6.026734979823232">
        <ele>473.3</ele>
        <time>2024-12-29T17:56:05.613Z</time>
      </trkpt>
      <trkpt lat="50.04168592393398" lon="6.027004960924387">
        <ele>473.42</ele>
        <time>2024-12-29T17:56:26.430Z</time>
      </trkpt>
      <trkpt lat="50.041939141228795" lon="6.027221130207181">
        <ele>473.27</ele>
        <time>2024-12-29T17:56:47.285Z</time>
      </trkpt>
      <trkpt lat="50.042192274704576" lon="6.027437215670943">
        <ele>473.08</ele>
        <time>2024-12-29T17:57:08.179Z</time>
      </trkpt>
      <trkpt lat="50.042255222797394" lon="6.027490943670273">
        <ele>473.0</ele>
        <time>2024-12-29T17:57:29.082Z</time>
      </trkpt>
      <trkpt lat="50.0424449890852" lon="6.027652965858579">
        <ele>472.94</ele>
        <time>2024-12-29T17:57:50.014Z</time>
      </trkpt>
      <trkpt lat="50.04268001765013" lon="6.027749441564083">
        <ele>472.95</ele>
        <time>2024-12-29T17:58:10.979Z</time>
      </trkpt>
      <trkpt lat="50.042914962396026" lon="6.0278459172695875">
        <ele>473.12</ele>
        <time>2024-12-29T17:58:31.976Z</time>
      </trkpt>
      <trkpt lat="50.043085953220725" lon="6.027946919202805">
        <ele>473.22</ele>
        <time>2024-12-29T17:58:52.998Z</time>
      </trkpt>
      <trkpt lat="50.04331796430051" lon="6.028099972754717">
        <ele>473.35</ele>
        <time>2024-12-29T17:59:14.053Z</time>
      </trkpt>
      <trkpt lat="50.04349599592388" lon="6.028187982738018">
        <ele>473.47</ele>
        <time>2024-12-29T17:59:35.133Z</time>
      </trkpt>
      <trkpt lat="50.04373546689749" lon="6.0282679460942745">
        <ele>473.73</ele>
        <time>2024-12-29T17:59:56.246Z</time>
      </trkpt>
      <trkpt lat="50.0439749378711" lon="6.028347993269563">
        <ele>473.99</ele>
        <time>2024-12-29T18:00:17.392Z</time>
      </trkpt>
      <trkpt lat="50.044180965051055" lon="6.028314968571067">
        <ele>474.14</ele>
        <time>2024-12-29T18:00:38.565Z</time>
      </trkpt>
      <trkpt lat="50.04429697059095" lon="6.028271969407797">
        <ele>474.28</ele>
        <time>2024-12-29T18:00:59.754Z</time>
      </trkpt>
      <trkpt lat="50.04438992589712" lon="6.0282529424875975">
        <ele>474.33</ele>
        <time>2024-12-29T18:01:20.956Z</time>
      </trkpt>
      <trkpt lat="50.044499980285764" lon="6.028245985507965">
        <ele>474.35</ele>
        <time>2024-12-29T18:01:42.172Z</time>
      </trkpt>
      <trkpt lat="50.0446604937315" lon="6.028255457058549">
        <ele>474.29</ele>
        <time>2024-12-29T18:02:03.410Z</time>
      </trkpt>
      <trkpt lat="50.0448209233582" lon="6.028264928609133">
        <ele>474.19</ele>
        <time>2024-12-29T18:02:24.669Z</time>
      </trkpt>
      <trkpt lat="50.04489694721997" lon="6.02823793888092">
        <ele>474.18</ele>
        <time>2024-12-29T18:02:45.939Z</time>
      </trkpt>
      <trkpt lat="50.04495092667639" lon="6.028199968859553">
        <ele>474.23</ele>
        <time>2024-12-29T18:03:07.217Z</time>
      </trkpt>
      <trkpt lat="50.04519794136286" lon="6.028060996904969">
        <ele>474.27</ele>
        <time>2024-12-29T18:03:28.530Z</time>
      </trkpt>
      <trkpt lat="50.04531595855951" lon="6.027972986921668">
        <ele>474.35</ele>
        <time>2024-12-29T18:03:49.860Z</time>
      </trkpt>
      <trkpt lat="50.045445961877704" lon="6.027897968888283">
        <ele>474.44</ele>
        <time>2024-12-29T18:04:11.209Z</time>
      </trkpt>
      <trkpt lat="50.04560999572277" lon="6.027856981381774">
        <ele>474.51</ele>
        <time>2024-12-29T18:04:32.580Z</time>
      </trkpt>
      <trkpt lat="50.04588894546032" lon="6.027815993875265">
        <ele>474.59</ele>
        <time>2024-12-29T18:04:53.988Z</time>
      </trkpt>
      <trkpt lat="50.04597997292876" lon="6.0278149880468845">
        <ele>474.57</ele>
        <time>2024-12-29T18:05:15.408Z</time>
      </trkpt>
      <trkpt lat="50.04610192961991" lon="6.027733935043216">
        <ele>474.59</ele>
        <time>2024-12-29T18:05:36.846Z</time>
      </trkpt>
      <trkpt lat="50.04632296040654" lon="6.0277139861136675">
        <ele>474.52</ele>
        <time>2024-12-29T18:05:58.314Z</time>
      </trkpt>
      <trkpt lat="50.046415999531746" lon="6.02769797667861">
        <ele>474.4</ele>
        <time>2024-12-29T18:06:19.794Z</time>
      </trkpt>
      <trkpt lat="50.04648791626096" lon="6.027668975293636">
        <ele>474.27</ele>
        <time>2024-12-29T18:06:41.284Z</time>
      </trkpt>
      <trkpt lat="50.04661297425628" lon="6.027666963636875">
        <ele>474.09</ele>
        <time>2024-12-29T18:07:02.791Z</time>
      </trkpt>
      <trkpt lat="50.04672495648265" lon="6.027680961415172">
        <ele>473.89</ele>
        <time>2024-12-29T18:07:24.313Z</time>
      </trkpt>
      <trkpt lat="50.04690097644925" lon="6.027656989172101">
        <ele>473.62</ele>
        <time>2024-12-29T18:07:45.858Z</time>
      </trkpt>
      <trkpt lat="50.04710792563856" lon="6.0275689791888">
        <ele>473.25</ele>
        <time>2024-12-29T18:08:07.432Z</time>
      </trkpt>
      <trkpt lat="50.04721999168396" lon="6.027492955327034">
        <ele>472.98</ele>
        <time>2024-12-29T18:08:29.022Z</time>
      </trkpt>
      <trkpt lat="50.047249998897314" lon="6.027472922578454">
        <ele>472.7</ele>
        <time>2024-12-29T18:08:50.617Z</time>
      </trkpt>
      <trkpt lat="50.04739894531667" lon="6.027519945055246">
        <ele>472.34</ele>
        <time>2024-12-29T18:09:12.232Z</time>
      </trkpt>
      <trkpt lat="50.047571528702974" lon="6.02763301692903">
        <ele>471.99</ele>
        <time>2024-12-29T18:09:33.872Z</time>
      </trkpt>
      <trkpt lat="50.04774394445121" lon="6.027745921164751">
        <ele>471.63</ele>
        <time>2024-12-29T18:09:55.537Z</time>
      </trkpt>
      <trkpt lat="50.04799213260412" lon="6.0279330890625715">
        <ele>471.25</ele>
        <time>2024-12-29T18:10:17.239Z</time>
      </trkpt>
      <trkpt lat="50.048240236938" lon="6.02812017314136">
        <ele>470.91</ele>
        <time>2024-12-29T18:10:38.978Z</time>
      </trkpt>
      <trkpt lat="50.04848834127188" lon="6.028307257220149">
        <ele>470.47</ele>
        <time>2024-12-29T18:11:00.753Z</time>
      </trkpt>
      <trkpt lat="50.048735942691565" lon="6.028493922203779">
        <ele>469.94</ele>
        <time>2024-12-29T18:11:22.565Z</time>
      </trkpt>
      <trkpt lat="50.048842979595065" lon="6.028539938852191">
        <ele>469.44</ele>
        <time>2024-12-29T18:11:44.392Z</time>
      </trkpt>
      <trkpt lat="50.04891196265817" lon="6.028500963002443">
        <ele>468.9</ele>
        <time>2024-12-29T18:12:06.229Z</time>
      </trkpt>
      <trkpt lat="50.04897893406451" lon="6.028394931927323">
        <ele>468.33</ele>
        <time>2024-12-29T18:12:28.079Z</time>
      </trkpt>
      <trkpt lat="50.04904062487185" lon="6.028139870613813">
        <ele>467.73</ele>
        <time>2024-12-29T18:12:49.952Z</time>
      </trkpt>
      <trkpt lat="50.049101980403066" lon="6.0278859827667475">
        <ele>467.03</ele>
        <time>2024-12-29T18:13:11.848Z</time>
      </trkpt>
      <trkpt lat="50.049211950972676" lon="6.0276509542018175">
        <ele>466.26</ele>
        <time>2024-12-29T18:13:33.769Z</time>
      </trkpt>
      <trkpt lat="50.049248998984694" lon="6.0275649558752775">
        <ele>465.43</ele>
        <time>2024-12-29T18:13:55.699Z</time>
      </trkpt>
      <trkpt lat="50.049436166882515" lon="6.0273544024676085">
        <ele>464.44</ele>
        <time>2024-12-29T18:14:17.660Z</time>
      </trkpt>
      <trkpt lat="50.049623334780335" lon="6.027143849059939">
        <ele>463.33</ele>
        <time>2024-12-29T18:14:39.652Z</time>
      </trkpt>
      <trkpt lat="50.049809999763966" lon="6.026933966204524">
        <ele>462.13</ele>
        <time>2024-12-29T18:15:01.675Z</time>
      </trkpt>
      <trkpt lat="50.04994763061404" lon="6.026713103055954">
        <ele>460.92</ele>
        <time>2024-12-29T18:15:23.724Z</time>
      </trkpt>
      <trkpt lat="50.05008492618799" lon="6.026492994278669">
        <ele>459.74</ele>
        <time>2024-12-29T18:15:45.799Z</time>
      </trkpt>
      <trkpt lat="50.05014292895794" lon="6.026365924626589">
        <ele>458.49</ele>
        <time>2024-12-29T18:16:07.888Z</time>
      </trkpt>
      <trkpt lat="50.05020562559366" lon="6.026124358177185">
        <ele>457.07</ele>
        <time>2024-12-29T18:16:29.999Z</time>
      </trkpt>
      <trkpt lat="50.05026798695326" lon="6.025883965194225">
        <ele>455.55</ele>
        <time>2024-12-29T18:16:52.132Z</time>
      </trkpt>
      <trkpt lat="50.05029195919633" lon="6.025705933570862">
        <ele>453.93</ele>
        <time>2024-12-29T18:17:14.281Z</time>
      </trkpt>
      <trkpt lat="50.05029195919633" lon="6.0255269799381495">
        <ele>452.22</ele>
        <time>2024-12-29T18:17:36.445Z</time>
      </trkpt>
      <trkpt lat="50.05027293227613" lon="6.025296980515122">
        <ele>450.36</ele>
        <time>2024-12-29T18:17:58.629Z</time>
      </trkpt>
      <trkpt lat="50.05029195919633" lon="6.025055916979909">
        <ele>448.44</ele>
        <time>2024-12-29T18:18:20.834Z</time>
      </trkpt>
      <trkpt lat="50.05035096779466" lon="6.024836981669068">
        <ele>446.36</ele>
        <time>2024-12-29T18:18:43.060Z</time>
      </trkpt>
      <trkpt lat="50.050433948636055" lon="6.024699937552214">
        <ele>444.24</ele>
        <time>2024-12-29T18:19:05.302Z</time>
      </trkpt>
      <trkpt lat="50.05052296444774" lon="6.024632966145873">
        <ele>442.0</ele>
        <time>2024-12-29T18:19:27.557Z</time>
      </trkpt>
      <trkpt lat="50.050543919205666" lon="6.024630954489112">
        <ele>439.65</ele>
        <time>2024-12-29T18:19:49.815Z</time>
      </trkpt>
      <trkpt lat="50.05067593418062" lon="6.024621985852718">
        <ele>437.14</ele>
        <time>2024-12-29T18:20:12.090Z</time>
      </trkpt>
      <trkpt lat="50.05091599188745" lon="6.024729944765568">
        <ele>434.58</ele>
        <time>2024-12-29T18:20:34.399Z</time>
      </trkpt>
      <trkpt lat="50.051014982163906" lon="6.024742936715484">
        <ele>431.84</ele>
        <time>2024-12-29T18:20:56.721Z</time>
      </trkpt>
      <trkpt lat="50.05130097270012" lon="6.02471393533051">
        <ele>428.94</ele>
        <time>2024-12-29T18:21:19.081Z</time>
      </trkpt>
      <trkpt lat="50.05158696323633" lon="6.024684933945537">
        <ele>425.77</ele>
        <time>2024-12-29T18:21:41.480Z</time>
      </trkpt>
      <trkpt lat="50.051872953772545" lon="6.024655932560563">
        <ele>422.21</ele>
        <time>2024-12-29T18:22:03.917Z</time>
      </trkpt>
      <trkpt lat="50.05213899537921" lon="6.024643946439028">
        <ele>418.8</ele>
        <time>2024-12-29T18:22:26.389Z</time>
      </trkpt>
      <trkpt lat="50.0523379817605" lon="6.024707984179258">
        <ele>415.57</ele>
        <time>2024-12-29T18:22:48.888Z</time>
      </trkpt>
      <trkpt lat="50.052555995061994" lon="6.024731956422329">
        <ele>412.11</ele>
        <time>2024-12-29T18:23:11.417Z</time>
      </trkpt>
      <trkpt lat="50.05281097255647" lon="6.024723993614316">
        <ele>408.72</ele>
        <time>2024-12-29T18:23:33.980Z</time>
      </trkpt>
      <trkpt lat="50.053052958101034" lon="6.024750983342528">
        <ele>405.39</ele>
        <time>2024-12-29T18:23:56.575Z</time>
      </trkpt>
      <trkpt lat="50.053116995841265" lon="6.024781996384263">
        <ele>402.42</ele>
        <time>2024-12-29T18:24:19.179Z</time>
      </trkpt>
      <trkpt lat="50.05317692644894" lon="6.02477696724236">
        <ele>399.54</ele>
        <time>2024-12-29T18:24:41.791Z</time>
      </trkpt>
      <trkpt lat="50.0532309897244" lon="6.024751989170909">
        <ele>396.76</ele>
        <time>2024-12-29T18:25:04.411Z</time>
      </trkpt>
      <trkpt lat="50.053330985829234" lon="6.0245609655976295">
        <ele>394.01</ele>
        <time>2024-12-29T18:25:27.052Z</time>
      </trkpt>
      <trkpt lat="50.05338898859918" lon="6.024483935907483">
        <ele>391.43</ele>
        <time>2024-12-29T18:25:49.703Z</time>
      </trkpt>
      <trkpt lat="50.05343299359083" lon="6.024441942572594">
        <ele>388.98</ele>
        <time>2024-12-29T18:26:12.361Z</time>
      </trkpt>
      <trkpt lat="50.0535209197551" lon="6.024418976157904">
        <ele>386.59</ele>
        <time>2024-12-29T18:26:35.031Z</time>
      </trkpt>
      <trkpt lat="50.05360499024391" lon="6.024487959221005">
        <ele>384.39</ele>
        <time>2024-12-29T18:26:57.713Z</time>
      </trkpt>
      <trkpt lat="50.053611947223544" lon="6.024472955614328">
        <ele>382.45</ele>
        <time>2024-12-29T18:27:20.397Z</time>
      </trkpt>
      <trkpt lat="50.053632985800505" lon="6.024458957836032">
        <ele>380.6</ele>
        <time>2024-12-29T18:27:43.084Z</time>
      </trkpt>
      <trkpt lat="50.05366693250835" lon="6.024461975321174">
        <ele>378.88</ele>
        <time>2024-12-29T18:28:05.776Z</time>
      </trkpt>
      <trkpt lat="50.05375393666327" lon="6.024567922577262">
        <ele>377.25</ele>
        <time>2024-12-29T18:28:28.482Z</time>
      </trkpt>
      <trkpt lat="50.053785955533385" lon="6.02464796975255">
        <ele>375.83</ele>
        <time>2024-12-29T18:28:51.196Z</time>
      </trkpt>
      <trkpt lat="50.053806994110346" lon="6.024700943380594">
        <ele>374.53</ele>
        <time>2024-12-29T18:29:13.916Z</time>
      </trkpt>
      <trkpt lat="50.05381898023188" lon="6.024702955037355">
        <ele>373.33</ele>
        <time>2024-12-29T18:29:36.637Z</time>
      </trkpt>
      <trkpt lat="50.053870948031545" lon="6.024835975840688">
        <ele>372.19</ele>
        <time>2024-12-29T18:29:59.372Z</time>
      </trkpt>
      <trkpt lat="50.05381696857512" lon="6.024923985823989">
        <ele>371.26</ele>
        <time>2024-12-29T18:30:22.117Z</time>
      </trkpt>
      <trkpt lat="50.053807999938726" lon="6.02499196305871">
        <ele>370.27</ele>
        <time>2024-12-29T18:30:44.868Z</time>
      </trkpt>
      <trkpt lat="50.05381193943322" lon="6.025020964443684">
        <ele>369.31</ele>
        <time>2024-12-29T18:31:07.622Z</time>
      </trkpt>
      <trkpt lat="50.05384094081819" lon="6.025043930858374">
        <ele>368.36</ele>
        <time>2024-12-29T18:31:30.380Z</time>
      </trkpt>
      <trkpt lat="50.05384395830333" lon="6.025029933080077">
        <ele>367.47</ele>
        <time>2024-12-29T18:31:53.139Z</time>
      </trkpt>
      <trkpt lat="50.05386692471802" lon="6.0250419192016125">
        <ele>366.57</ele>
        <time>2024-12-29T18:32:15.902Z</time>
      </trkpt>
      <trkpt lat="50.05384496413171" lon="6.025146944448352">
        <ele>365.72</ele>
        <time>2024-12-29T18:32:38.674Z</time>
      </trkpt>
      <trkpt lat="50.0539009552449" lon="6.025171922519803">
        <ele>364.78</ele>
        <time>2024-12-29T18:33:01.454Z</time>
      </trkpt>
      <trkpt lat="50.05392693914473" lon="6.025118948891759">
        <ele>363.9</ele>
        <time>2024-12-29T18:33:24.240Z</time>
      </trkpt>
      <trkpt lat="50.05404864437878" lon="6.025345344096422">
        <ele>362.86</ele>
        <time>2024-12-29T18:33:47.051Z</time>
      </trkpt>
      <trkpt lat="50.05416993051767" lon="6.0255709849298">
        <ele>361.93</ele>
        <time>2024-12-29T18:34:09.887Z</time>
      </trkpt>
      <trkpt lat="50.054093236103654" lon="6.025975998491049">
        <ele>361.26</ele>
        <time>2024-12-29T18:34:32.759Z</time>
      </trkpt>
      <trkpt lat="50.05401696078479" lon="6.026378916576505">
        <ele>360.45</ele>
        <time>2024-12-29T18:34:55.667Z</time>
      </trkpt>
      <trkpt lat="50.05393423140049" lon="6.026814356446266">
        <ele>359.63</ele>
        <time>2024-12-29T18:35:18.615Z</time>
      </trkpt>
      <trkpt lat="50.05385150201619" lon="6.027249712496996">
        <ele>358.79</ele>
        <time>2024-12-29T18:35:41.602Z</time>
      </trkpt>
      <trkpt lat="50.053768856450915" lon="6.027685068547726">
        <ele>357.94</ele>
        <time>2024-12-29T18:36:04.628Z</time>
      </trkpt>
      <trkpt lat="50.05368696525693" lon="6.0281159821897745">
        <ele>357.31</ele>
        <time>2024-12-29T18:36:27.692Z</time>
      </trkpt>
      <trkpt lat="50.05366299301386" lon="6.028242968022823">
        <ele>356.81</ele>
        <time>2024-12-29T18:36:50.768Z</time>
      </trkpt>
      <trkpt lat="50.05358696915209" lon="6.028619986027479">
        <ele>356.47</ele>
        <time>2024-12-29T18:37:13.877Z</time>
      </trkpt>
      <trkpt lat="50.05356391891837" lon="6.028724927455187">
        <ele>356.09</ele>
        <time>2024-12-29T18:37:36.996Z</time>
      </trkpt>
      <trkpt lat="50.05352997221053" lon="6.02888192050159">
        <ele>355.84</ele>
        <time>2024-12-29T18:38:00.129Z</time>
      </trkpt>
      <trkpt lat="50.05349292419851" lon="6.0289989318698645">
        <ele>355.72</ele>
        <time>2024-12-29T18:38:23.273Z</time>
      </trkpt>
      <trkpt lat="50.053441962227225" lon="6.029143938794732">
        <ele>355.69</ele>
        <time>2024-12-29T18:38:46.432Z</time>
      </trkpt>
      <trkpt lat="50.05349895916879" lon="6.029206970706582">
        <ele>355.7</ele>
        <time>2024-12-29T18:39:09.600Z</time>
      </trkpt>
      <trkpt lat="50.05360691808164" lon="6.0293499659746885">
        <ele>355.85</ele>
        <time>2024-12-29T18:39:32.787Z</time>
      </trkpt>
      <trkpt lat="50.053675984963775" lon="6.029454991221428">
        <ele>356.11</ele>
        <time>2024-12-29T18:39:55.987Z</time>
      </trkpt>
      <trkpt lat="50.053806994110346" lon="6.029624976217747">
        <ele>356.5</ele>
        <time>2024-12-29T18:40:19.210Z</time>
      </trkpt>
      <trkpt lat="50.05387597717345" lon="6.029679961502552">
        <ele>356.92</ele>
        <time>2024-12-29T18:40:42.443Z</time>
      </trkpt>
      <trkpt lat="50.05392392165959" lon="6.029665963724256">
        <ele>357.28</ele>
        <time>2024-12-29T18:41:05.682Z</time>
      </trkpt>
      <trkpt lat="50.054111927747726" lon="6.029424984008074">
        <ele>357.59</ele>
        <time>2024-12-29T18:41:28.954Z</time>
      </trkpt>
      <trkpt lat="50.05419893190265" lon="6.029337979853153">
        <ele>358.0</ele>
        <time>2024-12-29T18:41:52.240Z</time>
      </trkpt>
      <trkpt lat="50.05434796214104" lon="6.029215939342976">
        <ele>358.42</ele>
        <time>2024-12-29T18:42:15.548Z</time>
      </trkpt>
      <trkpt lat="50.054408982396126" lon="6.029152991250157">
        <ele>358.77</ele>
        <time>2024-12-29T18:42:38.866Z</time>
      </trkpt>
      <trkpt lat="50.05455398932099" lon="6.028989963233471">
        <ele>359.23</ele>
        <time>2024-12-29T18:43:02.208Z</time>
      </trkpt>
      <trkpt lat="50.05461894907057" lon="6.028870940208435">
        <ele>359.73</ele>
        <time>2024-12-29T18:43:25.563Z</time>
      </trkpt>
      <trkpt lat="50.054665971547365" lon="6.02877295576036">
        <ele>360.23</ele>
        <time>2024-12-29T18:43:48.929Z</time>
      </trkpt>
      <trkpt lat="50.05478993989527" lon="6.028437931090593">
        <ele>360.75</ele>
        <time>2024-12-29T18:44:12.328Z</time>
      </trkpt>
      <trkpt lat="50.05486696958542" lon="6.028259983286262">
        <ele>361.3</ele>
        <time>2024-12-29T18:44:35.746Z</time>
      </trkpt>
      <trkpt lat="50.05487694405019" lon="6.028234921395779">
        <ele>361.82</ele>
        <time>2024-12-29T18:44:59.166Z</time>
      </trkpt>
      <trkpt lat="50.05502723157406" lon="6.0279604978859425">
        <ele>362.28</ele>
        <time>2024-12-29T18:45:22.617Z</time>
      </trkpt>
      <trkpt lat="50.0551769323647" lon="6.027686996385455">
        <ele>362.85</ele>
        <time>2024-12-29T18:45:46.099Z</time>
      </trkpt>
      <trkpt lat="50.055243987590075" lon="6.027503935620189">
        <ele>363.55</ele>
        <time>2024-12-29T18:46:09.599Z</time>
      </trkpt>
      <trkpt lat="50.0552839692682" lon="6.027348954230547">
        <ele>364.2</ele>
        <time>2024-12-29T18:46:33.113Z</time>
      </trkpt>
      <trkpt lat="50.05532797425985" lon="6.027157930657268">
        <ele>364.84</ele>
        <time>2024-12-29T18:46:56.645Z</time>
      </trkpt>
      <trkpt lat="50.0553669501096" lon="6.026949975639582">
        <ele>365.44</ele>
        <time>2024-12-29T18:47:20.195Z</time>
      </trkpt>
      <trkpt lat="50.05540902726352" lon="6.026699775829911">
        <ele>365.85</ele>
        <time>2024-12-29T18:47:43.768Z</time>
      </trkpt>
      <trkpt lat="50.05545093677938" lon="6.026450917124748">
        <ele>366.17</ele>
        <time>2024-12-29T18:48:07.363Z</time>
      </trkpt>
      <trkpt lat="50.05548999644816" lon="6.026116982102394">
        <ele>366.41</ele>
        <time>2024-12-29T18:48:30.987Z</time>
      </trkpt>
      <trkpt lat="50.05550893954933" lon="6.025895951315761">
        <ele>366.44</ele>
        <time>2024-12-29T18:48:54.630Z</time>
      </trkpt>
      <trkpt lat="50.05551899783313" lon="6.025703921914101">
        <ele>366.31</ele>
        <time>2024-12-29T18:49:18.290Z</time>
      </trkpt>
      <trkpt lat="50.05551799200475" lon="6.025469982996583">
        <ele>366.03</ele>
        <time>2024-12-29T18:49:41.970Z</time>
      </trkpt>
      <trkpt lat="50.05550893954933" lon="6.025264961645007">
        <ele>365.67</ele>
        <time>2024-12-29T18:50:05.667Z</time>
      </trkpt>
      <trkpt lat="50.05549393594265" lon="6.025101933628321">
        <ele>365.17</ele>
        <time>2024-12-29T18:50:29.378Z</time>
      </trkpt>
      <trkpt lat="50.05546594038606" lon="6.024934966117144">
        <ele>364.43</ele>
        <time>2024-12-29T18:50:53.104Z</time>
      </trkpt>
      <trkpt lat="50.05542495287955" lon="6.024757940322161">
        <ele>363.34</ele>
        <time>2024-12-29T18:51:16.846Z</time>
      </trkpt>
      <trkpt lat="50.05538396537304" lon="6.024620980024338">
        <ele>362.04</ele>
        <time>2024-12-29T18:51:40.601Z</time>
      </trkpt>
      <trkpt lat="50.055219093337655" lon="6.024217139929533">
        <ele>360.4</ele>
        <time>2024-12-29T18:52:04.398Z</time>
      </trkpt>
      <trkpt lat="50.055054975673556" lon="6.0238149762153625">
        <ele>359.15</ele>
        <time>2024-12-29T18:52:28.235Z</time>
      </trkpt>
      <trkpt lat="50.0549179315567" lon="6.0238229390233755">
        <ele>357.95</ele>
        <time>2024-12-29T18:52:52.091Z</time>
      </trkpt>
      <trkpt lat="50.05479798652232" lon="6.023773988708854">
        <ele>357.15</ele>
        <time>2024-12-29T18:53:15.963Z</time>
      </trkpt>
      <trkpt lat="50.05464040674269" lon="6.023716488853097">
        <ele>356.52</ele>
        <time>2024-12-29T18:53:39.857Z</time>
      </trkpt>
      <trkpt lat="50.05448299460113" lon="6.02365898899734">
        <ele>356.09</ele>
        <time>2024-12-29T18:54:03.773Z</time>
      </trkpt>
      <trkpt lat="50.054325917735696" lon="6.023598974570632">
        <ele>355.73</ele>
        <time>2024-12-29T18:54:27.710Z</time>
      </trkpt>
      <trkpt lat="50.05404797382653" lon="6.023451955989003">
        <ele>355.38</ele>
        <time>2024-12-29T18:54:51.686Z</time>
      </trkpt>
      <trkpt lat="50.05402115173638" lon="6.023420188575983">
        <ele>354.87</ele>
        <time>2024-12-29T18:55:15.667Z</time>
      </trkpt>
    </trkseg>
  </trk>
</gpx>
